Aviation Digital Data Service (ADDS)

Output produced by METARs form (1723 UTC 09 December 2016)
found at http://aviationweather.gov/adds/metars/
 
K04V 091709Z AUTO 22003KT 10SM CLR M02/M10 A3031 RMK AO2
K04W 091712Z AUTO 33004KT 4SM -SN SCT015 OVC028 M09/M12 A3051 RMK AO2
K05U 091715Z AUTO 00000KT 10SM SCT110 02/M07 A3026 RMK A01
K06D 091715Z AUTO 33011KT 10SM CLR M23/M25 A3051 RMK AO2
K08D 091715Z AUTO 33009G14KT 9SM SCT002 M24/M26 A3054 RMK AO2
K0A9 091715Z AUTO 26004G13KT 10SM OVC032 M02/M10 A3045 RMK AO2
K0CO 091720Z AUTO 30037KT M1/4SM SN OVC004 M10/M16 A3013 RMK AO2
K0E0 091715Z AUTO 04003KT 10SM CLR 01/M06 A3036 RMK AO2 T00051057
K0F2 091715Z AUTO 14005KT 10SM OVC050 01/M08 A3061 RMK AO2 T00141080
K0J4 091658Z AUTO 02011KT 10SM CLR 08/M09 A3049 RMK AO2 SLP324 T00781089
K0R0 091715Z AUTO 36009KT 10SM CLR 06/M09 A3059 RMK AO2
K0R4 091715Z AUTO 02013G17KT 10SM CLR 04/M05 A3065 RMK AO2 T00421054
K0S9 091715Z AUTO VRB04KT 10SM 01/01 A2997 RMK AO2
K0V4 091715Z AUTO 28010G15KT 10SM CLR 03/M11 A3038 RMK AO1 T00291111
K0VG 091650Z AUTO 00000KT 10SM CLR M02/M10 A3051 RMK AO2
K11R 091715Z AUTO 02006KT 10SM OVC090 05/M06 A3063 RMK AO2 T00531060
K12N 091654Z AUTO VRB06G19KT 02/M10 A3011 RMK AO1 SLP206 T00171100
K14Y 091716Z AUTO 25005KT 5SM -SN OVC018 M12/M16 A3053 RMK AO2
K18A 091715Z AUTO 24004KT 10SM CLR 07/M07 A3040 RMK AO2 T00681067
K1A5 091705Z AUTO 35008KT 10SM CLR 01/M12 A3037 RMK AO2 T00131119
K1A6 091715Z AUTO 33003KT 10SM OVC032 M02/M10 A3052 RMK AO2 T10241100
K1A9 091715Z AUTO 36006KT 10SM CLR 06/M08 A3052 RMK AO2 T00581083
K1F0 091715Z AUTO 10003KT 10SM OVC060 00/M10 A3064 RMK AO2
K1H2 091715Z AUTO 31004KT 10SM OVC024 M04/M08 A3061 RMK AO2 T10381085
K1J0 091658Z AUTO 36010KT 10SM CLR 09/M08 A3048 RMK AO2 SLP306 T00891078 $
K1K1 091715Z AUTO 18009KT 10SM OVC060 M04/M11 A3058 RMK AO2 T10451113
K1L0 091715Z AUTO 03008KT 10SM CLR 08/M07 A3055 RMK AO2 T00761067
K1M4 091656Z AUTO 33007KT 10SM CLR M01/M07 A3059 RMK AO2 SLP383 T10061072
K1M5 091715Z AUTO 34005KT 10SM BKN029 M02/M09 A3058 RMK A01
K1P1 091715Z AUTO 28011G21KT 10SM M02/M11 A2993 RMK AO2 T10251115
K1R7 091715Z AUTO 36010KT 040V010 10SM CLR A3059 RMK AO2
K1S5 091715Z AUTO 00000KT 10SM M05/M07 A3021 RMK AO2 T10551070
K1V4 091654Z AUTO M03/M09 A2992 RMK AO1 SLP145 P0001 T10331089
K1V6 091715Z AUTO 00000KT 10SM CLR 00/M06 A3015 RMK AO2
K1YT 091658Z AUTO 09009KT 10SM FEW023 BKN047 M05/M09 A3015 RMK AO2 SHSNE00SNB00E23SHSNB23E34 SLPNO T10541091 $
K20U 091715Z AUTO 00000KT 10SM SCT003 M22/M24 A3049 RMK AO2
K20V 091715Z AUTO 27009G15KT 10SM BKN050 OVC090 03/M02 A3024 RMK AO2
K21D 091713Z AUTO 25005KT 5SM -SN OVC015 M07/M10 A3054 RMK AO2
K22N 091715Z AUTO 29006G17KT 10SM 02/M07 A3017 RMK AO2
K24J 091715Z AUTO 02008KT CLR 12/M03 A3041 RMK AO1
K28J 091655Z AUTO 04006KT 10SM CLR 13/00 A3036 RMK AO2 TSNO
K2A0 091715Z AUTO 00000G10KT 10SM CLR 00/M08 A3053 RMK A01
K2C8 091715Z AUTO 27010KT 10SM M19/M23 A3059 RMK AO2
K2DP 091656Z AUTO 34015KT 10SM CLR 05/M06 A3032 RMK AO2 SLPNO T00501060 $
K2F5 091715Z AUTO 17008KT 10SM OVC024 M01/M05 A3048 RMK AO2
K2G4 091705Z AUTO 27009G16KT 252V312 1 1/2SM BR M09/M10 A3021 RMK AO1
K2G9 091715Z AUTO 28013G17KT 3/4SM -SN OVC011 M07/M08 A3025 RMK AO2
K2I0 091715Z AUTO 01006KT 10SM BKN025 M02/M08 A3063 RMK AO2 T10231079
K2P2 091715Z AUTO 30008KT 10SM BKN026 BKN031 OVC065 M04/M10 A3038 RMK AO2 T10371099
K2V5 091715Z AUTO 21010KT 10SM CLR M04/M10 A3021 RMK AO2
K2V6 091714Z AUTO 00000KT 10SM CLR M08/M14 A3018 RMK AO2
K2W6 091710Z AUTO 30010G19KT 290V350 10SM CLR 03/M08 A3031 RMK AO1
K2WX 091656Z AUTO 04005KT M18/M21 A3032 RMK AO1 SLP353 T11781206
K33V 091715Z AUTO 26014KT 10SM 00/M05 A3017 RMK AO2
K36U 091715Z AUTO 00000KT 2 1/2SM BR SCT042 BKN050 OVC080 00/00 A3023 RMK AO2
K3AU 091715Z AUTO 15009KT 10SM OVC065 M03/M11 A3058 RMK AO2
K3D2 091715Z AUTO 30009KT 260V320 10SM SCT028 BKN065 M04/M11 A3038 RMK AO2 T10451113
K3F3 091715Z AUTO 02007KT 10SM CLR 04/M06 A3067 RMK AO2 T00381065 PWINO
K3I2 091715Z AUTO 27004KT 10SM BKN031 M01/M09 A3052 RMK AO2 T10081088
K3J7 091715Z AUTO 33003KT 10SM CLR 07/M07 A3039 RMK AO2
K3K3 091715Z AUTO 17009KT 10SM CLR 02/M06 A3027 RMK AO2
K3LF 091715Z AUTO 33007KT 10SM OVC021 M06/M10 A3061 RMK AO2 T10571104
K3N8 091715Z AUTO 29009KT 7SM OVC030 M15/M17 A3053 RMK AO2 T11461173
K3R7 091713Z AUTO 03013G19KT 10SM CLR 06/M06 A3057 RMK AO2
K3T5 091715Z AUTO 02006KT 10SM CLR 06/M05 A3060 RMK AO2 T00551046
K40B 091716Z AUTO VRB06G13KT M08/M12 A2970 RMK AO1 SLP089 T10831117 51017
K40J 091715Z AUTO 04007KT 360V080 10SM CLR 12/M05 A3040 RMK AO2 T01151050
K42J 091715Z AUTO 03007KT 10SM 12/M06 A3035 RMK AO1 TSNO
K46D 091715Z AUTO 30011KT 10SM BKN001 BKN006 BKN010 M23/M25 A3057 RMK AO2
K46U 091700Z AUTO 00000KT 5SM BR FEW003 BKN014 OVC039 M06/M07 A3017 RMK A01 P0001
K49A 091715Z AUTO 28006KT 10SM CLR A3047 RMK AO2
K4A6 091715Z AUTO 10003KT 10SM CLR 01/M08 A3056 RMK AO2
K4A9 091715Z AUTO 32003KT 10SM CLR 00/M10 A3052 RMK AO2
K4BM 091715Z AUTO 27013G24KT 240V300 10SM CLR M03/M08 A3017 RMK AO2
K4I3 091706Z AUTO 25008KT 7SM -SN BKN012 M05/M07 A3043 RMK AO2
K4I7 091715Z AUTO 28005KT 10SM BKN031 M03/M07 A3054 RMK AO2
K4M9 091715Z AUTO 34003KT 10SM CLR M02/M10 A3069 RMK AO2
K4MR 091658Z AUTO 22014KT 10SM BKN006 M02/M04 A3034 RMK AO2 SLP296 T10171037 $
K4O4 091715Z AUTO 09005KT 10SM CLR 02/M10 A3066 RMK AO2
K4V0 091715Z AUTO 00000KT 10SM BKN060 OVC100 M03/M13 A3029 RMK AO2 T10341127
K54J 091715Z AUTO 04011G15KT 10SM CLR 08/M09 A3046 RMK AO2 T00771089
K57C 091715Z AUTO 29009KT 10SM OVC031 M05/M11 A3049 RMK AO2 T10471113
K5A6 091710Z AUTO 05008KT 10SM CLR 01/M08 A3063 RMK AO2 T00121077
K5C1 091715Z AUTO 01006KT 10SM OVC065 02/M08 A3061 RMK AO1
K5M9 091715Z AUTO 28004KT 10SM CLR M02/M10 A3061 RMK AO2 T10201105
K5R8 091715Z AUTO 03005G14KT 10SM CLR 06/M07 A3058 RMK AO2 T00601066
K5SM 091712Z AUTO 23010G21KT 210V270 3SM -SN OVC005 M05/M06 A3031 RMK AO2 TSNO
K5T9 091715Z AUTO 13005KT 10SM OVC055 06/M03 A3060 RMK A01
K65S 091710Z AUTO 07005KT 10SM OVC050 M10/M17 A3025 RMK AO2
K66R 091715Z AUTO 35007KT 10SM CLR 06/M07 A3062 RMK AO2 T00641074
K6A1 091715Z AUTO 01009KT 340V040 10SM 09/M07 A3044 RMK AO2 T00871071
K6A2 091715Z AUTO 36007KT 10SM CLR 05/M05 A3044 RMK AO2
K6B0 091715Z AUTO 36009KT 7SM SCT029 SCT034 OVC042 M03/M11 A3002 RMK AO2 T10321114
K6B9 091715Z AUTO 29012G20KT 270V330 10SM SCT024 BKN037 BKN055 M03/M08 A3014 RMK AO2
K6I2 091715Z AUTO 32003KT 10SM OVC025 M04/M10 A3057 RMK AO2
K6L4 091715Z AUTO 00000KT 8SM -SN OVC042 M05/M10 A3045 RMK AO2
K6R3 091715Z AUTO 03006KT 5SM HZ OVC090 07/M03 A3060 RMK AO2 T00651034
K6R6 091653Z AUTO 19004KT 01/M03 A3052 RMK AO1 SLP342 T00111028 $
K74V 091715Z AUTO 00000KT 10SM OVC080 M04/M07 A3034 RMK AO2
K79J 091656Z AUTO 36010G16KT 10SM CLR 09/M09 A3049 RMK AO2 SLP324 T00891089
K7BM 091714Z AUTO 26018G33KT 240V300 10SM CLR 01/M07 A3018 RMK AO2
K7L2 091655Z AUTO 00000KT 10SM CLR M25/M28 A3058 RMK AO2
K7N0 091656Z AUTO 01009KT 10SM 07/M06 A3055 RMK AO2 SLP347 T00671056 PNO $
K7W4 091715Z AUTO 29005KT 10SM CLR 03/M10 A3034 RMK AO1 T00301102
K7W6 091705Z AUTO 35011G16KT 300V360 10SM CLR 05/M06 A3032 RMK AO2 T00461062
K82C 091715Z AUTO 28008KT 10SM CLR M06/M12 A3051 RMK AO2 T10651125
K82V 091715Z AUTO 18005KT 10SM CLR M06/M12 A3011 RMK AO2
K8A0 091715Z AUTO 34005KT 10SM CLR 00/M05 A3052 RMK AO2
K8D3 091656Z AUTO 34011KT M16/M19 A3057 RMK AO1 SLP402 T11561194
K8W2 091715Z AUTO 34007KT 290V020 10SM CLR 01/M12 A3033 RMK AO1 T00071122
K96D 091715Z AUTO 26005KT M20/M20 A3059 RMK AO2
K9A5 091715Z AUTO 03005KT 10SM CLR 02/M10 A3054 RMK AO2 T00181099
K9D7 091715Z AUTO 30008KT 10SM CLR M22/M24 A3057 RMK AO2
K9MN 091714Z AUTO 28005KT 10SM SCT007 M09/M12 A3054 RMK AO1 T10941124
K9V9 091715Z AUTO 10006KT 10SM SCT031 BKN043 OVC055 M13/M16 A3051 RMK AO2 T11311161
KA08 091715Z AUTO 33007KT 280V020 10SM CLR 04/M06 A3055 RMK AO2 T00391060
KA39 091715Z AUTO 00000KT 10SM CLR 11/04 A3032 RMK AO2
KAAA 091715Z AUTO 32004KT 10SM OVC028 M04/M10 A3060 RMK AO2 T10401101
KAAF 091653Z AUTO 03011KT 10SM CLR 12/M07 A3042 RMK AO2 SLP299 T01171072
KAAO 091654Z AUTO 16011KT 10SM OVC060 M04/M11 A3059 RMK AO2 SLP382 T10441106
KAAT 091655Z AUTO 00000KT 10SM BKN037 OVC046 04/03 A3011 RMK AO2 SLP202 T00440028 TSNO
KABE 091651Z 31014G23KT 10SM OVC049 02/M08 A3016 RMK AO2 SLP218 T00221078
KABH 091656Z AUTO 00000KT -RA CLR A3013 RMK AO2 SLPNO P0000 $
KABI 091652Z 15006KT 10SM OVC043 M01/M09 A3058 RMK AO2 SNE1555 SLP369 P0001 T10061089
KABQ 091652Z VRB05KT 10SM SCT020 SCT200 01/M04 A3040 RMK AO2 SLP316 MTNS OBSC SE T00061044
KABR 091653Z AUTO 01006KT 10SM FEW065 SCT080 M15/M20 A3059 RMK AO2 SLP394 T11501200 $
KABY 091653Z 34007KT 10SM CLR 09/M10 A3048 RMK AO2 SLP321 T00891100
KACB 091715Z AUTO 00000KT 10SM -SN SCT013 SCT023 OVC037 M03/M05 A3034 RMK AO2 T10351054
KACJ 091715Z AUTO 33008KT 10SM CLR 06/M11 A3045 RMK AO2
KACK 091653Z 30016G22KT 10SM SCT043 03/M08 A2995 RMK AO2 PK WND 29027/1635 SLP140 T00331078
KACP 091715Z AUTO 03010KT 10SM CLR 07/M05 A3059 RMK AO2 T00651053
KACQ 091714Z AUTO 26007KT 4SM -SN CLR M11/M13 A3057 RMK AO2
KACT 091651Z 06004KT 10SM OVC070 03/M08 A3065 RMK AO2 SLP381 T00331078
KACV 091653Z AUTO 14005KT 3SM -RA BR OVC016 12/11 A3016 RMK AO2 RAB1555E17B24 SLP217 P0001 T01170111
KACY 091654Z 29017G25KT 10SM FEW044 04/M08 A3019 RMK AO2 SLP224 T00391078
KADC 091714Z AUTO 29004KT 1 1/2SM -SN SCT012 SCT017 OVC023 M13/M17 A3051 RMK AO2 VIS 1/2V4
KADF 091656Z AUTO 04003KT 10SM CLR 01/M08 A3072 RMK AO2 SLP408 T00111083 FZRANO
KADG 091700Z AUTO 28006KT 4SM -SN BR BKN015 OVC038 M03/M04 A3041 RMK AO2 P0000 T10281044
KADH 091715Z AUTO 11005KT 10SM CLR 00/M10 A3062 RMK AO2
KADM 091655Z 13005KT 10SM OVC060 M00/M08 A3065
KADS 091647Z 05006KT 12SM OVC060 01/M08 A3065
KADU 091715Z AUTO 20004KT 10SM CLR M09/M12 A3057 RMK AO2
KADW 091658Z AUTO 30020G26KT 10SM CLR 03/M09 A3029 RMK AO2 SLP267 T00261092
KAEG 091647Z 14005KT 10SM SCT010 00/M04 A3040
KAEJ 091715Z AUTO 27012G22KT 10SM CLR 05/M08 A3019 RMK AO2 T00501081
KAEL 091715Z AUTO 27005KT 10SM SCT006 M09/M12 A3054 RMK AO2
KAEX 091653Z AUTO 01008KT 10SM CLR 05/M07 A3061 RMK AO2 SLP371 T00501067
KAFF 091658Z AUTO 00000KT 10SM CLR 02/M05 A3013 RMK AO2 SLP254 T00221054
KAFJ 091715Z AUTO 25008G16KT 10SM OVC019 M04/M09 A3036 RMK AO1
KAFK 091715Z AUTO 18006KT 10SM OVC085 M08/M13 A3060 RMK AO2 T10801129
KAFN 091652Z AUTO 28012G22KT 10SM FEW042 M02/M13 A2992 RMK AO2 PK WND 30027/1553 SLP151 T10171128
KAFO 091715Z AUTO 17014KT 10SM BKN038 OVC049 00/M03 A3013 RMK AO2
KAFP 091705Z AUTO 30011G15KT 10SM CLR 05/M10 A3042 RMK AO2 T00491096
KAFW 091653Z 11006KT 10SM OVC060 02/M09 A3064 RMK AO2 SLP388 T00171089
KAGC 091653Z 26011KT 10SM OVC016 M04/M09 A3034 RMK AO2 SLP296 T10391094
KAGS 091653Z 02008KT 10SM CLR 08/M09 A3044 RMK AO2 SLP307 T00831089
KAHN 091651Z 00000KT 10SM CLR 06/M09 A3043 RMK AO2 SLP311 T00561089
KAHQ 091715Z AUTO 13005KT 10SM OVC070 M10/M13 A3058 RMK AO2 T10991129
KAIA 091653Z AUTO 16003KT 10SM CLR M08/M13 A3017 RMK AO2 SLP285 T10781133
KAIB 091715Z AUTO 33003KT 10SM CLR 02/M07 A3037 RMK AO2
KAID 091559Z 26010G15KT 10SM OVC014 M05/M08 A3053
KAIG 091715Z AUTO 28008KT 10SM SCT022 M09/M13 A3040 RMK AO2 T10861132
KAIK 091715Z AUTO 35008KT 10SM CLR 06/M08 A3044 RMK AO2
KAIO 091715Z AUTO 22003KT 10SM CLR M09/M12 A3059 RMK AO2
KAIT 091713Z AUTO 00000KT 10SM OVC026 M11/M17 A3048 RMK AO2
KAIZ 091656Z AUTO VRB03KT 10SM CLR M02/M09 A3066 RMK AO2 SLP168 T10171089 FZRANO
KAJG 091715Z AUTO 28003KT 10SM OVC030 M03/M10 A3060 RMK AO2 T10331103
KAJO 091656Z AUTO 26003KT CLR 10/07 A3029 RMK AO2 SLP272 T01000072 PWINO $
KAJR 091715Z AUTO 32003KT 10SM CLR 04/M11 A3039 RMK AO2 T00421108
KAJZ 091615Z AUTO 00000KT 10SM BKN065 OVC080 00/M09 A3034 RMK AO2 T00001087
KAKH 091654Z AUTO 33008KT 10SM CLR 04/M11 A3042 RMK AO2 SLP306 T00441106
KAKO 091653Z AUTO 27011KT 10SM CLR M09/M14 A3013 RMK AO2 SLP268 T10891139
KAKQ 091654Z AUTO VRB06KT 10SM CLR 04/M10 A3035 RMK AO2 SLP281 T00391100
KAKR 091710Z AUTO 25014KT 10SM OVC015 M03/M07 A3037 RMK AO2 T10281072
KALB 091651Z 29021G27KT 10SM SCT041 BKN050 00/M10 A3006 RMK AO2 PK WND 32030/1613 SLP184 PRESENT WX VCSH T00001100
KALI 091653Z AUTO 01007KT 10SM OVC075 07/M04 A3061 RMK AO2 SLPNO T00671044
KALK 091656Z AUTO 09005KT 10SM CLR 11/00 A3033 RMK AO2 SLP223 T01110000
KALN 091650Z 30005KT 10SM SCT024 M05/M10 A3063
KALO 091654Z 31005KT 10SM CLR M08/M12 A3060 RMK AO2 SLP379 T10781122
KALS 091652Z AUTO 11003KT 10SM CLR M04/M13 A3030 RMK AO2 SLP324 T10441128
KALW 091707Z 24003KT 2SM BR BKN004 OVC008 M06/M07 A3016 RMK AO2 UPE1659 P0000 T10561067
KALX 091715Z AUTO 01008KT 10SM CLR 06/M08 A3050 RMK AO2 T00561076
KAMA 091711Z 20017G27KT 10SM OVC015 01/M04 A3032 RMK AO2 PK WND 19027/1656 T00061039
KAMG 091653Z AUTO VRB04KT 10SM CLR 09/M05 A3041 RMK AO2 SLP299 T00891050
KAMN 091712Z AUTO 26011G15KT 10SM SCT033 BKN047 BKN050 M01/M09 A3037 RMK AO2 T10091090
KAMW 091653Z AUTO VRB03KT 10SM CLR M09/M12 A3060 RMK AO2 SLP379 T10891122
KANB 091653Z AUTO 01003KT 10SM CLR 03/M09 A3055 RMK AO2 SLP356 T00281089
KAND 091656Z AUTO VRB05KT 10SM CLR 06/M08 A3041 RMK AO2 SLP302 T00561078
KANE 091650Z 28007KT 10SM -SN BKN014 M08/M12 A3054
KANJ 091655Z AUTO 01005KT 10SM OVC033 M07/M14 A3033 RMK AO2 SLP281 T10671139
KANK 091715Z AUTO 25019G27KT 10SM CLR 07/M06 A3027 RMK AO1 T00731059
KANQ 091715Z AUTO 28009KT 10SM OVC016 M03/M06 A3042 RMK
KANW 091715Z AUTO 14010G14KT 10SM OVC040 M09/M14 A3036 RMK AO2 T10931137
KAOH 091718Z AUTO 26015KT 1 3/4SM -SN BR OVC016 M04/M07 A3045 RMK AO2 SNB00 P0000 T10441067
KAOO 091653Z AUTO 28013G19KT 9SM OVC023 M03/M08 A3026 RMK AO2 SLP268 T10281083
KAPA 091653Z 13005KT 10SM FEW150 FEW220 05/M04 A3010 RMK AO2 SLP242 T00501044
KAPC 091715Z 29003KT 3/4SM -RA BR BKN002 OVC007 13/12 A3025 RMK AO2 RAB10 P0001 T01330117
KAPF 091653Z 05016G23KT 10SM FEW085 21/14 A3021 RMK AO2 SLP229 T02060139
KAPG 091658Z 29013G16KT 10SM SCT046 03/M08 A3027 RMK AO2A SLP254 T00331079
KAPN 091654Z AUTO 34007KT 10SM BKN050 M03/M09 A3032 RMK AO2 SLP281 T10331089
KAPY 091715Z AUTO 34005KT 10SM OVC070 07/M02 A3060 RMK AO2 T00701029
KAQO 091715Z AUTO 04003KT 10SM OVC060 A3064 RMK AO2
KAQP 091715Z AUTO 32005KT 10SM CLR M14/M18 A3059 RMK AO2
KAQR 091715Z AUTO 00000KT 10SM OVC065 00/M10 A3065 RMK AO2
KAQV 091656Z AUTO 05007KT 010V080 10SM CLR 05/M09 A3059 RMK AO2 SLP363 T00501089 $
KAQW 091652Z AUTO 28013G19KT 10SM -SN OVC043 M02/M11 A3001 RMK AO2 SNB51 SLP171 P0000 T10221106
KAQX 091715Z AUTO VRB04G12KT 10SM CLR 08/M08 A3041 RMK AO2
KARA 091653Z 04011KT 10SM CLR 07/M07 A3058 RMK AO2 SLP353 T00721072 $
KARB 091653Z 27011KT 10SM SCT030 BKN036 OVC070 M01/M07 A3037 RMK AO2 SLP297 T10111072
KARG 091715Z AUTO 00000KT 10SM CLR M02/M11 A3069 RMK AO1
KARM 091715Z AUTO 01007KT 10SM CLR 07/M04 A3060 RMK AO2 T00721040
KARR 091652Z 29010KT 10SM BKN036 M04/M08 A3054 RMK AO2 SLP354 T10441083
KART 091656Z AUTO 32013KT 10SM OVC042 M03/M11 A3015 RMK AO2 SLP217 T10331106
KARV 091715Z AUTO 31006KT 10SM OVC027 M08/M13 A3040 RMK AO2 T10851135
KARW 091715Z AUTO 33009G14KT 5SM HZ CLR 09/M05 A3039 RMK AO2
KASD 091653Z AUTO 03008KT 10SM CLR 07/M08 A3054 RMK AO2 SLP341 T00721078
KASE 091653Z 16003KT 10SM 048OVC M04/M06 A3028
KASG 091648Z 14004KT 10SM SKC M03/M10 A3065
KASH 091556Z 31015G22KT 10SM SCT049 01/M11 A2996 RMK AO2 SLP158 T00061106
KASJ 091705Z AUTO 36009G15KT 10SM CLR 03/M09 A3037 RMK AO2 T00331092
KASL 091715Z AUTO 04003KT 10SM OVC075 02/M09 A3067 RMK AO1 T00231089
KASN 091715Z AUTO 36006KT 10SM CLR 03/M08 A3056 RMK AO2 T00281076
KAST 091716Z AUTO 09008KT 2 1/2SM RA FEW007 BKN026 OVC040 06/03 A2996 RMK AO2 VIS 1 3/4 RWY 08 RAB07 P0003 T00560028
KASW 091715Z AUTO 28015G18KT 10SM BKN023 OVC033 M01/M08 A3047 RMK AO2
KASX 091653Z AUTO 25008KT 10SM OVC032 M09/M13 A3049 RMK AO2 SLP345 T10891128
KATL 091652Z 34013KT 10SM CLR 03/M08 A3047 RMK AO2 SLP326 T00331083
KATP 091715Z AUTO 05027KT 7SM OVC028 17/11 A3033 RMK A01
KATS 091715Z AUTO 15004KT 10SM OVC005 M01/M01 A3042 RMK AO2
KATT 091651Z AUTO 01007KT 10SM OVC075 04/M08 A3065 RMK AO2 SLP389 T00391078
KATW 091645Z 32010G16KT 10SM FEW040 M05/M13 A3045
KATY 091653Z AUTO 32007KT 10SM FEW055 OVC085 M17/M19 A3052 RMK AO2 SLP383 T11721194
KAUG 091653Z AUTO 29012G25KT 10SM BKN045 M03/M12 A2984 RMK AO2 PK WND 29027/1619 SLP109 T10281122
KAUH 091715Z AUTO 16011KT 10SM OVC046 M08/M12 A3049 RMK AO2 T10821123
KAUM 091717Z AUTO 26003KT 10SM CLR M10/M13 A3053 RMK AO2
KAUN 091715Z AUTO 17003KT 3/4SM OVC002 12/12 A3026 RMK AO1
KAUO 091656Z AUTO 33008KT 10SM CLR 05/M08 A3049 RMK AO2 SLP354 T00501078
KAUS 091653Z 36010KT 10SM OVC080 05/M07 A3064 RMK AO2 SLP384 T00501067
KAUW 091654Z AUTO 28008KT 10SM FEW025 M08/M13 A3045 RMK AO2 SLP338 T10831133
KAVC 091716Z AUTO 33006KT 10SM CLR 03/M09 A3043 RMK AO2 T00281089
KAVK 091355Z AUTO 15013KT 10SM OVC050 M05/M11 A3057 RMK AO2
KAVL 091654Z 35013G21KT 10SM CLR M01/M11 A3039 RMK AO2 SLP307 T10111106
KAVP 091654Z 30013G19KT 10SM FEW046 OVC060 00/M09 A3013 RMK AO2 SLP210 T00001089
KAVQ 091715Z AUTO 00000KT 10SM CLR 10/00 A3027 RMK AO2 T01041004
KAVX 091651Z AUTO 31009KT M1/4SM FG VV001 13/13 A3028 RMK AO2 SLP251 T01280128 TSNO $
KAWG 091715Z AUTO 28007G13KT 10SM FEW015 OVC021 M06/M11 A3061 RMK AO2
KAWM 091453Z AUTO 03007KT 10SM CLR M02/M08 A3068 RMK AO2 SLP393 T10221083 52008
KAWO 091715Z AUTO 00000KT 5SM OVC022 01/M04 A3000 RMK AO1
KAXA 091715Z AUTO VRB04KT 10SM CLR M10/M13 A3056 RMK AO2
KAXH 091715Z AUTO 34007KT 310V010 10SM CLR 07/M04 A3059 RMK AO2 T00721036
KAXN 091701Z AUTO M14/M17 A3054 RMK AO2 T11441167 PWINO FZRANO $
KAXS 091715Z AUTO 16010KT 10SM OVC041 00/M09 A3057 RMK AO2 T00031091
KAXV 091712Z AUTO 26010G15KT 7SM -SN OVC017 M03/M05 A3047 RMK AO2
KAXX 091715Z AUTO 23012G18KT 190V250 10SM CLR 02/M06 A3029 RMK AO2 T00201059
KAYS 091715Z AUTO 01006KT 10SM CLR 11/M02 A3040 RMK AO2 T01131024
KAZC 091715Z AUTO 00000KT 10SM SCT027 06/00 A3035 RMK AO2
KAZE 091715Z AUTO 35004KT 10SM CLR 10/M05 A3041 RMK AO2 T00971051
KAZO 091718Z 29010G16KT 1 3/4SM -SN SCT016 BKN030 OVC065 M02/M06 A3042 RMK AO2 P0000 T10221061
KBAB 091655Z COR 03002KT 1SM R15/2400FT -DZ BR OVC003 09/09 A3023 RMK AO2A SLP242 P0002 T00850085 COR 1700
KBAC 091715Z AUTO 32007KT 10SM CLR M18/M21 A3057 RMK AO2
KBAD 091658Z AUTO 10006KT 10SM CLR 03/M08 A3067 RMK AO2 SLP390 T00321082
KBAF 091653Z 32015KT 10SM OVC042 00/M08 A3001 RMK AO2 SLP168 T00001083
KBAK 091645Z 29008KT 10SM -SN OVC030 M04/M09 A3057
KBAN 091652Z AUTO 00000KT 10SM 07/M03 A3020 RMK AO2 SLP202 T00671033 $
KBAX 091714Z AUTO 30009KT 10SM BKN037 BKN049 OVC065 M02/M11 A3033 RMK AO2 T10231106
KBAZ 091651Z 05011KT 10SM OVC075 05/M09 A3061 RMK AO2 SLP366 T00501089
KBBB 091713Z AUTO 34005KT 4SM -SN OVC015 M14/M17 A3057 RMK AO2
KBBF 091715Z AUTO 03022KT 10SM OVC020 11/06 A3051 RMK A01
KBBG 091648Z 00000KT 10SM FEW150 M04/M12 A3065
KBBP 091715Z AUTO 34009KT 10SM CLR 06/M06 A3041 RMK AO2
KBBW 091653Z AUTO 14011G19KT 10SM OVC038 M10/M13 A3038 RMK AO2 SLP347 T11001128
KBCB 091715Z AUTO 31006G17KT 10SM OVC032 M02/M11 A3039 RMK AO2 T10211106
KBCE 091653Z AUTO 00000KT 10SM CLR M02/M06 A3031 RMK AO2 SLP278 T10221061 TSNO
KBCK 091715Z AUTO 28006KT 10SM BKN024 M07/M13 A3053 RMK AO2 T10661127
KBCT 091658Z 03015KT 10SM BKN080 23/18 A3019
KBDE 091653Z AUTO 28012KT 10SM OVC026 M16/M21 A3049 RMK AO2 SLP356 T11611211
KBDG 091715Z AUTO 13003KT 10SM CLR 02/M07 A3043 RMK AO1 T00201073
KBDH 091715Z AUTO 28006KT 4SM -SN OVC015 M13/M15 A3057 RMK AO2
KBDL 091651Z 32011G18KT 10SM BKN042 BKN049 02/M09 A3003 RMK AO2 PK WND 33026/1557 SLP169 VCSH E-SE AND NW T00171089
KBDN 091715Z AUTO 00000KT 10SM FEW027 FEW033 FEW048 M07/M10 A3001 RMK AO2
KBDR 091652Z 28013G21KT 10SM BKN060 05/M08 A3005 RMK AO2 SLP176 T00501083 $
KBDU 091715Z AUTO 00000KT 10SM SCT080 M05/M10 A3009 RMK AO2
KBEA 091715Z AUTO 01007KT 10SM OVC075 06/M03 A3060 RMK AO2 T00631031
KBED 091656Z 30018G28KT 10SM FEW050 02/M12 A2994 RMK AO2 PK WND 30028/1647 SLP154 T00171117
KBEH 091653Z AUTO 28014G20KT 8SM FEW024 BKN033 OVC043 M02/M07 A3047 RMK AO2 SNE47 SLP326 P0001 T10171072
KBFD 091711Z AUTO 33013KT 3SM -SN FEW008 BKN016 OVC027 M04/M07 A3015 RMK AO2 P0000 T10441072
KBFF 091653Z AUTO 02003KT 10SM CLR M06/M13 A3018 RMK AO2 SLP282 T10611128
KBFI 091653Z 13008KT 5SM -RA BR OVC025 01/00 A2999 RMK AO2 UPB42E44 SLP155 P0000 T00110000
KBFL 091654Z 14003KT 10SM OVC030 16/13 A3026 RMK AO2 SLP245 T01610133
KBFM 091553Z 02013G21KT 10SM CLR 06/M06 A3055 RMK AO2 SLP345 T00561061
KBFW 091714Z AUTO 00000KT 10SM SCT030 M10/M16 A3042 RMK AO2
KBGD 091651Z AUTO 18012G22KT 10SM OVC022 01/M05 A3035 RMK AO2 SLP295 T00061050
KBGE 091715Z AUTO 34009KT 10SM CLR 09/M06 A3045 RMK AO2
KBGF 091715Z AUTO 35006KT 10SM CLR M01/M08 A3055 RMK
KBGM 091653Z 34012KT 1 1/2SM -SN BR FEW014 BKN021 OVC029 M06/M08 A3008 RMK AO2 TWR VIS 2 SLP211 P0001 T10561078
KBGR 091653Z 30015G22KT 10SM BKN050 M02/M11 A2979 RMK AO2 SLP091 T10221111
KBHB 091656Z AUTO 30010G18KT 270V330 9SM -SN BKN046 M02/M10 A2979 RMK AO2 SNB49 SLP093 P0000 T10171100 FZRANO
KBHC 091715Z AUTO 01007KT 10SM CLR 10/M02 A3040 RMK AO2 PNO
KBHK 091714Z AUTO 10006KT 10SM BKN005 M21/M23 A3042 RMK AO2 T12111233
KBHM 091653Z 36008KT 10SM CLR 03/M08 A3058 RMK AO2 SLP361 T00281083
KBID 091656Z AUTO 32012G27KT 10SM CLR 03/M08 A3000 RMK AO2 PK WND 30027/1650 SLP163 T00281083
KBIE 091715Z AUTO 14008KT 10SM OVC070 M07/M11 A3057 RMK AO2 T10671111
KBIF 091658Z AUTO VRB01KT 9SM OVC011 02/M02 A3045 RMK AO2 SLP316 T00151020 $
KBIH 091656Z AUTO 34005KT 10SM CLR 02/M08 A3029 RMK AO2 SLP266 T00221083 TSNO
KBIJ 091715Z AUTO 35007KT 10SM CLR 09/M07 A3046 RMK AO2
KBIL 091653Z 04006KT 1SM R10L/P6000FT -SN BR BKN020 OVC032 M17/M19 A3029 RMK AO2 SFC VIS 1 1/2 SLP341 P0001 T11721194
KBIS 091652Z 31006KT 7SM OVC016 M18/M22 A3058 RMK AO2 SLP406 T11831217
KBIV 091653Z AUTO 30009KT 9SM FEW033 BKN040 OVC049 M02/M08 A3044 RMK AO2 PK WND 30026/1624 SNE50 SLP316 P0000 T10171078
KBIX 091658Z AUTO 03011KT 10SM CLR 07/M07 A3052 RMK AO2 SLP338 T00691069
KBJC 091647Z 19006G13KT 150V230 15SM FEW025 FEW070 SCT200 M03/M04 A3009 RMK VIS HYR S
KBJI 091713Z AUTO 26004KT 10SM OVC030 M14/M17 A3049 RMK AO2 T11441175
KBJJ 091656Z AUTO 26011KT 10SM OVC015 M04/M08 A3040 RMK AO2 SNE15 SLP310 P0000 T10441078
KBKB 091654Z AUTO VRB05KT 10SM CLR 06/M07 A3058 RMK AO2 SLP386 T00561072 $
KBKD 091715Z AUTO 15008KT 10SM OVC048 01/M10 A3060 RMK AO2 T00111100
KBKE 091653Z AUTO 00000KT 2 1/2SM -SN BR OVC027 M06/M07 A3010 RMK AO2 SLP232 P0001 T10561067
KBKF 091658Z 14007KT 10SM FEW025 FEW220 07/M03 A3010 RMK AO2A SLP224 T00661031
KBKL 091653Z 25019KT 10SM FEW016 BKN026 BKN085 M01/M05 A3037 RMK AO2 SNE04B30E49 SLP291 P0000 T10111050
KBKS 091715Z AUTO 35007KT 10SM OVC060 06/M04 A3060 RMK AO1 T00591043
KBKT 091715Z AUTO 31009G14KT 10SM CLR 03/M15 A3036 RMK AO1 T00301155
KBKV 091655Z 01010KT 10SM BKN090 11/01 30.35
KBKW 091651Z AUTO 32007KT 10SM OVC024 M06/M12 A3037 RMK AO2 SLP328 T10611117
KBKX 091701Z AUTO 32003KT 10SM CLR M16/M19 A3053 RMK AO2 SLP398 T11611189 FZRANO
KBLF 091652Z AUTO 29010G17KT 260V320 8SM -SN OVC021 M08/M13 A3035 RMK AO2 SLP315 P0000 T10831128
KBLH 091652Z AUTO 31003KT 10SM CLR 13/M11 A3028 RMK AO2 SLP252 T01281111
KBLI 091653Z 01009KT 8SM OVC015 M02/M04 A2998 RMK AO2 UPB00E44SNE1554 SLP164 P0000 T10221044
KBLM 091656Z AUTO 28017G25KT 10SM BKN048 04/M08 A3013 RMK AO2 PK WND 27026/1636 SLP208 T00391078
KBLU 091652Z AUTO 17010G19KT M1/4SM -RA FG VV002 05/04 A3026 RMK AO2 SLP231 P0003 T00500044 TSNO
KBLV 091658Z AUTO 31008KT 10SM FEW027 M02/M10 A3063 RMK AO2 SLP382 T10251098
KBMC 091715Z AUTO 00000KT 7SM 00/M03 A3023 RMK AO1 T00031029
KBMG 091653Z 29006KT 10SM -SN OVC024 M05/M10 A3056 RMK AO2 SNE19B53 SLP361 P0000 T10501100
KBMI 091656Z 28009KT 10SM BKN027 M04/M10 A3057 RMK AO2 SLP382 T10441100
KBML 091716Z AUTO 31011G16KT 280V340 2SM -SN BKN020 BKN026 OVC030 M05/M11 A2985 RMK AO2 VIS 1 1/4V3 P0000 T10501111
KBMQ 091653Z AUTO 06004KT 10SM OVC065 02/M10 A3062 RMK AO2 SLP376 T00171100
KBMT 091715Z AUTO 03007KT 10SM CLR 08/M05 A3059 RMK AO2 T00791052
KBNA 091653Z VRB03KT 10SM SCT030 00/M09 A3061 RMK AO2 SLP371 T00001094
KBNO 091653Z AUTO 28005KT 10SM OVC047 M03/M04 A3006 RMK AO2 SLP212 T10331044
KBNW 091715Z AUTO 27003KT 10SM CLR M09/M13 A3056 RMK AO2
KBOI 091720Z 00000KT 6SM UP BR BKN045 OVC055 M02/M04 A3016 RMK AO2 UPB14FZRAE14 P0001 T10221039
KBOK 091656Z AUTO 15008KT 4SM BR OVC002 11/11 A3013 RMK AO2 RAB23E42 SLP217 P0000 T01060106
KBOS 091654Z 30016G21KT 10SM SCT050 02/M10 A2995 RMK AO2 SLP140 T00221100
KBOW 091655Z 02014KT 10SM BKN150 12/06 A3032
KBPC 091715Z AUTO 19014G23KT 10SM OVC024 01/M06 A3036 RMK AO2
KBPG 091715Z AUTO 17005KT 10SM 00/M05 A3054 RMK AO2 T00021050
KBPI 091653Z AUTO 00000KT 10SM FEW047 OVC060 M13/M14 A3016 RMK AO2 SNB1557E08 SLP288 P0000 T11281139
KBPK 091653Z AUTO VRB03KT 10SM CLR M03/M11 A3066 RMK AO2 SLP393 T10331106
KBPT 091653Z 04010KT 10SM CLR 08/M04 A3057 RMK AO2 SLP352 T00781044
KBQK 091715Z AUTO 34007KT 300V030 10SM CLR 12/M01 A3040 RMK AO2
KBQP 091715Z AUTO 04006KT 10SM CLR 03/M07 A3066 RMK AO2 T00321071
KBQX 091715Z AUTO 04015G24KT 10SM OVC024 09/05 A3054 RMK A01
KBRD 091653Z AUTO 31007KT 10SM OVC021 M12/M16 A3051 RMK AO2 SLP362 T11171161
KBRL 091653Z AUTO 29006KT 10SM BKN023 M07/M12 A3062 RMK AO2 SLP379 T10671117
KBRO 091653Z 33015G23KT 10SM OVC017 06/01 A3055 RMK AO2 PK WND 34027/1618 SLP344 T00610011
KBTA 091715Z AUTO 14005KT 10SM SCT085 M09/M12 A3057 RMK AO2 T10931123
KBTL 091713Z 28007KT 2 1/2SM -SN BR SCT014 BKN023 OVC043 M03/M04 A3041 RMK AO2 P0000 T10281044
KBTM 091653Z AUTO 00000KT 10SM FEW065 M16/M19 A3004 RMK AO2 SLP275 T11611189
KBTP 091715Z AUTO 26008G17KT 10SM OVC018 M04/M08 A3035 RMK AO1
KBTR 091653Z 03009KT 10SM CLR 07/M07 A3057 RMK AO2 SLP353 T00721067
KBTV 091654Z 30014G22KT 9SM -SN BKN044 BKN055 M03/M12 A3002 RMK AO2 SNB42 SLP171 P0000 T10331122
KBUF 091654Z 30008KT 10SM -SN BKN020 BKN031 BKN060 M03/M08 A3024 RMK AO2 SLP251 PCPN VRY LGT P0000 T10281078
KBUR 091653Z 23003KT 10SM CLR 13/07 A3026 RMK AO2 SLP239 T01330067
KBUU 091715Z AUTO 29011G16KT 10SM BKN032 M02/M08 A3049 RMK AO2 T10191080
KBUY 091654Z AUTO 30010G18KT 10SM CLR 03/M10 A3041 RMK AO2 SLP300 T00281100
KBVE 091651Z AUTO 03014G20KT 10SM CLR 07/02 A3051 RMK AO2 SLP331 T00720017
KBVN 091715Z AUTO 15007KT 10SM OVC060 M11/M14 A3050 RMK AO2 T11081141
KBVO 091653Z AUTO 13007KT 10SM BKN075 M03/M11 A3069 RMK AO2 SLP398 T10281111
KBVS 091715Z AUTO 07008KT 10SM OVC019 01/M01 A2998 RMK A01
KBVU 091715Z AUTO 00000KT 10SM 09/M13 A3033 RMK AO2
KBVX 091715Z AUTO 00000KT 10SM CLR M01/M11 A3070 RMK AO1
KBVY 091653Z 29011G21KT 10SM SCT050 01/M11 A2993 RMK AO2 SLP132 T00061106
KBWD 091655Z AUTO 10004KT 10SM OVC050 02/M09 A3060 RMK AO2
KBWG 091653Z AUTO VRB04KT 10SM CLR M01/M10 A3061 RMK AO2 SLP371 T10061100
KBWI 091654Z 29016KT 10SM FEW048 03/M08 A3029 RMK AO2 SLP257 T00281083
KBWP 091715Z AUTO 28008KT 7SM OVC024 M15/M18 A3060 RMK AO1
KBWW 091615Z AUTO 00000KT 1/2SM HZ OVC003 M22/M25 A3032 RMK AO2
KBXA 091715Z AUTO 04009G14KT 010V070 10SM CLR 08/M08 A3057 RMK AO2 T00791080
KBXK 091715Z AUTO 13003KT 10SM CLR 13/05 A3028 RMK AO1
KBYG 091653Z AUTO 33003KT 10SM BKN090 M14/M18 A3017 RMK AO2 SLP310 T11441183
KBYH 091650Z 01004KT 10SM SKC M01/M07 A3068
KBYI 091453Z AUTO 00000KT 10SM FEW002 BKN050 OVC100 M05/M07 A3011 RMK AO2 SLP229 60001 I3001 T10501067 53003
KBYS 091655Z AUTO 00000KT 10SM OVC031 08/M10 A3030 RMK AO2 SLP281 WND DATA ESTMD T00791104 PWINO $
KBYY 091715Z AUTO 01010G15KT 10SM CLR 08/M01 A3057 RMK AO2 T00871019
KBZN 091656Z 00000KT 10SM CLR M17/M19 A3016 RMK AO2 SLP304 T11671194
KC07 091718Z AUTO 25006KT 1SM -SN OVC002 A3020 RMK AO2
KC09 091715Z AUTO 29007KT 10SM SCT017 SCT027 OVC038 M04/M08 A3055 RMK AO2 T10411081
KC29 091715Z AUTO 30008KT 10SM CLR M04/M10 A3052 RMK AO1 T10451102
KC35 091715Z AUTO 32006KT 10SM SCT025 M05/M11 A3051 RMK AO2 T10541113
KC62 091715Z AUTO 27012KT 10SM BKN015 OVC022 M02/M06 A3044 RMK AO2 T10271060
KC75 091715Z AUTO 29006KT 10SM OVC022 M04/M10 A3058 RMK AO2 T10451099
KCAD 091715Z AUTO 27007KT 10SM SCT022 SCT034 OVC060 M03/M07 A3029 RMK AO2 T10321077
KCAE 091656Z VRB06KT 10SM CLR 07/M08 A3043 RMK AO2 SLP305 T00671078 PNO $
KCAG 091653Z AUTO 07003KT 10SM BKN060 OVC075 M01/M06 A3024 RMK AO2 SLP278 T10061056
KCAK 091651Z 27013KT 4SM -SN BKN015 OVC065 M03/M08 A3037 RMK AO2 SLP301 P0000 T10331078
KCAO 091655Z AUTO 23008KT 10SM CLR 04/M04 A3016 RMK AO2 SLP232 T00391039
KCAR 091654Z AUTO 30013G18KT 10SM SCT027 OVC035 M04/M09 A2963 RMK AO2 SNB38E46 SLP047 P0000 T10391089
KCAV 091715Z AUTO 30007KT 10SM CLR M09/M12 A3057 RMK AO2 PWINO
KCBF 091715Z AUTO VRB04KT 10SM CLR M09/M12 A3059 RMK AO2
KCBG 091716Z AUTO 27005KT 10SM -SN OVC032 M08/M13 A3051 RMK AO2
KCBK 091715Z AUTO 17016G19KT 10SM BKN080 M02/M07 A3029 RMK AO2
KCBM 091658Z AUTO 32005KT 10SM CLR 02/M06 A3062 RMK AO2 SLP374 T00201064 $
KCCA 091715Z AUTO 00000KT 10SM CLR M00/M09 A3068 RMK AO2
KCCO 091715Z AUTO 34008KT 300V040 10SM CLR 04/M07 A3046 RMK AO2 T00431068
KCCR 091653Z 00000KT 1/4SM FG VV002 09/08 A3025 RMK AO2 SLP228 T00940083
KCCU 091613Z AUTO 1 1/4SM -SN BKN008 OVC018 M05/M08 A3023 RMK AO2
KCCY 091715Z AUTO 00000KT 10SM BKN005 M10/M13 A3057 RMK AO2
KCDA 091715Z AUTO 25010G21KT 1 1/2SM -SN BKN013 OVC017 M05/M10 A2991 RMK AO2 T10551099
KCDC 091653Z AUTO 19010KT 10SM CLR 05/M05 A3028 RMK AO2 SLP250 T00501050
KCDD 091712Z AUTO 26004KT 10SM OVC023 M15/M18 A3048 RMK AO2
KCDH 091715Z AUTO 00000KT 10SM UP CLR 03/M09 A3069 RMK AO2
KCDJ 091652Z AUTO VRB03KT M06/M11 A3068 RMK AO1 SLP413 P0001 T10611111 $
KCDR 091710Z AUTO 03004KT 10SM SCT016 M15/M19 A3032 RMK AO2 T11501189
KCDS 091653Z AUTO 16014KT 10SM OVC034 M01/M09 A3051 RMK AO2 SLP347 T10061094
KCDW 091653Z 32016G23KT 10SM SCT055 03/M09 A3011 RMK AO2 SLP203 T00331094
KCEC 091656Z AUTO 16013KT 10SM FEW025 FEW038 OVC048 12/11 A3013 RMK AO2 SLP203 T01170106
KCEF 091658Z 30021G31KT 10SM BKN041 01/M11 A2999 RMK AO2A SLP164 T00061114 RVRNO $
KCEU 091654Z AUTO 00000KT 10SM CLR 07/M09 A3042 RMK AO2 SLP302 T00671094
KCEW 091653Z AUTO 02008G15KT 340V060 10SM CLR 09/M08 A3049 RMK AO2 SLP325 T00941078
KCEY 091655Z AUTO 32008KT 10SM BKN025 M02/M09 A3063 RMK AO1
KCEZ 091653Z AUTO 16003KT 10SM CLR 03/M05 A3036 RMK AO2 SLP284 T00281050
KCFD 091715Z AUTO 04004KT 10SM OVC080 04/M07 A3063 RMK AO2 T00371068
KCFE 091714Z AUTO 25004KT 10SM CLR M10/M13 A3056 RMK AO2 T10981135
KCFJ 091715Z AUTO 28009KT 10SM SCT022 BKN028 OVC037 M04/M08 A3054 RMK AO2 T10451076
KCFS 091714Z AUTO 27008KT 10SM OVC039 M02/M05 A3034 RMK AO2 T10211054
KCFV 091652Z AUTO 16007KT 10SM CLR M03/M10 A3069 RMK AO2 SLP403 T10281100
KCGC 091715Z AUTO 36009KT 10SM CLR 13/00 A3033 RMK AO2
KCGE 091705Z AUTO 30014G19KT 10SM CLR 02/M07 A3028 RMK AO1
KCGF 091710Z 27012G20KT 3SM -SN OVC006 M02/M05 A3035
KCGI 091653Z VRB03KT 10SM CLR M03/M09 A3066 RMK AO2 SLP387 T10281094
KCGS 091710Z AUTO 28008G15KT 10SM CLR 02/M08 A3031 RMK AO1
KCHA 091653Z VRB04KT 10SM FEW035 01/M08 A3055 RMK AO2 SLP351 T00111083
KCHD 091647Z VRB03KT 10SM FEW200 13/05 A3027
KCHK 091715Z AUTO 13009KT OVC050 M01/M08 A3059 RMK AO2 PWINO
KCHO 091653Z 00000KT 10SM SCT060 03/M11 A3035 RMK AO2 SLP280 T00281111
KCHS 091656Z 01010KT 10SM FEW200 09/M08 A3040 RMK AO2 SLP292 T00941078
KCIC 091650Z VRB05KT 1SM -RABR BKN002 OVC020 06/06 A3026
KCID 091652Z 30010KT 10SM CLR M08/M11 A3059 RMK AO2 SLP375 T10831111
KCIN 091715Z AUTO 30004KT 10SM CLR M09/M12 A3058 RMK AO2
KCIR 091715Z AUTO 00000KT 10SM CLR M02/M09 A3066 RMK AO2 T10201094
KCIU 091656Z AUTO 00000KT 10SM BKN038 OVC048 M07/M12 A3033 RMK AO2 SNE37 SLP298 P0000 T10671117 FZRANO
KCJR 091715Z AUTO 29010G17KT 10SM SCT060 04/M09 A3035 RMK AO2 T00381091
KCKB 091653Z 26010KT 10SM OVC020 M04/M08 A3041 RMK AO2 SNE25 SLP311 P0000 T10441083
KCKC 091713Z AUTO 28003KT 10SM SCT024 BKN035 OVC040 M12/M18 A3034 RMK AO2
KCKF 091715Z AUTO 35004KT 10SM CLR 08/M08 A3045 RMK AO2 T00791078
KCKI 091715Z AUTO 32009KT 10SM CLR 06/M08 A3042 RMK AO2
KCKM 091715Z AUTO 03005KT 10SM CLR 00/M06 A3069 RMK A01
KCKN 091715Z AUTO 32010KT 7SM OVC029 M14/M16 A3058 RMK AO2
KCKP 091715Z AUTO 28004KT 7SM -SN CLR M11/M13 A3058 RMK AO2 T11101133
KCKV 091652Z AUTO 33005KT 10SM SCT030 M01/M09 A3062 RMK AO2 SLP376 T10111094
KCKZ 091715Z AUTO 29010G27KT 10SM BKN046 02/M09 A3016 RMK AO2
KCLE 091651Z 24014KT 10SM OVC016 M02/M07 A3041 RMK AO2 SLP307 T10171072
KCLI 091715Z AUTO 29012G16KT 10SM CLR M05/M13 A3046 RMK AO2
KCLK 091715Z AUTO OVC046 M01/M12 A3055 RMK AO2 PWINO PNO TSNO
KCLL 091653Z 05008KT 10SM OVC080 04/M07 A3063 RMK AO2 SLP373 T00391072
KCLM 091709Z AUTO 10003KT 5SM UP BR BKN040 BKN055 OVC085 00/00 A2993 RMK AO2 UPB03SNE03 P0002 T00000000
KCLS 091715Z AUTO 18006KT 5SM -RA BKN023 OVC031 02/01 A3000 RMK AO2
KCLT 091652Z 31007KT 280V340 10SM CLR 04/M09 A3042 RMK AO2 SLP306 T00441094
KCLW 091715Z AUTO 05006KT 10SM CLR 12/03 A3032 RMK AO2
KCMA 091655Z 00000KT 10SM SCT019 16/11 A3027 RMK AO2 SLP258 T01560111
KCMD 091715Z AUTO 33004KT 10SM CLR 00/M09 A3056 RMK AO2 T00001089
KCMH 091651Z 25011KT 10SM OVC060 M03/M08 A3047 RMK AO2 SLP329 T10281078
KCMI 091710Z VRB06KT 10SM -SN OVC030 M04/M11 A3057 RMK AO2 SNB09 P0000 T10391111
KCMR 091715Z AUTO 14005KT CLR 04/00 A3033 RMK AO2
KCMX 091714Z AUTO 31016KT 1 1/2SM -SN OVC016 M08/M12 A3037 RMK AO2 P0000 T10781122
KCMY 091715Z AUTO 33005KT 10SM CLR M06/M12 A3054 RMK AO2 T10591116
KCNB 091715Z AUTO 00000KT 10SM CLR M13/M18 A3058 RMK AO2 T11321178
KCNC 091715Z AUTO 00000KT 10SM CLR M08/M11 A3060 RMK AO2
KCNI 091715Z AUTO 29007KT 270V330 10SM CLR 02/M11 A3046 RMK AO2
KCNK 091655Z AUTO 14012KT 10SM OVC046 M06/M12 A3054 RMK AO2 SLP368 T10611117
KCNM 091653Z AUTO 15008KT 9SM OVC005 M01/M02 A3043 RMK AO2 SLP314 T10111017 TSNO
KCNO 091653Z 00000KT 7SM FEW050 BKN200 11/07 A3029 RMK AO2 SLP257 T01060072
KCNU 091652Z AUTO 10SM BKN080 M03/M10 A3065 RMK AO2 SLP393 T10281100
KCNY 091653Z AUTO 25003KT 10SM OVC100 M02/M12 A3036 RMK AO2 SLP313 T10171122
KCOD 091656Z AUTO 00000KT 10SM CLR M14/M19 A3016 RMK AO2 SLP324 T11441194 FZRANO
KCOE 091656Z AUTO 02016KT 9SM -SN OVC024 M09/M12 A3015 RMK AO2 SLP268 P0000 T10891122 FZRANO
KCOF 091658Z AUTO 34012G19KT 10SM CLR 16/12 A3027 RMK AO2 SLP255 T01550119 $
KCOM 091715Z AUTO 12004KT 10SM OVC050 02/M08 A3058 RMK AO2 T00151076
KCON 091651Z AUTO 29016G24KT 10SM BKN050 M01/M12 A2994 RMK AO2 PK WND 31026/1626 SLP143 T10111122
KCOQ 091715Z AUTO 28007KT 5SM -SN OVC026 M12/M17 A3047 RMK AO2
KCOS 091654Z COR 36006KT 10SM FEW070 SCT240 03/M05 A3015 RMK AO2 SLP263 T00331050
KCOT 091653Z AUTO 07006KT 10SM OVC080 07/M07 A3062 RMK AO2 SLP370 T00721067
KCOU 091654Z 31007KT 10SM CLR M05/M12 A3065 RMK AO2 SLP394 T10501117
KCPC 091705Z AUTO 28006KT 10SM CLR 05/M07 A3038 RMK AO2 T00541072
KCPK 091715Z AUTO 30010G19KT 10SM CLR 05/M08 A3033 RMK AO2 T00481077
KCPR 091653Z 33004KT 10SM CLR M17/M20 A3013 RMK AO2 SLP313 T11721200
KCPS 091653Z 30005KT 10SM FEW028 M03/M11 A3065 RMK AO2 SLP384 T10331111
KCPT 091715Z AUTO 08005KT 10SM OVC055 01/M10 A3065 RMK AO2
KCPU 091715Z AUTO 14005KT 10SM OVC008 12/12 A3026 RMK AO2 T01200115
KCPW 091714Z AUTO 24009KT 10SM CLR M07/M07 A3037 RMK AO2
KCQB 091715Z AUTO 00000KT 10SM SCT070 M01/M07 A3063 RMK AO2
KCQC 091653Z AUTO 27016KT 10SM CLR M01/M03 A3032 RMK AO2 SLP293 T10061028
KCQF 091715Z AUTO 01010G14KT 10SM CLR 07/M07 A3050 RMK AO2
KCQM 091714Z AUTO 27010KT 5SM -SN OVC024 M15/M19 A3046 RMK AO2
KCQT 091647Z AUTO 00000KT 9SM FEW017 FEW080 13/09 A3026 RMK AO2 SLP248 T01330094
KCQW 091715Z AUTO 31006KT 10SM CLR 05/M13 A3042 RMK AO2
KCQX 091652Z AUTO 30011G20KT 10SM FEW044 03/M08 A2993 RMK AO2 SLP137 T00331078
KCRE 091653Z 31007KT 280V340 10SM CLR 06/M07 A3037 RMK AO1 SLP286 T00611067
KCRG 091653Z 01010KT 10SM CLR 11/01 A3038 RMK AO2 SLP287 T01110006
KCRP 091651Z 35010KT 10SM OVC075 06/M03 A3061 RMK AO2 SLP365 T00611028
KCRQ 091653Z AUTO 00000KT 6SM HZ CLR 13/10 A3026 RMK AO2 SLP247 T01330100
KCRS 091653Z AUTO 08004KT 10SM OVC065 03/M07 A3066 RMK AO2 SLP386 T00281072
KCRW 091654Z VRB06KT 9SM -SN BKN028 OVC055 M03/M11 A3049 RMK AO2 SLP338 P0000 T10331106
KCRX 091715Z AUTO 36006KT 10SM CLR 01/M09 A3062 RMK AO2
KCSG 091651Z 03007KT 330V060 10SM CLR 05/M09 A3048 RMK AO2 SLP324 T00501094
KCSM 091653Z 17017KT 10SM BKN036 OVC044 M01/M12 A3052 RMK AO2 SLP352 T10111122
KCSQ 091715Z AUTO 26004KT 10SM CLR M09/M12 A3060 RMK AO2
KCSV 091653Z AUTO 33004KT 10SM CLR M03/M10 A3049 RMK AO2 SLP345 T10331100
KCTB 091712Z AUTO 13007KT 3SM BR OVC019 M20/M22 A3026 RMK AO2 SNE12 P0000 T12001222
KCTJ 091715Z AUTO 33006G14KT 10SM CLR 03/M08 A3051 RMK AO2 T00291077
KCTY 091710Z AUTO 05007KT 10SM CLR 12/M04 A3036 RMK AO2
KCTZ 091705Z AUTO 34005KT 10SM CLR 05/M06 A3039 RMK AO2 T00491062
KCUB 091653Z AUTO 32005KT 10SM CLR 07/M09 A3045 RMK AO2 SLP309 T00671089
KCUH 091715Z AUTO 13007KT 10SM OVC070 M02/M11 A3063 RMK AO2 T10251106
KCUL 091715Z AUTO 32004KT 10SM SCT030 M03/M09 A3061 RMK AO2 T10271093
KCUT 091653Z AUTO 26005KT 10SM OVC065 M13/M16 A3007 RMK AO2 SLP290 T11281161
KCVB 091715Z AUTO 03005KT 10SM OVC070 05/M08 A3063 RMK AO2 T00511080
KCVC 091715Z AUTO 30006KT 10SM CLR 06/M08 A3043 RMK AO2
KCVG 091652Z 26010KT 7SM -SN OVC024 M05/M11 A3054 RMK AO2 SLP354 P0000 T10501106
KCVH 091710Z AUTO 00000KT 5SM OVC028 13/12 A3028 RMK AO1
KCVN 091715Z AUTO 23020KT 10SM OVC006 M02/M04 A3031 RMK AO1
KCVO 091715Z 00000KT A3003 RMK AO1
KCVS 091713Z AUTO 24017KT 10SM OVC006 M02/M02 A3032 RMK AO2
KCVW 091710Z AUTO 04017KT 10SM CLR 06/M03 A3055 RMK A01
KCVX 091714Z AUTO 36005KT 10SM SCT019 BKN039 OVC048 M02/M08 A3035 RMK AO2 T10241081
KCWA 091645Z 30006KT 10SM SCT017 SCT060 M08/M13 A3047
KCWC 091715Z AUTO 17007KT 10SM OVC050 01/M10 A3062 RMK AO2 T00111096
KCWF 091650Z 05010G18KT 10SM SKC 07/M05 A3059
KCWI 091656Z AUTO 28008KT 10SM CLR M06/M09 A3059 RMK AO2 SLP389 T10561094 FZRANO
KCWN 091658Z AUTO 13003KT 10SM CLR 04/M04 A3009 RMK AO2 SLP150 P0001 T00421043
KCWV 091715Z AUTO 02006KT 10SM CLR 10/M05 A3042 RMK AO2 T00971046
KCXE 091715Z AUTO 34006KT 10SM CLR 02/M11 A3038 RMK AO1 T00221114
KCXO 091653Z 03007KT 10SM OVC090 06/M06 A3061 RMK AO2 SLP365 T00561056
KCXP 091715Z AUTO 18013G16KT 10SM OVC050 13/00 A3019 RMK AO2
KCXU 091715Z AUTO 01003KT 10SM CLR 10/M05 A3045 RMK AO2 T00981055
KCXY 091656Z 30016G25KT 10SM SCT043 02/M09 A3025 RMK AO2 PK WND 31028/1609 SLP248 T00221094
KCYS 091653Z 28020G27KT 10SM CLR 05/M04 A3006 RMK AO2 PK WND 29028/1621 SLP221 T00501044
KCZL 091715Z AUTO 34009G14KT 10SM CLR 03/M09 A3053 RMK AO2 T00251093
KCZT 091715Z AUTO 00000KT 10SM OVC070 06/M03 A3060 RMK AO2
KCZZ 091652Z AUTO 00000KT 11/07 A3023 RMK AO1 SLP229 T01110072
KD07 091656Z AUTO 03006KT M18/M21 A3045 RMK AO1 SLP390 T11781206
KD25 091715Z AUTO 28010KT 10SM -SN OVC021 M10/M13 A3039 RMK AO2 T11021135
KD39 091659Z AUTO 25007KT 10SM OVC017 M13/M16 A3055 RMK AO2
KD50 091715Z AUTO 30006KT 10SM CLR M24/M27 A3061 RMK AO2
KD55 091715Z AUTO 29010KT 10SM CLR M22/M26 A3051 RMK AO2
KD57 091715Z AUTO 31008KT 10SM BKN009 M22/M27 A3055 RMK AO2
KD60 091715Z AUTO 31009KT 9SM FEW002 M23/M24 A3054 RMK AO2
KD95 091714Z AUTO 32009G16KT 10SM SCT029 BKN038 OVC047 M02/M08 A3033 RMK AO2 T10161077
KDAA 091714Z AUTO 28016KT 10SM CLR 04/M09 A3032 RMK AO2 WSHFT 08
KDAB 091653Z 34009KT 10SM FEW030 BKN140 BKN200 13/07 A3032 RMK AO2 SLP267 T01280072
KDAG 091650Z AUTO 11004KT 10SM CLR 08/M11 A3029 RMK AO2 SLP257 T00831111
KDAL 091653Z 09007KT 10SM OVC060 02/M11 A3066 RMK AO2 SLP383 T00171111 $
KDAN 091653Z AUTO 33007KT 10SM CLR 02/M11 A3041 RMK AO2 SLP298 T00171106
KDAW 091651Z AUTO 30013G20KT 10SM BKN048 M01/M11 A2991 RMK AO2 PK WND 32027/1557 SLP129 T10111111
KDAY 091656Z 27015KT 10SM BKN018 M04/M09 A3049 RMK AO2 SLP341 T10391089
KDBN 091715Z AUTO 32003KT 10SM CLR 07/M08 A3045 RMK AO2
KDBQ 091653Z 29006KT 10SM CLR M08/M12 A3055 RMK AO2 SLP365 T10781117
KDCA 091652Z 30013G22KT 10SM FEW040 04/M08 A3033 RMK AO2 SLP270 T00391083
KDCM 091715Z AUTO 35004KT 10SM CLR 05/M10 A3042 RMK AO2
KDCU 091653Z AUTO 34009KT 10SM CLR 00/M06 A3061 RMK AO2 SLP369 T00001061
KDCY 091715Z AUTO 27003KT 10SM OVC026 M04/M08 A3060 RMK AO2 T10411082
KDDC 091652Z AUTO 16017G22KT 10SM OVC028 M04/M12 A3040 RMK AO2 SLP329 T10391122
KDDH 091654Z AUTO 29007G15KT 10SM OVC041 M02/M11 A3000 RMK AO2 PK WND 30026/1604 SLP168 T10171111
KDEC 091654Z 33007KT 10SM SCT022 OVC028 M04/M09 A3059 RMK AO2 SNE44 SLP371 P0000 T10441094
KDED 091715Z AUTO 35009G17KT 10SM CLR 13/06 A3032 RMK AO2
KDEH 091715Z AUTO 28004KT 10SM CLR M09/M12 A3054 RMK AO2
KDEN 091653Z 22007KT 10SM FEW025 FEW220 03/M05 A3009 RMK AO2 SLP227 T00281050
KDEQ 091653Z AUTO 10006KT 10SM OVC075 01/M08 A3067 RMK AO2 SLP388 T00111078
KDET 091653Z 30010G18KT 10SM SCT042 BKN050 M01/M09 A3037 RMK AO2 SLP291 T10061094
KDEW 091653Z AUTO 03012KT 10SM OVC025 M07/M14 A3016 RMK AO2 SNB28E38 SLP246 P0000 T10721139
KDFI 091719Z AUTO VRB06KT 10SM BKN018 BKN035 OVC042 M02/M06 A3045 RMK AO2 SNE1655 P0000 T10171061
KDFW 091653Z VRB05KT 10SM OVC060 02/M12 A3064 RMK AO2 SLP378 T00171117
KDGW 091653Z AUTO 29004KT 10SM CLR M16/M19 A3016 RMK AO2 SLP303 T11561194
KDHN 091653Z 02011KT 10SM CLR 08/M07 A3050 RMK AO2 SLP328 T00781067 $
KDHT 091653Z AUTO 21013KT 10SM CLR 01/M04 A3025 RMK AO2 SLP265 T00061044
KDIJ 091656Z AUTO 26003KT 10SM OVC019 M01/M04 A3011 RMK AO2 SLP245 T10111039
KDIK 091656Z AUTO 31003KT 9SM OVC003 M26/M28 A3046 RMK AO2 SLP406 T12561278
KDKB 091715Z AUTO 28009G15KT 10SM SCT024 M06/M11 A3053 RMK AO2 T10561106
KDKK 091653Z AUTO 30009G17KT 10SM SCT031 BKN049 OVC070 M02/M08 A3027 RMK AO2 UPE1554 SLP259 P0000 T10171078
KDKR 091650Z AUTO 04006KT 10SM CLR 03/M08 A3066 RMK AO2
KDKX 091715Z AUTO 00000KT 10SM OVC034 00/M09 A3053 RMK A01
KDLF 091658Z 09003KT 10SM BKN050 04/M01 A3060 RMK AO2A SLP368 T00381011 $
KDLH 091655Z 32009KT 10SM BKN028 M12/M17 A3045 RMK AO2 SLP346 T11221172 PNO VISNO RWY 27 $
KDLL 091715Z AUTO 28009KT 10SM SCT024 M06/M12 A3050 RMK AO2 T10591118
KDLN 091653Z AUTO 31003KT 10SM BKN075 M15/M18 A3008 RMK AO2 SLP281 T11501183
KDLP 091715Z AUTO 05008G21KT 010V090 10SM CLR 11/02 A3046 RMK A01
KDLS 091719Z AUTO 00000KT 3SM BR BKN008 OVC046 M03/M05 A3025 RMK AO2 SNB02E15 P0000 T10331050
KDLZ 091718Z AUTO 24006KT 10SM -SN OVC019 M03/M07 A3046 RMK AO2
KDMA 091658Z AUTO 10004KT 10SM CLR 14/01 A3026 RMK AO2 SLP234 T01400011 CHINO RWY30 $
KDMH 091654Z AUTO 03/M09 A3029 RMK AO1 SLP257 T00281094
KDMN 091653Z AUTO 08007KT 10SM CLR 02/M02 A3044 RMK AO2 SLP308 T00171022
KDMO 091653Z AUTO 00000KT 10SM CLR M06/M11 A3067 RMK AO2 SLP402 T10611106
KDMW 091650Z AUTO 29012G24KT 10SM M01/M09 A3026 RMK AO2
KDNL 091653Z AUTO 34005KT 10SM CLR 07/M09 A3044 RMK AO2 SLP308 T00671094
KDNN 091715Z AUTO 35008G17KT 10SM CLR 01/M06 A3052 RMK AO2
KDNS 091715Z AUTO 22004KT 10SM CLR M10/M13 A3056 RMK AO2
KDNV 091715Z AUTO 31010KT 10SM BKN029 OVC035 M03/M09 A3053 RMK AO2 T10311089
KDOV 091658Z AUTO 29017KT 10SM CLR 03/M06 A3023 RMK AO2 SLP240 T00321062 $
KDPA 091712Z 28012KT 10SM BKN026 OVC032 M04/M10 A3052 RMK AO2 SNE1653 P0000 T10441100
KDPL 091705Z AUTO 35009KT 310V010 10SM CLR 05/M07 A3038 RMK AO2
KDQH 091510Z AUTO 01007KT 10SM CLR 06/M07 A3047 RMK AO2
KDRA 091655Z AUTO 10006KT 10SM OVC036 08/M12 A3027 RMK AO2 SLP242 T00781122
KDRI 091715Z AUTO 02007KT 10SM CLR 06/M08 A3061 RMK AO2 T00621083
KDRM 091715Z AUTO 01003KT 10SM OVC029 M06/M12 A3032 RMK AO2 T10651120
KDRO 091653Z AUTO 11004KT 10SM CLR 01/M09 A3034 RMK AO2 SLP307 T00061089
KDRT 091653Z AUTO 10004KT 10SM OVC050 04/M04 A3060 RMK AO2 SLP363 T00391039
KDSM 091654Z VRB04KT 10SM BKN160 BKN240 BKN260 M08/M13 A3061 RMK AO2 SLP382 T10781133 $
KDSV 091702Z AUTO 33009KT 4SM -SN FEW013 BKN023 OVC030 M03/M07 A3022 RMK AO2 P0000 T10331072
KDTA 091715Z AUTO 17009KT 10SM SCT120 04/M05 A3025 RMK AO1
KDTL 091714Z AUTO 32006KT 3SM -SN SCT004 BKN015 BKN025 M13/M16 A3053 RMK AO2
KDTN 091653Z VRB05KT 10SM CLR 03/M07 A3067 RMK AO2 SLP388 T00331072
KDTO 091653Z 08007KT 10SM OVC060 01/M09 A3065 RMK AO2 SLP383 T00061089
KDTS 091653Z AUTO 36009G16KT 10SM CLR 11/M06 A3047 RMK AO2 SLP317 T01061056
KDTW 091653Z 28011KT 10SM FEW035 BKN075 00/M07 A3038 RMK AO2 SLP297 T00001067
KDUA 091715Z AUTO 09003KT 10SM SCT070 02/M07 A3065 RMK AO2
KDUB 091715Z AUTO 30007G11KT 10SM SCT041 BKN055 OVC075 00/M07 A3000 RMK AO2
KDUC 091715Z AUTO 17007KT OVC060 00/M10 A3061 RMK AO2 PWINO TSNO
KDUG 091656Z AUTO 00000KT 10SM CLR 08/01 A3034 RMK AO2 SLP259 T00780011
KDUH 091714Z AUTO 29009KT 10SM SCT019 SCT046 OVC080 00/M05 A3041 RMK AO2 T00001049
KDUJ 091653Z AUTO 27017G22KT 10SM OVC018 M04/M08 A3021 RMK AO2 PK WND 26028/1626 SNE09 SLP254 P0000 T10391083
KDUX 091715Z AUTO 19017G21KT 10SM CLR 00/M05 A3026 RMK AO2 T00001049
KDVK 091715Z AUTO 33005KT 10SM OVC024 M04/M10 A3056 RMK AO2
KDVL 091711Z AUTO 28007KT 10SM SCT016 M21/M23 A3055 RMK AO2 FZRANO
KDVN 091652Z AUTO 28008KT 10SM CLR M06/M10 A3059 RMK AO2 SLP373 T10611100
KDVO 091715Z AUTO 13004KT 2SM BR OVC003 12/12 A3025 RMK AO2
KDVP 091707Z AUTO 25003KT 10SM BKN085 M14/M17 A3055 RMK AO2 T11391166
KDVT 091653Z AUTO 00000KT 10SM CLR 16/03 A3025 RMK AO2 SLP235 T01560033
KDWH 091653Z 07007KT 10SM OVC090 06/M06 A3060 RMK AO2 SLP362 T00561056
KDWU 091715Z AUTO 31005KT 10SM OVC033 M02/M08 A3052 RMK AO1
KDWX 091715Z AUTO 24011G17KT 10SM OVC036 01/M06 A3024 RMK AO2 T00111056
KDXR 091653Z 31011G26KT 10SM BKN050 02/M10 A3005 RMK AO2 PK WND 32026/1651 SLP178 T00171100
KDXX 091713Z AUTO 29007KT 10SM CLR M13/M17 A3059 RMK AO2
KDYA 091715Z AUTO 36009G15KT 10SM 04/M09 A3058 RMK AO2 T00411087
KDYB 091715Z AUTO 34009G16KT 10SM CLR 08/M05 A3042 RMK AO1
KDYL 091654Z AUTO 30016G24KT 10SM OVC045 03/M07 A3016 RMK AO2 SLP220 T00281072
KDYR 091715Z AUTO 10005KT 10SM CLR M01/M09 A3065 RMK AO1
KDYS 091658Z 12005KT 10SM OVC043 00/M09 A3056 RMK AO2A SLP371 T00011086 $
KDYT 091714Z AUTO 30003G08KT 10SM OVC034 M09/M16 A3053 RMK AO2
KDZB 091715Z AUTO 00000KT 10SM OVC070 03/M08 A3062 RMK AO2 T00251080
KE11 091715Z AUTO 17005KT 10SM SCT013 OVC022 00/M04 A3048 RMK AO2 T10031037
KE16 091715Z AUTO 00000KT 10SM BKN019 OVC033 13/13 A3029 RMK AO2
KE38 091715Z AUTO 23017KT 10SM BKN011 03/03 A3048 RMK AO2 T00300026
KE80 091715Z AUTO 19007KT 10SM CLR 01/M04 A3041 RMK AO2 T00111036
KEAN 091715Z AUTO 34005KT 10SM SCT090 M11/M15 A3015 RMK AO2 T11061150
KEAR 091715Z AUTO 17015KT 10SM OVC040 M07/M13 A3042 RMK AO1
KEAT 091655Z AUTO 00000KT 8SM OVC024 M06/M07 A3020 RMK AO2 SNE01 SLP247 P0000 T10611067
KEAU 091656Z 27005KT 10SM OVC013 M09/M11 A3052 RMK AO2 SLP352 T10891111
KEBA 091715Z AUTO 00000KT 10SM CLR 06/M09 A3044 RMK AO2 T00641092
KEBG 091715Z AUTO 35008KT 10SM SCT050 BKN060 OVC085 08/M02 A3060 RMK AO2 T00761019
KEBS 091715Z AUTO 00000KT 10SM CLR M10/M12 A3056 RMK AO2
KECG 091654Z 33010KT 10SM CLR 04/M07 A3033 RMK AO2 SLP271 T00441067
KECP 091653Z 35011KT 10SM CLR 09/M07 A3044 RMK AO2 SLP320 T00941072
KECS 091715Z AUTO 30005KT 10SM CLR M12/M18 A3024 RMK AO2
KECU 091715Z AUTO 00000KT 10SM OVC046 03/M06 A3056 RMK AO2
KEDC 091715Z AUTO 04005KT 10SM OVC080 03/M06 A3064 RMK AO2
KEDE 091705Z AUTO 32008G15KT 10SM CLR 06/M06 A3035 RMK AO2 T00551065
KEDJ 091655Z AUTO 26011G15KT 9SM OVC016 M05/M08 A3045 RMK AO1
KEDU 091715Z AUTO 00000KT M1/4SM OVC001 A3026 RMK AO1
KEDW 091658Z 22006KT 95SM FEW050 SCT080 BKN200 OVC300 13/09 A3025 RMK AO2A SLP239 T01250093
KEED 091656Z AUTO 36005KT 10SM SCT070 14/M08 A3030 RMK AO2 SLP250 T01441078
KEEN 091656Z AUTO 28010G19KT 10SM BKN047 M02/M11 A2997 RMK AO2 SLP171 T10171106 FZRANO PNO $
KEEO 091653Z AUTO 00000KT 10SM OVC041 02/M06 A3026 RMK AO2 SLP260 T00221056
KEET 091653Z AUTO VRB06KT 10SM CLR 04/M08 A3055 RMK AO2 SLP349 T00391078
KEFD 091650Z 02010KT 10SM FEW100 08/M03 A3059
KEFK 091715Z AUTO 28010G18KT 2 1/2SM -SN SCT012 BKN017 OVC038 M06/M10 A2993 RMK AO2 T10631098
KEFT 091715Z AUTO 30004KT 10SM SCT019 M06/M10 A3051 RMK AO2
KEGE 091650Z 08005KT 10SM OVC045 M01/M03 A3030
KEGI 091655Z 01011KT 10SM CLR 08/M10 A3047 RMK AO2A SLP321 T00841096 $
KEGV 091715Z AUTO 29012KT 10SM BKN024 M08/M14 A3037 RMK AO2 T10781138
KEHA 091708Z AUTO 18014KT 01/M08 RMK AO1 /PK WND 44 M T00111083
KEHC 091715Z AUTO 35024G33KT 9SM FEW024 12/05 A3046 RMK A01
KEHO 091705Z AUTO 01005KT 10SM CLR 04/M10 A3041 RMK AO2 T00361100
KEHR 091715Z 27006KT 10SM BKN028 M02/M11 A3062 RMK AO1
KEHY 091715Z AUTO 24024G31KT 10SM OVC020 00/M03 A3005 RMK AO2
KEIK 091714Z AUTO 36004KT 10SM CLR M04/M09 A3010 RMK AO2 T10441086
KEKM 091652Z 27015G20KT 7SM -SN SCT005 BKN010 BKN021 M02/M06 A3046 RMK AO2
KEKN 091717Z AUTO 25008KT 4SM -SN OVC019 M06/M10 A3036 RMK AO2 P0000 T10561100
KEKO 091719Z AUTO 09004KT 9SM UP OVC032 02/M01 A3021 RMK AO2 RAE11UPB11 P0001 T00171006
KEKQ 091656Z AUTO VRB05KT 10SM OVC025 M02/M08 A3057 RMK AO2 SLP384 T10221083
KEKS 091715Z AUTO 27010KT 10SM FEW049 BKN075 OVC085 M12/M15 A3009 RMK A01
KEKY 091656Z AUTO VRB05KT 10SM CLR 02/M09 A3056 RMK AO2 SLP372 T00221089 FZRANO
KELA 091715Z AUTO 02008KT 10SM CLR 08/M03 A3061 RMK AO2 T00751031
KELD 091653Z AUTO 08005KT 10SM CLR 01/M06 A3068 RMK AO2 SLP390 T00111061
KELK 091715Z AUTO 17013G18KT 10SM OVC032 M02/M12 A3049 RMK AO2 T10161119
KELM 091653Z 32011G23KT 10SM FEW041 SCT049 BKN065 M01/M11 A3016 RMK AO2 PK WND 29029/1612 SLP225 T10111106
KELN 091653Z AUTO 00000KT 10SM OVC025 M06/M09 A3014 RMK AO2 SLP232 T10611089
KELO 091713Z AUTO 25010G14KT 5SM HZ OVC019 M14/M18 A3042 RMK AO2
KELP 091651Z 02006KT 10SM OVC012 02/M02 A3045 RMK AO2 SLP311 CLDS TPG MTNS SW-NW T00221022
KELY 091653Z AUTO 10007KT 10SM BKN100 OVC110 M02/M10 A3027 RMK AO2 SLP263 T10171100
KELZ 091656Z AUTO 32017G31KT 6SM HZ SCT028 OVC035 M04/M10 A3014 RMK AO2 PK WND 29031/1653 UPB44E52SNB42E44 SLP237 P0000 T10391100
KEMK 091715Z AUTO 16022G30KT 10SM FEW027 SCT033 SCT038 16/07 A3046 RMK A01
KEMM 091710Z AUTO 25008KT 10SM 00/M01 A3017 RMK AO2
KEMP 091653Z AUTO 15010KT 10SM OVC070 M05/M11 A3061 RMK AO2 SLP388 T10501106
KEMT 091645Z VRB03KT 8SM CLR 11/07 A3029
KEMV 091715Z AUTO 27008G16KT 10SM CLR 03/M10 A3038 RMK AO2
KEND 091658Z 13010KT 10SM OVC055 M04/M10 A3058 RMK AO2A SLP377 T10421098
KENL 091715Z AUTO 27006KT 10SM BKN027 M02/M09 A3061 RMK AO2 T10241090
KENV 091715Z AUTO 00000KT 10SM BKN120 M04/M08 A3023 RMK AO1
KENW 091653Z 29013KT 10SM BKN032 M03/M11 A3050 RMK AO2 SLP341 T10331106 $
KEOE 091715Z AUTO 30005KT 10SM CLR 05/M08 A3044 RMK AO2
KEOK 091715Z AUTO VRB06KT 10SM OVC021 M05/M10 A3062 RMK AO2
KEPH 091653Z AUTO 03009KT 10SM OVC018 M06/M10 A3020 RMK AO2 SLP245 T10561100
KEQA 091715Z AUTO 08009KT 330V230 10SM OVC070 M01/M10 A3058 RMK AO2
KEQY 091653Z AUTO 34008KT 10SM CLR 05/M09 A3040 RMK AO2 SLP314 T00501094
KERI 091651Z 27013G25KT 10SM SCT043 BKN055 01/M08 A3029 RMK AO2 SLP264 T00061083
KERV 091715Z AUTO 35005KT 10SM OVC065 02/M06 A3058 RMK AO2 T00221065
KERY 091715Z AUTO 36005KT 10SM SCT025 BKN035 OVC055 M06/M10 A3032 RMK AO2 T10601096
KESC 091656Z AUTO 32010KT 10SM OVC075 M04/M10 A3039 RMK AO2 SLP319 T10391100 FZRANO
KESF 091653Z AUTO 02008G16KT 10SM CLR 06/M07 A3061 RMK AO2 SLP366 T00561072
KESN 091659Z 32010G15KT 10SM SKC 04/M08 A3031
KEST 091652Z AUTO 27005KT 10SM CLR M12/M14 A3056 RMK AO2 SLP379 T11221139
KETB 091715Z AUTO 28012KT 10SM BKN025 M05/M11 A3046 RMK AO2
KETH 091716Z AUTO 27006KT 7SM SCT017 M14/M18 A3060 RMK AO2
KEUF 091658Z AUTO VRB05KT 10SM CLR 07/M08 A3047 RMK AO2 SLP320 T00721078
KEUG 091654Z 20007KT 10SM FEW031 OVC040 08/06 A3006 RMK AO2 SLP180 T00780056
KEUL 091656Z AUTO 00000KT 5SM -SN BR SCT005 OVC045 M03/M04 A3018 RMK AO2 SLP247 P0002 T10281044 FZRANO
KEVB 091647Z 01015G23KT 10SM BKN025 12/09 A3031
KEVM 091714Z AUTO 30011G15KT 10SM SCT024 M14/M19 A3046 RMK AO2 T11431193
KEVV 091654Z 28006KT 10SM BKN030 M02/M11 A3063 RMK AO2 SLP377 T10171106
KEVW 091718Z AUTO 22013KT 10SM SCT005 OVC065 00/M01 A3019 RMK AO2 T00001011
KEWB 091653Z 29013G19KT 10SM CLR 03/M10 A2995 RMK AO2 PK WND 29028/1638 SLP142 T00331100
KEWK 091656Z AUTO 17015KT 10SM OVC050 M06/M10 A3057 RMK AO2 SLP373 T10561100 FZRANO
KEWN 091654Z 33009KT 10SM CLR 05/M07 A3037 RMK AO2 SLP282 T00501067
KEWR 091651Z 30014G30KT 10SM SCT049 04/M08 A3012 RMK AO2 PK WND 31030/1642 SLP197 T00391083
KEXX 091705Z AUTO 29005KT 10SM CLR 03/M09 A3040 RMK AO2 T00291092
KEYE 091653Z AUTO 30011KT 10SM SCT021 SCT032 M03/M08 A3054 RMK AO2 SLP352 T10331083
KEYF 091705Z AUTO 34006KT 10SM CLR 06/M07 A3039 RMK AO2 T00571068
KEYW 091653Z 03012G18KT 10SM SCT050 OVC065 25/20 A3017 RMK AO2 SLP215 T02500200
KEZF 091715Z AUTO 33010G19KT 10SM CLR 04/M08 A3034 RMK AO2 T00401081
KEZM 091715Z AUTO 00000KT 10SM CLR 08/M20 A3046 RMK AO2 T00821200
KEZS 091715Z AUTO 29009G14KT 10SM CLR M04/M12 A3045 RMK AO2 T10411125
KF00 091715Z AUTO 12006KT 10SM CLR 01/M10 A3065 RMK AO2
KF05 091715Z AUTO 16011KT 10SM OVC048 01/M12 A3058 RMK AO1 T00091121
KF17 091715Z AUTO 02005KT 10SM BKN075 04/M07 A3064 RMK AO2 T00441073
KF44 091715Z AUTO 11005KT 10SM OVC065 02/M09 A3063 RMK AO2
KF46 091715Z AUTO 07005KT 10SM OVC070 01/M09 A3065 RMK AO2 T00111089
KF70 091715Z AUTO 00000KT 5SM CLR 10/06 A3028 RMK AO1
KFAF 091658Z AUTO 33010KT 290V360 10SM CLR 05/M09 A3031 RMK AO2 SLP267 T00491088
KFAM 091656Z AUTO 00000KT 10SM CLR M04/M11 A3062 RMK AO2 SLP383 T10391111 FZRANO
KFAR 091653Z 30012KT 10SM OVC026 M15/M19 A3060 RMK AO2 SLP387 T11501194
KFAT 091710Z 09005KT 10SM FEW008 BKN023 BKN032 14/12 A3028 RMK AO2 MTNS OBSC DSNT N-E-S T01390117
KFAY 091653Z AUTO 35011KT 10SM CLR 06/M07 A3039 RMK AO2 SLP288 T00611072
KFBG 091656Z AUTO 33012KT 10SM CLR 06/M09 A3039 RMK AO2 SLP295 T00551091 $
KFBL 091655Z AUTO 27005KT 10SM CLR M12/M14 A3055 RMK AO2
KFBR 091715Z AUTO 25017G21KT 10SM BKN090 02/02 A3020 RMK AO2 T00220015
KFCI 091655Z AUTO 32014G18KT 10SM CLR 04/M14 A3037 RMK AO1
KFCM 091653Z 28008KT 240V300 10SM FEW014 M09/M14 A3055 RMK AO2 SLP364 T10941139
KFCS 091658Z AUTO 32005KT 10SM BKN090 02/M05 A3013 RMK AO2 SLP278 T00191050 $
KFDK 091647Z 30012G23KT 10SM SCT050 02/M07 A3035
KFDR 091653Z AUTO 17011KT 10SM OVC047 00/M09 A3056 RMK AO2 SLP359 T00001089
KFDW 091715Z AUTO 36003KT 10SM CLR 05/M07 A3041 RMK AO1
KFDY 091718Z AUTO 26014KT 2 1/2SM -SN OVC014 M03/M07 A3043 RMK AO2 P0000 T10281067
KFEP 091715Z AUTO 27008KT 10SM OVC025 M06/M10 A3056 RMK AO2 T10571104
KFET 091715Z AUTO 15003KT 10SM OVC085 M10/M13 A3058 RMK AO2 T11001129
KFEW 091658Z AUTO 30020G27KT 10SM CLR 04/M04 A3007 RMK AO2 PK WND 29033/08 SLP236 T00421039 $
KFFA 091705Z AUTO 32006KT 10SM CLR 04/M04 A3030 RMK AO2 T00431036
KFFC 091653Z AUTO 34010KT 10SM CLR 04/M08 A3048 RMK AO2 SLP330 T00391083
KFFL 091715Z AUTO 29008KT 10SM BKN018 M07/M12 A3061 RMK AO2 PWINO
KFFM 091715Z AUTO 27006KT 5SM HZ OVC022 M16/M18 A3061 RMK AO2
KFFO 091658Z 23011KT 10SM BKN022 BKN042 M04/M09 A3049 RMK AO2A BKN022 V SCT SLP341 T10361088
KFFT 091653Z AUTO 30005KT 10SM OVC025 M04/M11 A3056 RMK AO2 SLP359 T10441111
KFFX 091713Z AUTO 30009KT 10SM -SN SCT035 SCT043 OVC049 M04/M07 A3040 RMK AO2 T10391075
KFFZ 091655Z 36010KT 40SM SCT150 A3024
KFGN 091714Z AUTO 27011KT 10SM OVC027 M16/M19 A3049 RMK AO2
KFGX 091715Z AUTO 28006KT 10SM OVC024 M05/M11 A3055 RMK AO2 T10501108
KFHB 091715Z AUTO 04010G15KT 10SM CLR 12/00 A3036 RMK AO1
KFHR 091653Z AUTO 07005KT 10SM OVC011 02/00 A2998 RMK AO2 SLP153 T00170000
KFHU 091658Z AUTO 10004KT 10SM CLR 12/01 A3033 RMK AO2 SLP243 T01190010
KFIG 091654Z AUTO 28016G21KT 10SM BKN025 OVC029 M03/M08 A3022 RMK AO2 SLP255 T10281078
KFIN 091550Z 35010KT 10SM CLR 11/3 A3037 RMK WINDS ARE ESTIMATED.
KFIT 091652Z AUTO 32011G22KT 10SM CLR 01/M12 A2996 RMK AO2 PK WND 34027/1623 SLP149 T00111117
KFKA 091714Z AUTO 29007KT 7SM CLR M11/M14 A3053 RMK AO2 T11101140
KFKL 091715Z 25012G17KT 2SM M04/M08 A3028 RMK AO1
KFKN 091715Z AUTO 31009G17KT 10SM CLR 04/M09 A3036 RMK AO2 T00381090
KFKR 091715Z AUTO 30008KT 10SM OVC016 M02/M06 A3053 RMK AO2 T10201058
KFKS 091712Z AUTO 30012G19KT 1 1/2SM -SN OVC010 M03/M04 A3037 RMK AO2 T10291045
KFLD 091653Z AUTO 27009KT 10SM CLR M06/M12 A3048 RMK AO2 SLP336 T10561117
KFLG 091657Z 22005KT 10SM CLR 03/00 A3034 RMK AO2 SLP259 T00280000
KFLL 091653Z 35009KT 10SM FEW075 BKN095 23/18 A3018 RMK AO2 SLP219 T02330178
KFLO 091653Z 34012KT 10SM CLR 06/M08 A3042 RMK AO2 SLP299 T00611078
KFLP 091715Z AUTO 14005KT 10SM CLR M02/M11 A3064 RMK AO1
KFLY 091715Z AUTO 26006KT 10SM CLR 07/M05 A3015 RMK AO2 T00741054
KFME 091709Z AUTO 29013G18KT 10SM CLR 03/M07 A3032 RMK AO1
KFMH 091715Z 10SM CLR 03/M10 A2993 RMK AO2 PWINO FZRANO TSNO WIND E29010KT
KFMM 091715Z AUTO 28004KT 10SM CLR M06/M12 A3014 RMK AO2 T10611122
KFMN 091653Z 11003KT 10SM CLR 01/M07 A3035 RMK AO2 SLP297 T00061067
KFMY 091653Z 04014G20KT 10SM OVC095 17/12 A3024 RMK AO2 SLP243 T01670122
KFNB 091653Z AUTO 17003KT 10SM OVC085 M08/M12 A3064 RMK AO2 SLP393 T10831117
KFNL 091715Z AUTO 36004KT 9SM CLR M09/M13 A3012 RMK AO1
KFNT 091653Z 29012KT 10SM SCT032 M01/M08 A3036 RMK AO2 SLP291 T10061083
KFOA 091715Z AUTO 30005KT 10SM OVC029 M02/M09 A3062 RMK AO2 T10181095
KFOD 091715Z 26004KT 10SM CLR M10/M13 A3059 RMK AO1
KFOE 091654Z 17007KT 10SM FEW080 M05/M11 A3064 RMK AO2 T10501106
KFOK 091453Z 32017G25KT 10SM SCT043 03/M08 A3007 RMK AO2 PK WND 28027/1430 SLP184 T00281083 51015
KFOT 091715Z AUTO 00000KT 3/4SM OVC025 12/12 A3018 RMK AO1
KFOZ 091712Z AUTO 31004KT 10SM BKN029 OVC034 M14/M20 A3047 RMK AO2
KFPK 091715Z AUTO 28005G15KT 10SM BKN024 OVC033 M02/M07 A3038 RMK AO2 T10201070
KFPR 091653Z 35007KT 10SM FEW012 FEW031 SCT120 17/15 A3026 RMK AO2 RAB19E33 SLP247 P0000 T01670150
KFQD 091705Z AUTO 30004KT 10SM CLR 04/M10 A3041 RMK AO2 T00391099
KFRG 091653Z 30014G24KT 10SM BKN050 04/M08 A3008 RMK AO2 SLP187 T00391083
KFRI 091658Z AUTO 15008KT 10SM OVC055 M05/M11 A3060 RMK AO2 SLP379 T10471114
KFRM 091656Z AUTO 31004KT 10SM CLR M12/M15 A3058 RMK AO2 SLP387 T11221150 FZRANO
KFRR 091715Z AUTO 31009KT 10SM SCT050 01/M09 A3033 RMK AO1
KFSD 091656Z 00000KT 10SM OVC070 M13/M17 A3056 RMK AO2 SLP386 T11331167
KFSE 091714Z AUTO 27008KT 4SM -SN OVC031 M14/M17 A3052 RMK AO2
KFSI 091658Z AUTO 17010KT 10SM OVC055 00/M10 A3058 RMK AO2 SLP367 T00001103
KFSM 091653Z 07004KT 10SM CLR M01/M10 A3070 RMK AO2 SLP400 T10111100
KFSO 091715Z AUTO 29006G17KT 10SM SCT035 OVC050 M03/M10 A3001 RMK AO2 T10331104
KFST 091653Z AUTO 12005KT 10SM OVC024 03/M01 A3046 RMK AO2 SLP315 T00281006
KFSW 091715Z AUTO 32004KT 10SM OVC021 M07/M11 A3062 RMK AO2
KFTG 091450Z 16006KT 10SM FEW120 FEW200 M11/M13 A3008
KFTK 091658Z AUTO 31006KT 10SM OVC024 M04/M10 A3056 RMK AO2 SLP362 T10421102
KFTN 091715Z AUTO 00000KT 10SM OVC060 06/M04 A3061 RMK A01
KFTW 091653Z 09005KT 10SM OVC055 02/M11 A3064 RMK AO2 SNB26E34 SLP380 P0000 T00171111
KFTY 091653Z 34006KT 10SM CLR 02/M09 A3049 RMK AO2 SLP329 T00221089
KFUL 091653Z 00000KT 6SM HZ CLR 13/09 A3027 RMK AO2 SLP249 T01330094
KFVE 091653Z AUTO 30019KT 8SM -SN OVC023 M06/M12 A2961 RMK AO2 PK WND 30028/1634 SNE12B29 SLP039 P0000 T10561117
KFVX 091715Z AUTO 30007KT 250V340 10SM CLR 03/M10 A3037 RMK AO2 T00341103
KFWA 091654Z 27013KT 9SM -SN BKN017 BKN045 M02/M07 A3048 RMK AO2 SLP332 BKN017 V OVC P0000 T10221067
KFWB 091655Z AUTO 13005KT 10SM CLR M02/M12 A3063 RMK AO2
KFWC 091715Z AUTO 27003KT 10SM SCT029 M03/M10 A3060 RMK AO1 T10311100
KFWN 091653Z AUTO 32013G23KT 290V360 10SM OVC055 02/M09 A3010 RMK AO2 SLP196 T00221094
KFWS 091648Z 00000KT 10SM OVC060 01/M10 A3066
KFXE 091653Z 01011G15KT 10SM BKN085 23/17 A3019 RMK AO2 SLP225 T02280167
KFXY 091715Z AUTO 30006KT 10SM CLR M08/M12 A3056 RMK AO2
KFYG 091715Z AUTO 00000KT 10SM CLR M04/M10 A3065 RMK AO2
KFYJ 091715Z AUTO 31011G18KT 10SM CLR 04/M11 A3035 RMK AO2 T00421112
KFYM 091715Z AUTO 00000G12KT 10SM CLR M01/M08 A3056 RMK A01
KFYV 091653Z 00000KT 10SM CLR M03/M09 A3064 RMK AO2 SLP391 T10281094
KFZG 091715Z AUTO 34004KT 10SM CLR 08/M06 A3045 RMK AO2 T00811062
KFZY 091654Z AUTO 30013KT 10SM OVC038 M03/M10 A3017 RMK AO2 SLP223 T10281100
KGAD 091656Z AUTO VRB05KT 10SM CLR 02/M08 A3057 RMK AO2 SLP374 T00221078 FZRANO
KGAF 091715Z AUTO 31011KT 10SM OVC022 M18/M22 A3062 RMK AO2
KGAG 091653Z AUTO 18017G22KT 10SM OVC028 M01/M11 A3046 RMK AO2 SLP333 T10061111
KGAI 091715Z AUTO 31011G22KT 10SM FEW044 02/M09 A3033 RMK AO1
KGAO 091715Z AUTO 03010G15KT 360V060 10SM SCT120 08/M04 A3052 RMK AO2 T00781042
KGBD 091656Z AUTO 15018KT 10SM OVC040 M05/M12 A3047 RMK AO2 SLP351 T10501117 FZRANO
KGBG 091715Z AUTO 28008KT 10SM SCT019 M06/M10 A3059 RMK AO2 T10571103
KGBK 091715Z AUTO 04026G34KT 10SM OVC027 16/11 A3039 RMK A01
KGCC 091653Z AUTO 29003KT 10SM OVC095 M17/M20 A3022 RMK AO2 SLP327 T11721200
KGCD 091715Z AUTO 07007KT 10SM BKN032 BKN038 OVC047 01/00 A3001 RMK AO2 P0001 T00061005
KGCK 091654Z 17014G21KT 10SM OVC027 M02/M11 A3033 RMK AO2 SLP303 T10221106
KGCM 091715Z AUTO 13004KT 10SM OVC080 M02/M09 A3068 RMK AO2
KGCN 091654Z 21003KT 10SM OVC006 03/02 A3033 RMK AO2 SLP269 T00280017
KGDB 091712Z AUTO 29005KT 7SM OVC010 M13/M16 A3061 RMK AO2 T11321160
KGDJ 091715Z AUTO 08004KT 10SM OVC055 02/M09 A3065 RMK AO2 T00201089
KGDP 091351Z AUTO 24025KT M1/4SM -FZRA FZFG VV001 M03/M03 A3034 RMK AO2 PK WND 25029/1321 SLP310 P0000 I1003 T10331033 $
KGDV 091656Z AUTO 05005KT 10SM CLR M22/M25 A3051 RMK AO2 SLP417 T12221250 FZRANO
KGED 091654Z AUTO 31010G18KT 10SM CLR 03/M08 A3026 RMK AO2 SLP249 T00331078
KGEG 091653Z 06011KT 10SM OVC019 M08/M12 A3012 RMK AO2 SLP236 T10831117
KGEU 091650Z 00000KT 10SM FEW200 13/04 A3028
KGEV 091705Z AUTO 30010G18KT 10SM SCT025 M06/M12 A3028 RMK AO2 T10571123
KGEY 091653Z AUTO 00000KT 10SM CLR M13/M18 A3025 RMK AO2 SLP319 T11281183
KGEZ 091653Z AUTO 28010KT 10SM BKN029 M03/M10 A3054 RMK AO2 SLP352 T10331100
KGFA 091718Z AUTO 02003KT 3SM -SN OVC034 M18/M21 A3031 RMK AO2 TSNO $
KGFK 091653Z 31009KT 9SM OVC025 M16/M19 A3060 RMK AO2 SLP385 T11561194
KGFL 091653Z AUTO 35011KT 10SM SCT047 M01/M12 A3005 RMK AO2 SLP183 T10111117
KGGE 091655Z AUTO 33007KT 300V360 10SM CLR 06/M06 A3039 RMK AO2
KGGG 091653Z VRB06KT 10SM CLR 04/M07 A3064 RMK AO2 SLP383 T00391072
KGGI 091715Z AUTO 00000KT 10SM -SN SCT012 M08/M11 A3059 RMK AO2 T10821114
KGGP 091715Z AUTO 27011G16KT 10SM SCT020 M02/M07 A3052 RMK AO2
KGGW 091653Z AUTO 11010KT 10SM OVC021 M19/M22 A3051 RMK AO2 SLP401 T11941217
KGHB 091715Z AUTO 05027G35KT 8SM BKN026 14/08 A3045 RMK A01
KGHG 091715Z AUTO 29008G24KT 250V320 10SM FEW050 02/M09 A2994 RMK AO2
KGHW 091713Z AUTO 27006KT 10SM OVC016 M14/M17 A3054 RMK AO2
KGIC 091715Z AUTO 11006KT 3SM SCT020 BKN030 OVC034 M05/M06 A3005 RMK AO1
KGIF 091653Z AUTO 02011KT 10SM CLR 13/06 A3033 RMK AO2 SLP269 T01280056
KGJT 091653Z 00000KT 10SM OVC085 M02/M09 A3035 RMK AO2 SLP304 T10171094
KGKJ 091718Z AUTO 26011KT 3/4SM -SN BKN010 OVC019 M04/M07 A3027 RMK AO2 P0000 T10441072
KGKT 091715Z AUTO VRB04KT 10SM SCT033 M02/M10 A3050 RMK
KGKY 091653Z 09006KT 10SM OVC060 01/M11 A3065 RMK AO2 SLP382 T00111106 $
KGLD 091653Z AUTO 19019KT 10SM CLR M05/M10 A3022 RMK AO2 SLP286 T10501100
KGLE 091715Z AUTO 13003KT 10SM OVC065 01/M10 A3065 RMK AO2 T00081103
KGLH 091653Z AUTO 01008KT 10SM CLR 01/M06 A3068 RMK AO2 SLP400 T00111061
KGLR 091653Z AUTO 00000KT 4SM -SN BKN034 OVC041 M05/M09 A3028 RMK AO2 SLP277 P0000 T10501089
KGLS 091652Z 01017KT 10SM CLR 08/M01 A3057 RMK AO2 SLP352 T00831011
KGLW 091715Z AUTO 00000KT 10SM BKN029 M03/M09 A3058 RMK AO2 T10261092
KGLY 091715Z AUTO 00000KT 10SM CLR M05/M10 A3067 RMK AO2
KGMJ 091715Z AUTO 10005KT 10SM CLR M01/M08 A3068 RMK AO2
KGMU 091653Z 06003KT 10SM CLR 06/M10 A3041 RMK AO2 SLP305 T00561100
KGNA 091656Z AUTO VRB04KT M07/M13 A3046 RMK AO1 SLP332 T10721128
KGNC 091715Z AUTO 20009KT 10SM OVC014 00/M03 A3046 RMK AO2 T00001032
KGNR 091656Z AUTO 31009G25KT 260V330 M07/M12 A2969 RMK AO1 PK WND 32027/1624 SLP078 T10671117
KGNT 091715Z AUTO 35004KT 10SM CLR 02/M06 A3038 RMK AO2 T00171060
KGNV 091653Z 01010KT 10SM CLR 13/M03 A3036 RMK AO2 SLP281 T01281028
KGOK 091653Z AUTO 14009KT 10SM OVC060 M03/M11 A3062 RMK AO2 SLP384 T10281106
KGON 091656Z 33016G23KT 10SM FEW060 05/M09 A3002 RMK AO2 PK WND 32027/1611 SLP165 T00501089
KGOO 091715Z AUTO 17005KT M1/4SM OVC001 09/ A3026 RMK AO1 P0003
KGOP 091715Z AUTO 00000KT FEW065 03/M08 A3064 RMK AO2
KGOV 091715Z AUTO 00000KT 1SM -SN BKN010 OVC016 M04/M06 A3030 RMK AO2 T10451065
KGPH 091715Z AUTO 00000KT 10SM M06/M11 A3067 RMK AO2
KGPI 091655Z 01009KT 8SM BKN043 OVC050 M15/M19 A3025 RMK AO2 SNB18E34 SLP309 P0000 T11501194
KGPM 091650Z 08004KT 10SM BKN065 01/M11 A3066
KGPT 091653Z 02010KT 10SM CLR 08/M07 A3052 RMK AO2 SLP335 T00781072
KGPZ 091656Z AUTO 30007KT 6SM -SN OVC026 M13/M18 A3050 RMK AO2 SLP363 P0000 T11331178 FZRANO
KGRB 091653Z 29013KT 10SM CLR M03/M11 A3046 RMK AO2 SLP326 T10331111
KGRD 091656Z AUTO VRB04KT 10SM CLR 05/M09 A3044 RMK AO2 SLP312 T00501089
KGRF 091718Z 00000KT 10SM SCT007 OVC031 00/00 A2996 RMK AO2A RAE1658RAB06E18 $
KGRI 091653Z 15013KT 10SM OVC048 M09/M13 A3048 RMK AO2 PRESFR SLP367 T10891128
KGRK 091658Z AUTO VRB04KT 10SM OVC070 02/M09 A3060 RMK AO2 SLP373 T00201086 $
KGRR 091653Z 25010KT 6SM -SN SCT028 OVC038 M03/M08 A3041 RMK AO2 VIS 2 1/2 RWY 8R SLP309 P0000 T10281078
KGRY 091715Z AUTO 04030G35KT 8SM OVC027 15/10 A3039 RMK A01
KGSB 091658Z AUTO 35010KT 10SM CLR 05/M09 A3036 RMK AO2 SLP285 T00501089 VISNO RWY08 CHINO RWY08 $
KGSH 091653Z AUTO 28015KT 10SM OVC018 M02/M07 A3046 RMK AO2 SLP328 T10221067 $
KGSO 091654Z 01006KT 10SM FEW044 03/M08 A3038 RMK AO2 SLP294 T00331083
KGSP 091653Z AUTO VRB06KT 10SM CLR 04/M10 A3041 RMK AO2 SLP300 T00441100
KGTB 091658Z AUTO 29010KT 10SM SCT034 OVC044 M04/M12 A3010 RMK AO2 SLP203 T10381117
KGTF 091653Z 08004KT 3SM -SN OVC070 M18/M22 A3028 RMK AO2 SLP355 P0001 T11831217 $
KGTR 091655Z 35007KT 10SM SKC 03/M08 A3058
KGTU 091650Z 06006KT 10SM OVC070 03/M09 A3064
KGUC 091656Z AUTO 00000KT 9SM -SN OVC042 M07/M09 A3035 RMK AO2 SLP348 P0000 T10671089 FZRANO
KGUL 091715Z AUTO 05022G31KT 10SM BKN034 OVC055 15/06 A3043 RMK A01
KGUP 091653Z AUTO VRB03KT 10SM CLR 04/M02 A3035 RMK AO2 SLP300 T00391022
KGUR 091715Z AUTO 29010KT 10SM CLR M06/M13 A3019 RMK AO2 T10651126
KGUS 091658Z 28011KT 10SM BKN016 M04/M07 A3049 RMK AO2A SLP341 T10361071
KGUY 091653Z AUTO 18014G21KT 10SM OVC022 01/M05 A3029 RMK AO2 SLP272 T00061050
KGVE 091715Z AUTO 31009G15KT 270V330 10SM CLR 04/M10 A3034 RMK AO1 T00351101
KGVL 091653Z AUTO 29009KT 10SM CLR 03/M08 A3043 RMK AO2 SLP309 T00331083
KGVT 091715Z AUTO 09005KT 10SM 02/M10 A3065 RMK AO2
KGWB 091715Z AUTO 28015G18KT 10SM BKN018 OVC038 M01/M06 A3046 RMK AO2
KGWO 091653Z AUTO 36007KT 10SM CLR 02/M09 A3066 RMK AO2 SLP384 T00221094
KGWR 091715Z AUTO 31009KT 10SM CLR M15/M18 A3057 RMK AO1
KGWW 091710Z AUTO 31007KT 10SM CLR 04/M07 A3038 RMK AO2 T00431072
KGXA 091555Z AUTO 10SM CLR 11/06 A3027 RMK AO2 SLP259 WND DATA ESTMD T01100057 TSNO $
KGXF 091658Z 05004KT 10SM CLR 13/03 A3025 RMK AO2A SLP241 T01300027
KGXY 091656Z AUTO 30004KT 9SM CLR M09/M13 A3015 RMK AO2 SLP282 T10891133 FZRANO
KGYB 091715Z AUTO 05005KT 10SM OVC080 04/M07 A3066 RMK AO2 T00381069
KGYH 091647Z 09003KT 10SM CLR 04/M10 A3042
KGYI 091715Z AUTO 11006KT 10SM BKN065 02/M09 A3065 RMK AO2 T00171092
KGYL 091716Z AUTO 28007KT 10SM SCT009 M10/M12 A3056 RMK AO2 T10991122
KGYR 091647Z VRB03KT 10SM SCT200 13/04 A3027
KGYY 091645Z 28011KT 12SM OVC038 M03/M09 A3054
KGZL 091655Z AUTO 15005KT 10SM FEW080 00/M14 A3067 RMK AO2
KGZN 091700Z AUTO 14007KT 10SM OVC045 M00/M11 A3059 RMK AO2
KGZS 091715Z AUTO VRB06KT 10SM SCT028 M01/M07 A3059 RMK A01
KH78 091140Z 36025KT 12SM BKN015 15/10 A3034 RMK SEAS 7-9
KHAE 091655Z AUTO 30006KT 10SM BKN020 M04/M11 A3063 RMK AO2
KHAF 091715Z AUTO 18009KT 1 1/4SM BR OVC003 14/13 A3027 RMK AO2
KHAI 091715Z AUTO 29013G18KT 10SM SCT020 BKN025 BKN060 M01/M05 A3044 RMK AO2 T10131055
KHAO 091700Z AUTO 23006KT 10SM OVC030 M03/M09 A3056 RMK AO2 T10281089
KHBE 091715Z AUTO 27005KT 10SM OVC028 M03/M10 A3056 RMK AO2
KHBG 091653Z AUTO 36009KT 10SM CLR 06/M09 A3058 RMK AO2 SLP355 T00561089
KHBI 091705Z AUTO 30006KT 10SM CLR 03/M09 A3042 RMK AO2 T00271093
KHBR 091653Z AUTO 18015KT 10SM OVC048 M01/M09 A3056 RMK AO2 SLP362 T10061094
KHBV 091715Z AUTO 36004KT 10SM SCT050 OVC070 05/M04 A3060 RMK AO2 T00451045
KHCD 091713Z AUTO 26009KT 4SM -SN SCT014 M10/M13 A3057 RMK AO2 T11051135
KHCO 091715Z AUTO 00000KT 10SM CLR M17/M20 A3058 RMK AO2
KHDC 091715Z AUTO 02008KT 10SM CLR 08/M08 A3055 RMK AO2
KHDE 091715Z AUTO 15016KT 10SM OVC036 M07/M12 A3039 RMK AO2 T10731122
KHDN 091715Z AUTO 11005KT 10SM FEW041 FEW046 BKN060 M03/M07 A3024 RMK AO1
KHDO 091651Z AUTO 02008KT OVC065 06/M07 A3062 RMK AO2 SLP367 T00611067
KHEF 091545Z 34010G18KT 10SM CLR M/M A3036
KHEI 091714Z AUTO 01003KT 4SM BR OVC003 M21/M23 A3047 RMK AO2 T12111233
KHEQ 091715Z AUTO 19005KT 10SM CLR M05/M11 A3022 RMK AO2
KHEY 091653Z AUTO 35008KT 10SM CLR 08/M09 A3047 RMK AO2 SLP309 T00781089 $
KHEZ 091715Z AUTO 36007KT 10SM CLR 04/M07 A3060 RMK AO1
KHFD 091653Z 31016G25KT 10SM OVC055 02/M10 A3004 RMK AO2 PK WND 30026/1639 SLP171 T00221100
KHFF 091715Z AUTO 36010KT 2 1/2SM HZ CLR 06/M08 A3039 RMK AO2 VIS 2 1/2V12 $
KHFJ 091710Z AUTO 00000KT 10SM CLR M03/M11 A3062 RMK AO2
KHFY 091715Z AUTO 27009G15KT 10SM BKN028 OVC034 M03/M09 A3054 RMK AO2 T10341086
KHGR 091653Z 29020G26KT 10SM SCT045 02/M09 A3029 RMK AO2 PK WND 29026/1650 SLP274 T00171094
KHHF 091715Z AUTO 18014G18KT 10SM OVC026 01/M08 A3042 RMK AO2 T00051080
KHHG 091715Z AUTO 27012G17KT 10SM OVC016 M03/M07 A3048 RMK AO2 T10331075
KHHR 091653Z 11003KT 10SM CLR 14/09 A3028 RMK AO2 SLP252 T01390094
KHHV 091720Z AUTO 05027G33KT 10SM BKN027 OVC032 17/11 A3040 RMK A01
KHHW 091715Z AUTO 10003KT 10SM OVC070 02/M10 A3065 RMK AO2 T00151098
KHIB 091712Z AUTO 32013KT 3SM -SN BKN024 OVC030 M16/M19 A3046 RMK AO2 P0000 T11561189
KHIE 091652Z AUTO 29011G17KT 10SM OVC045 M05/M12 A2989 RMK AO2 SNE19 SLP139 P0000 T10501122
KHIF 091705Z AUTO 09003KT 10SM UP FEW039 OVC049 02/00 A3021 RMK AO2 UPB05
KHII 091715Z AUTO 30005KT 10SM FEW070 14/M08 A3029 RMK AO2
KHIO 091653Z 00000KT 1SM R13R/6000VP6000FT -FZRA BR OVC004 00/M01 A3004 RMK AO2 SLP176 P0002 I1000 T00001006
KHJH 091715Z AUTO 16008KT 10SM OVC055 M06/M10 A3056 RMK AO2 T10651103
KHJO 091719Z AUTO 00000KT 7SM BKN021 14/14 A3028 RMK AO2 T01390139
KHKA 091653Z AUTO 03007KT 10SM CLR 01/M08 A3069 RMK AO2 SLP394 T00061083
KHKS 091553Z 02/ A3063 RMK AO2 SLP371 T0022 $
KHKY 091653Z 32008G17KT 290V350 10SM CLR 03/M10 A3039 RMK AO2 SLP288 T00281100
KHLC 091653Z AUTO 18015KT 10SM OVC036 M04/M12 A3041 RMK AO2 SLP340 T10441122
KHLG 091653Z 25012G17KT 10SM OVC016 M05/M09 A3038 RMK AO2 SLP308 T10501089
KHLN 091653Z 31004KT 10SM OVC070 M17/M21 A3024 RMK AO2 SLP345 T11671211
KHLR 091658Z AUTO 00000KT 10SM SCT070 03/M08 A3059 RMK AO2 SLP366 T00291077
KHLX 091715Z AUTO 33013G18KT 10SM SCT024 SCT031 M04/M11 A3030 RMK AO2 T10431112
KHMN 091658Z AUTO 26003KT 10SM OVC011 00/M04 A3050 RMK AO2 SLP329 T10021036 $
KHMP 091715Z AUTO 33005KT 10SM CLR 05/M05 A3046 RMK AO2 T00481049
KHMZ 091715Z AUTO 29010G15KT 10SM -SN OVC026 M03/M09 A3030 RMK AO2 T10291087
KHNB 091715Z 35007KT 10SM OVC028 M04/M09 A3061 RMK AO2 SLP307 PWINO FZRANO RVRNO
KHND 091656Z 00000KT 10SM BKN044 09/M12 A3032 RMK AO2 SLP277 T00941117
KHNR 091715Z AUTO 20004KT 10SM CLR M09/M12 A3062 RMK AO2
KHNZ 091705Z AUTO 34005KT 10SM CLR 01/M11 A3039 RMK AO2 T00111113
KHOB 091650Z 14007KT 4SM BR OVC006 M02/M02 A3044
KHOE 091715Z AUTO 04003KT 10SM CLR 11/M03 A3041 RMK AO2
KHON 091655Z AUTO 04004KT 10SM FEW060 OVC090 M16/M18 A3058 RMK AO2 SLP392 T11561183
KHOP 091658Z AUTO 29007KT 6SM HZ SCT029 M02/M09 A3062 RMK AO2 SLP378 T10181092
KHOT 091653Z AUTO 10003KT 10SM CLR 00/M09 A3069 RMK AO2 SLP397 T00001094
KHOU 091653Z 03012KT 10SM SCT100 07/M04 A3059 RMK AO2 SLP363 T00721039
KHPN 091656Z 29020G28KT 10SM FEW043 BKN055 03/M08 A3006 RMK AO2 PK WND 29028/1656 SLP185 T00281083
KHQG 091715Z AUTO 17016G19KT 10SM BKN022 02/M07 A3029 RMK AO2 T00201073
KHQI 091715Z AUTO 03023G29KT 10SM SCT028 SCT034 14/06 A3047 RMK A01
KHQM 091653Z AUTO 04009KT 7SM FEW045 OVC055 03/03 A2994 RMK AO2 RAE28UPB20E37 SLP141 P0001 T00280028
KHQU 091715Z AUTO 00000KT 10SM CLR 07/M05 A3047 RMK AO1 T00711052
KHQZ 091650Z 07005KT 10SM OVC065 01/M09 A3067
KHRI 091653Z AUTO 00000KT 3/4SM -SN BR FEW026 BKN037 OVC046 M04/M06 A3021 RMK AO2 SNB10 SLP238 P0000 T10441056
KHRJ 091705Z AUTO 34006KT 10SM CLR 05/M07 A3039 RMK AO2 T00471071
KHRL 091652Z 34013G20KT 10SM OVC026 06/00 A3058 RMK AO2 SLP354 T00560000 $
KHRO 091653Z AUTO VRB03KT 10SM CLR M03/M11 A3064 RMK AO2 SLP392 T10331111
KHRT 091658Z 02013KT 10SM CLR 09/M09 A3046 RMK AO2A SLP317 T00911091 $
KHRX 091715Z AUTO 21014G21KT 10SM OVC009 00/M03 A3033 RMK AO2 T00001029
KHSA 091649Z 02010G16KT 10SM CLR 07/M11 A3055
KHSB 091715Z AUTO 25004KT 10SM SCT029 M02/M09 A3064 RMK AO2 T10201087
KHSD 091715Z AUTO 14010KT 10SM OVC050 M02/M11 A3060 RMK A01
KHSE 091651Z AUTO 35007KT 290V050 10SM CLR 06/M04 A3031 RMK AO2 SLP264 T00611039 TSNO $
KHSG 091715Z AUTO 10SM CLR M14/M18 A3017 RMK AO2 T11391179
KHSI 091653Z AUTO 16010KT 10SM OVC042 M08/M12 A3050 RMK AO2 SLP366 T10781122
KHSP 091717Z AUTO 30014G21KT 10SM OVC024 M06/M14 A3018 RMK AO2
KHST 091658Z AUTO 01015KT 10SM FEW070 SCT090 24/21 A3016 RMK AO2 SLP216 T02420205
KHSV 091653Z 35010KT 10SM FEW020 00/M07 A3059 RMK AO2 SLP362 T00001067
KHTL 091712Z AUTO 27008KT 3SM -SN BR BKN015 OVC021 M04/M07 A3031 RMK AO2 P0000 T10441067
KHTO 091715Z AUTO 29010G20KT 10SM OVC048 03/M08 A3002 RMK AO2 T00311082
KHTS 091651Z COR VRB05KT 9SM FEW020 OVC032 M03/M09 A3052 RMK AO2 SLP345 P0000 T10331089
KHUA 091658Z AUTO 03008KT 350V060 10SM CLR 00/M07 A3057 RMK AO2 SLP360 T10031074
KHUF 091653Z 29004KT 10SM OVC033 M03/M12 A3059 RMK AO2 SLP365 T10331117
KHUL 091653Z AUTO 28011G20KT 10SM BKN028 OVC032 M04/M08 A2967 RMK AO2 SLP054 T10391083
KHUM 091550Z 04015G19KT 7SM SKC 06/M03 A3056
KHUT 091652Z 16014KT 10SM OVC050 M04/M11 A3055 RMK AO2 SLP362 T10391111
KHVE 091720Z AUTO 00000KT 10SM CLR M03/M13 A3040 RMK AO2
KHVN 091653Z 31012G24KT 10SM BKN055 03/M08 A3005 RMK AO2 SLP174 T00331083
KHVR 091653Z AUTO 09007KT 10SM FEW034 OVC065 M17/M20 A3042 RMK AO2 SLP369 T11671200
KHVS 091715Z AUTO 32004KT 10SM CLR 05/M08 A3041 RMK AO2
KHWD 091654Z 16008KT 10SM BKN032 OVC042 16/12 A3024 RMK AO2 SLP249 T01560117
KHWO 091653Z 35014KT 10SM FEW075 BKN095 23/18 A3020 RMK AO2 SLP227 T02330178
KHWV 091656Z AUTO 32010G23KT 10SM SCT048 03/M08 A3006 RMK AO2 PK WND 30030/1619 SLP180 T00331078 TSNO
KHWY 091715Z AUTO 29012G18KT 10SM CLR 05/M13 A3033 RMK AO2 T00451131
KHXD 091650Z 30010KT 10SM SKC 11/M04 A3040
KHYA 091656Z 30011G19KT 10SM SCT042 03/M09 A2991 RMK AO2 SLP130 T00281089
KHYI 091648Z 02010KT 10SM BKN080 04/M05 A3064
KHYR 091653Z AUTO VRB03KT 7SM -SN SCT019 BKN026 OVC031 M09/M13 A3047 RMK AO2 SNB1556 SLP345 P0000 T10891133
KHYS 091656Z AUTO 16015KT 10SM OVC036 M05/M12 A3045 RMK AO2 SLP346 T10501117 FZRANO
KHYW 091715Z AUTO 31003KT 7SM CLR 06/M06 A3039 RMK AO2
KHYX 091716Z AUTO 31006KT 7SM -SN SCT021 BKN031 OVC037 M01/M06 A3035 RMK AO2
KHZD 091715Z AUTO 00000G10KT 10SM CLR M01/M08 A3063 RMK A01
KHZE 091715Z AUTO 24007KT 6SM HZ OVC003 M22/M26 A3059 RMK AO2
KHZL 091715Z AUTO 28009G16KT 240V310 10SM BKN023 BKN030 OVC039 M01/M06 A3013 RMK AO2 PNO
KHZR 091715Z AUTO 01006KT 10SM CLR 07/M07 A3058 RMK AO2 T00651069
KHZX 091712Z AUTO 31005KT 10SM OVC028 M11/M15 A3049 RMK AO2
KHZY 091715Z AUTO 26007KT 7SM FEW008 SCT028 OVC038 M03/M04 A3032 RMK AO2 SNE00 P0000 T10281039
KI16 091650Z AUTO 7SM -SN OVC031 M04/M12 A3049 RMK AO2 T10411119
KI19 091712Z AUTO 27007G15KT 10SM SCT023 OVC041 M03/M08 A3051 RMK AO2 T10301084
KI35 091715Z AUTO 23003KT 10SM OVC026 M03/M10 A3048 RMK AO1
KI63 091715Z AUTO 33005KT 10SM OVC021 M06/M11 A3060 RMK AO2 T10611110
KI67 091715Z AUTO 25008G14KT 10SM OVC029 A3056 RMK AO1
KI69 091715Z AUTO 26009KT 10SM OVC028 M04/M10 A3054 RMK AO2 T10411096
KI75 091715Z AUTO 27005KT 10SM CLR M08/M10 A3061 RMK AO2 T10761105
KIAB 091658Z AUTO 18012KT 10SM OVC060 M04/M12 A3059 RMK AO2 SLP383 T10401118 $
KIAD 091652Z 30018G27KT 10SM FEW050 02/M09 A3033 RMK AO2 PK WND 30030/1631 SLP273 T00171089
KIAG 091653Z 29010KT 10SM FEW025 BKN037 BKN130 BKN220 M01/M08 A3025 RMK AO2 SLP258 T10111083
KIAH 091653Z 05008KT 10SM SCT090 06/M05 A3060 RMK AO2 SLP363 T00561050
KIBM 091715Z AUTO 26005KT 10SM CLR M04/M09 A3011 RMK AO2 T10381087
KICL 091715Z AUTO 00000KT 10SM SCT090 BKN110 M08/M11 A3064 RMK AO2 PWINO
KICR 091706Z AUTO 10012KT 1 1/2SM -SN BKN027 OVC036 M12/M15 A3045 RMK AO2 P0000 T11221150
KICT 091653Z 17015KT 10SM BKN055 OVC130 M04/M11 A3059 RMK AO2 SLP379 T10391111
KIDA 091653Z 35006KT 2SM -SN BKN013 OVC017 M07/M09 A3017 RMK AO2 SNB13 SLP269 P0000 T10671089
KIDI 091715Z AUTO 28013G20KT 10SM OVC018 M04/M07 A3031 RMK A01
KIDP 091715Z AUTO 14004KT 10SM CLR M02/M11 A3066 RMK AO2
KIEN 091652Z AUTO 30006KT 10SM OVC020 M16/M18 A3030 RMK AO2 SLP341 T11561178
KIER 091715Z AUTO 05007KT 10SM CLR 04/M07 A3064 RMK AO2 T00421069
KIFA 091715Z AUTO 27005KT 10SM CLR M09/M12 A3058 RMK AO2 T10891117
KIFP 091715Z AUTO 01010KT 10SM BKN070 15/M09 A3030 RMK AO2
KIGM 091651Z AUTO 00000KT 10SM OVC043 09/M07 A3030 RMK AO2 SLP232 T00891072
KIGQ 091715Z AUTO 29006KT 10SM OVC032 M04/M09 A3052 RMK AO2 T10361086
KIGX 091656Z AUTO 32007G18KT 10SM CLR 03/M09 A3041 RMK AO2 SLP300 T00281094
KIIB 091715Z AUTO 30006KT 10SM CLR M08/M11 A3058 RMK AO2
KIIY 091715Z AUTO 00000KT 10SM CLR 07/M05 A3041 RMK AO2
KIJD 091652Z AUTO 31012G21KT 280V350 10SM BKN047 OVC055 02/M09 A3002 RMK AO2 PK WND 30027/1622 SLP169 T00221089
KIJX 091715Z AUTO 30007KT 10SM OVC024 M05/M11 A3061 RMK AO2 T10521108
KIKG 091715Z AUTO 36009KT 10SM OVC070 07/M02 A3061 RMK AO2 T00651019
KIKK 091715Z AUTO 26010KT 10SM SCT017 BKN041 M03/M08 A3055 RMK AO2 T10331080
KIKT 091715Z AUTO 03023KT 10SM BKN030 14/07 A3041 RMK A01
KIKV 091715Z AUTO 00000KT 10SM CLR M08/M13 A3062 RMK AO2
KIKW 091713Z AUTO 28009KT 10SM SCT027 BKN033 OVC041 M01/M08 A3035 RMK AO2 T10111080
KILE 091656Z AUTO 07005KT 10SM BKN070 02/M08 A3063 RMK AO2 SLP395 T00221083 FZRANO
KILG 091651Z 29018G24KT 10SM OVC045 03/M07 A3024 RMK AO2 PK WND 31028/1624 SLP242 T00281072
KILM 091653Z AUTO 33010KT 10SM CLR 06/M07 A3037 RMK AO2 SLP283 T00611067
KILN 091654Z AUTO 25011KT 10SM BKN023 M04/M09 A3050 RMK AO2 SLP362 T10391089
KIML 091653Z AUTO 17011KT 10SM OVC065 M08/M12 A3027 RMK AO2 SLP308 T10781122
KIMS 091711Z AUTO 27008KT 10SM OVC025 M04/M10 A3058 RMK AO1
KIMT 091654Z AUTO 31014KT 10SM FEW090 M06/M13 A3037 RMK AO2 SLP308 T10611128
KIND 091654Z 27008KT 10SM SCT025 BKN036 M03/M09 A3054 RMK AO2 SLP351 T10281089
KINF 091715Z AUTO 05005KT 10SM CLR 12/02 A3034 RMK AO2
KINJ 091715Z AUTO 09005KT 10SM OVC065 02/M08 A3064 RMK AO2 T00211079
KINK 091653Z AUTO 14006KT 10SM OVC023 01/M03 A3047 RMK AO2 SLP328 T00061028 TSNO
KINL 091708Z AUTO 29008KT 1SM -SN BKN023 OVC027 M15/M19 A3047 RMK AO2 P0000 T11501194
KINS 091658Z AUTO 00000KT 10SM CLR 02/M13 A3029 RMK AO2 SLP264 T00241127
KINT 091654Z 31011G17KT 10SM CLR 02/M12 A3040 RMK AO2 SLP301 T00171117
KINW 091656Z AUTO VRB03KT 10SM CLR 04/M03 A3034 RMK AO2 SLP284 T00391033
KIOB 091715Z AUTO 33008KT 10SM -SN OVC024 M05/M10 A3055 RMK AO2
KIOW 091652Z AUTO 30007KT 10SM CLR M06/M12 A3063 RMK AO2 SLP384 T10611117 $
KIPJ 091705Z AUTO 30004KT 10SM CLR 04/M10 A3040 RMK AO2 T00421105
KIPL 091653Z AUTO 00000KT 10SM CLR 12/00 A3026 RMK AO2 SLP247 T01220000
KIPT 091654Z 28011G18KT 10SM SCT039 BKN047 OVC055 01/M07 A3020 RMK AO2 RAB22E29 SLP232 P0000 T00111072
KIRK 091655Z AUTO 31005KT 10SM CLR M07/M11 A3063 RMK AO2 SLP394 T10671111
KIRS 091715Z AUTO 28008G16KT 10SM BKN020 BKN031 OVC060 M02/M06 A3042 RMK AO2 T10171058
KISM 091656Z 36010KT 10SM FEW100 13/07 A3033 RMK AO2 SLP274 T01330067
KISN 091652Z AUTO 00000KT 10SM BKN017 M22/M24 A3060 RMK AO2 SLP432 T12221239
KISO 091656Z 32006KT 10SM CLR 05/M07 A3038 RMK AO2
KISP 091656Z 29019G28KT 10SM BKN048 04/M08 A3006 RMK AO2 PK WND 29028/1654 SLP178 T00391078
KISQ 091715Z AUTO 30006KT 10SM BKN018 BKN055 BKN070 M04/M07 A3035 RMK AO2 T10411068
KISW 091654Z AUTO 34007KT 10SM OVC060 M08/M12 A3050 RMK AO2 SLP349 T10781122
KITH 091656Z 31012KT 4SM -SN BKN020 OVC030 M04/M08 A3016 RMK AO2 SLP227 P0000 T10441078
KITR 091653Z AUTO 19016KT 10SM CLR M03/M09 A3018 RMK AO2 SLP266 T10281094
KIWA 091648Z 00000KT 20SM FEW200 11/04 A3028
KIWD 091656Z AUTO 26016KT 8SM -SN BKN024 OVC034 M09/M13 A3043 RMK AO2 SLP330 P0000 T10941128 FZRANO
KIWI 091653Z AUTO VRB06G19KT 10SM BKN048 00/M11 A2986 RMK AO2 SLP114 T00001111
KIXA 091705Z AUTO 32007G14KT 10SM CLR 03/M08 A3037 RMK AO2
KIXD 091653Z 14004KT 10SM CLR M07/M11 A3065 RMK AO2 SLP397 T10671106
KIYA 091716Z AUTO 03012G16KT 10SM CLR 07/M06 A3056 RMK AO2
KIZA 091716Z AUTO 00000KT 10SM SCT003 13/13 A3028 RMK AO2
KIZG 091654Z AUTO 28011G22KT 10SM FEW040 M02/M12 A2989 RMK AO2 PK WND 29028/1600 SLP127 T10221122
KJAC 091651Z 01007KT 5SM -SN BKN021 OVC028 M08/M09 A3009
KJAN 091654Z 36010KT 10SM CLR 03/M07 A3062 RMK AO2 SLP370 T00331072
KJAQ 091715Z AUTO 16006KT 10SM OVC003 12/12 A3025 RMK AO1 T01160115
KJAS 091715Z AUTO 05008KT 10SM CLR 07/M05 A3062 RMK AO2 T00711051
KJAU 091715Z AUTO 00000KT 10SM BKN033 M02/M10 A3054 RMK A01
KJAX 091656Z 03010KT 10SM FEW010 SCT250 12/M04 A3038 RMK AO2 SLP288 FU FEW010 T01171039 $
KJBR 091653Z AUTO 10004KT 10SM CLR M01/M09 A3070 RMK AO2 SLP397 T10111094
KJCA 091715Z AUTO 28007KT 10SM CLR 04/M08 A3042 RMK AO2
KJCT 091651Z AUTO 09005KT 10SM OVC050 01/M08 A3057 RMK AO2 SLP350 T00061078
KJDD 091715Z AUTO 07003KT 10SM BKN070 BKN080 04/M09 A3065 RMK AO2
KJDN 091648Z AUTO 08005KT M20/M23 A3046 RMK AO1 SLP392 T12001228
KJEF 091653Z 24005KT 10SM CLR M06/M11 A3069 RMK AO2 SLP392 T10561111
KJER 091653Z AUTO 04011KT 10SM SCT037 BKN050 OVC090 M03/M04 A3014 RMK AO2 FZRAE1554 SLP241 P0000 I1000 T10281039 TSNO
KJES 091715Z AUTO 33004KT 10SM CLR 11/M01 A3040 RMK AO2
KJFK 091651Z 31017G25KT 10SM SCT050 04/M08 A3011 RMK AO2 PK WND 29030/1601 SLP196 T00441083
KJFX 091715Z AUTO 35007KT 10SM CLR 04/M08 A3058 RMK AO2 PWINO
KJFZ 091715Z AUTO 30003KT 4SM -SN OVC020 M07/M11 A3037 RMK AO2 T10721107
KJGG 091715Z AUTO 31012G17KT 10SM CLR 07/M08 A3034 RMK AO1
KJHN 091715Z AUTO 17010G16KT 10SM CLR 02/M06 A3026 RMK AO2 T00151060
KJHW 091715Z AUTO 32011KT 3SM BKN021 OVC027 M04/M08 A3018 RMK AO1
KJKA 091715Z AUTO 02011G15KT 10SM CLR 08/M07 A3049 RMK AO2 T00791074
KJKJ 091714Z AUTO 31008KT 5SM HZ SCT017 OVC030 M15/M18 A3059 RMK AO2
KJKL 091653Z AUTO VRB03KT 8SM OVC019 M05/M10 A3050 RMK AO2 SNB23E48 SLP344 P0000 T10501100
KJLN 091653Z 10005KT 10SM FEW080 M04/M11 A3067 RMK AO2 SLP399 T10391106
KJMR 091716Z AUTO 32006KT 10SM SCT022 BKN027 M09/M13 A3053 RMK AO2
KJMS 091656Z AUTO 32008KT 10SM CLR M21/M23 A3055 RMK AO2 SLP395 T12061228
KJNX 091710Z AUTO 02006KT 10SM CLR 04/M08 A3039 RMK AO2
KJOT 091715Z AUTO 28008KT 10SM SCT020 BKN027 OVC036 M03/M09 A3055 RMK AO2 T10321089
KJQF 091650Z 31009KT 10SM CLR 04/M10 A3045
KJRB 091715Z AUTO VRB06KT SCT050 05/M07 A3011 RMK AO2 SLP301 PWINO FZRANO RVRNO
KJSO 091715Z AUTO 04006KT 10SM CLR 03/M07 A3063 RMK AO2 T00331072
KJST 091654Z AUTO 26011G18KT 6SM -SN BR OVC008 M07/M08 A3021 RMK AO2 SNE32B51 SLP267 P0000 T10671083 TSNO
KJSV 091715Z AUTO 10007KT 10SM SCT080 01/M07 A3068 RMK AO2
KJTC 091715Z AUTO 00000KT 10SM CLR 09/M06 A3036 RMK AO2
KJVL 091645Z 32008KT 10SM SCT120 M04/M10 A3052
KJVW 091715Z AUTO 36008KT 330V040 10SM CLR 05/M08 A3062 RMK AO2
KJWG 091715Z AUTO 14010G15KT 10SM OVC046 M02/M09 A3055 RMK AO2 T10181093
KJWN 091715Z AUTO 25005KT 8SM FEW031 M01/M10 A3060 RMK
KJWY 091715Z AUTO 09004KT 10SM OVC060 01/M09 A3066 RMK AO2 T00091086
KJXI 091715Z AUTO 04007KT 10SM OVC003 03/M08 A3064 RMK AO2 T00251083
KJXN 091714Z 32008KT 1/4SM +SN BKN008 OVC017 M03/M06 A3039 RMK AO2 P0003 T10331061
KJYG 091715Z AUTO 26006KT 10SM CLR M12/M15 A3059 RMK AO2
KJYL 091715Z AUTO 03005KT 10SM CLR A3043 RMK AO2
KJYM 091715Z AUTO 28009G14KT 5SM -SN SCT010 BKN014 OVC038 M02/M05 A3038 RMK AO2
KJYO 091715Z AUTO 30015G28KT 10SM CLR 02/M05 A3033 RMK AO2
KJYR 091715Z AUTO 14010KT 10SM OVC050 M09/M12 A3051 RMK AO2
KJZI 091715Z AUTO 34010KT 10SM CLR 10/M06 A3039 RMK AO2
KJZP 091715Z AUTO 31009KT 10SM CLR 01/M15 A3047 RMK AO2 T00121153
KK02 091715Z AUTO 32003KT 10SM CLR M03/M10 A3065 RMK AO2 T10271100
KK88 091715Z AUTO 13006KT 10SM SCT080 M04/M10 A3065 RMK AO1 T10371103
KKLS 091656Z AUTO 14010G16KT 10SM UP OVC006 01/M01 A3003 RMK AO2 SLP175 P0000 T00061006 FZRANO
KL18 091715Z AUTO 00000KT 7SM CLR 13/08 A3028 RMK AO2
KL35 091715Z AUTO 00000KT 10SM CLR 07/03 A3037 RMK AO2
KL38 091715Z AUTO 03006KT 10SM CLR 07/M07 A3055 RMK AO2 T00691075
KLAA 091653Z AUTO 29004KT 10SM CLR M06/M13 A3025 RMK AO2 SLP291 T10611133 TSNO
KLAF 091654Z 27009KT 9SM -SN BKN018 OVC041 M03/M07 A3055 RMK AO2 SNB32 SLP352 P0000 T10331072
KLAL 091650Z 02012KT 10SM BKN120 12/06 A3032
KLAM 091715Z AUTO 00000KT 10SM CLR M01/M07 A3034 RMK AO2 T10111072
KLAN 091653Z 29012KT 10SM BKN065 M02/M09 A3039 RMK AO2 SLP302 T10171094
KLAR 091653Z AUTO 26015KT 10SM CLR 00/M06 A3009 RMK AO2 SLP224 T00001056
KLAS 091656Z 12003KT 10SM BKN048 OVC220 09/M11 A3031 RMK AO2 SLP263 T00941106
KLAW 091702Z 18010KT 10SM OVC055 01/M11 A3060 RMK AO2 T00061111
KLAX 091653Z 12004KT 8SM FEW025 SCT085 BKN160 BKN250 14/10 A3027 RMK AO2 SLP249 T01440100
KLBB 091653Z 19014KT 10SM OVC013 M01/M05 A3043 RMK AO2 SLP321 T10111050
KLBE 091645Z 27012G16KT 10SM OVC019 M04/M08 A3035
KLBF 091653Z AUTO 17014KT 10SM OVC035 M07/M14 A3033 RMK AO2 SLP324 T10721139
KLBL 091715Z 12017G20KT 080V140 10SM OVC024 00/M08 A3033 RMK AO1
KLBT 091654Z AUTO 33008KT 10SM CLR 06/M06 A3040 RMK AO2 SLP294 T00561061
KLBX 091653Z AUTO 02011KT 10SM CLR 09/M02 A3058 RMK AO2 SLP355 T00891022
KLCG 091715Z AUTO 00000KT 10SM OVC070 M12/M15 A3056 RMK AO2 T11191146
KLCH 091653Z 04015KT 10SM CLR 07/M06 A3058 RMK AO2 SLP362 T00671056
KLCI 091656Z AUTO 30009G20KT 10SM OVC043 M03/M11 A2993 RMK AO2 SLP153 T10281111 FZRANO
KLCK 091715Z AUTO 25014KT 10SM M02/M08 A3047 RMK AO2 T10231083
KLCQ 091715Z AUTO 05005KT 10SM CLR 10/M03 A3037 RMK AO2
KLDJ 091715Z AUTO 32015G24KT 10SM SCT048 OVC060 A3012 RMK AO2
KLDM 091715Z AUTO 32012G18KT 10SM BKN031 BKN040 OVC049 M03/M09 A3040 RMK AO2 T10301087
KLEB 091653Z 31013G19KT 10SM CLR M03/M12 A2997 RMK AO2 SLP157 T10281117
KLEE 091653Z 02008KT 350V050 10SM CLR 12/02 A3036 RMK AO2 SLP280 T01220022
KLEW 091656Z AUTO 30015G23KT 10SM CLR M02/M10 A2987 RMK AO2 PK WND 31027/1643 SLP130 T10171100 FZRANO
KLEX 091654Z 32006KT 10SM OVC022 M05/M11 A3055 RMK AO2 SLP358 T10501111 $
KLFI 091658Z 33010KT 290V360 10SM CLR 04/M08 A3032 RMK AO2A SLP274 T00401085 $
KLFK 091653Z AUTO 01010KT 10SM CLR 05/M08 A3063 RMK AO2 SLP372 T00501078
KLFT 091653Z 01011KT 10SM CLR 07/M07 A3058 RMK AO2 SLP354 T00721067
KLGA 091651Z 30016G26KT 10SM SCT055 04/M07 A3010 RMK AO2 PK WND 30026/1622 SLP191 T00441072
KLGB 091653Z 00000KT 5SM HZ BKN020 13/09 A3028 RMK AO2 SLP251 T01280094 $
KLGC 091715Z AUTO 03006KT 10SM CLR 05/M06 A3049 RMK AO2 T00511060
KLGD 091715Z AUTO 17017G21KT 7SM OVC042 M01/M08 A3008 RMK AO1
KLGU 091651Z AUTO 04005KT 7SM BKN038 OVC075 M01/M03 A3019 RMK AO2 SLP253 T10061028
KLHB 091715Z AUTO 04003KT 10SM OVC085 04/M08 A3064 RMK AO2 T00391085
KLHM 091715Z AUTO 11003KT 2 1/2SM OVC016 05/05 A3024 RMK AO1
KLHQ 091653Z AUTO 25014KT 10SM BKN021 M03/M08 A3048 RMK AO2 SLP334 T10331083
KLHW 091658Z AUTO 34007KT 10SM CLR 10/M06 A3039 RMK AO2 SLP294 T01001059
KLHX 091653Z AUTO 00000KT 10SM CLR M06/M14 A3022 RMK AO2 SLP278 T10611139
KLHZ 091705Z AUTO 36007KT 10SM CLR 02/M08 A3041 RMK AO2
KLIC 091655Z AUTO 00000KT 10SM CLR M07/M13 A3015 RMK AO2 SLP273 T10721128
KLIT 091653Z VRB04KT 10SM FEW250 00/M09 A3071 RMK AO2 SLP405 T00001094
KLJF 091712Z AUTO 29007KT 5SM -SN OVC017 M11/M14 A3056 RMK AO2
KLKR 091735Z AUTO 34005KT 10SM CLR 05/M10 A3042 RMK AO2 PWINO
KLKU 091715Z AUTO 31008G14KT 260V350 10SM SCT060 06/M08 A3033 RMK AO2
KLKV 091715Z 16012G17KT 10SM BKN016 OVC021 04/02 A3009 RMK AO1
KLLJ 091655Z AUTO 00000KT 10SM OVC060 M09/M11 A3011 RMK AO2 SLP261 T10941111
KLLQ 091653Z AUTO 00000KT 10SM CLR 01/M07 A3069 RMK AO2 SLP394 T00111072
KLMO 091714Z AUTO 00000KT 10SM CLR M06/M12 A3013 RMK AO2 P0001 T10581125
KLMT 091653Z 16007KT 10SM SCT110 03/01 A3006 RMK AO2 SLP182 T00330006
KLNC 091715Z AUTO 08004KT 10SM OVC065 01/M10 A3066 RMK AO2 T00141098
KLND 091653Z AUTO 00000KT 10SM CLR M12/M17 A3008 RMK AO2 SLP277 T11221172
KLNK 091654Z 10003KT 10SM OVC075 M09/M13 A3061 RMK AO2 SLP390 T10891128
KLNL 091715Z AUTO 31008KT 10SM SCT022 OVC040 M07/M12 A3038 RMK AO2 T10711121
KLNN 091715Z AUTO 26006G19KT 7SM BKN009 BKN014 OVC035 M01/M03 A3035 RMK AO1 T10131026
KLNP 091715Z AUTO 34004KT 4SM -SN OVC016 M05/M10 A3039 RMK AO2
KLNR 091712Z AUTO 31006KT 10SM BKN026 M04/M11 A3055 RMK AO2 T10441111
KLNS 091653Z 29018G25KT 10SM OVC042 02/M07 A3022 RMK AO2 PK WND 30029/1607 SLP238 T00171067
KLOL 091653Z AUTO 00000KT 10SM CLR M01/M03 A3018 RMK AO2 SLP245 T10061033
KLOM 091715Z AUTO 30010G17KT 280V340 10SM BKN048 01/M07 A3018 RMK AO1
KLOR 091653Z AUTO 34009KT CLR 08/M08 A3047 RMK AO2 SLP319 T00781078 TSNO $
KLOT 091715Z AUTO 30007KT 10SM SCT024 OVC035 M04/M08 A3054 RMK AO2 T10421083
KLOU 091653Z 31005KT 10SM OVC028 M04/M11 A3061 RMK AO2 SLP371 T10391111
KLOZ 091653Z AUTO 28006KT 10SM OVC025 M04/M11 A3053 RMK AO2 SLP351 T10441111
KLPC 091714Z AUTO 10005KT 10SM SCT021 OVC034 16/15 A3028 RMK AO2
KLPR 091704Z AUTO 26013KT 10SM SCT014 OVC060 M03/M07 A3040 RMK AO2 T10281067
KLQK 091715Z AUTO 00000KT 10SM CLR 05/M10 A3038 RMK AO2 T00531096
KLRD 091656Z 03005KT 10SM OVC070 06/M03 A3062 RMK AO2 SLP383 T00611033 $
KLRF 091658Z AUTO 05004KT 10SM CLR M01/M09 A3069 RMK AO2 SLP399 T10061095
KLRJ 091715Z AUTO 00000KT 10SM OVC070 M11/M15 A3060 RMK AO2
KLRO 091655Z AUTO 34007KT 10SM CLR 08/M06 A3039 RMK AO2
KLRU 091715Z AUTO 15004KT 10SM CLR 02/M03 A3045 RMK AO2 T00201026
KLSE 091653Z 32006KT 10SM FEW020 M06/M12 A3057 RMK AO2 SLP368 T10561122 $
KLSF 091658Z AUTO 33011KT 10SM CLR 06/M08 A3049 RMK AO2 SLP329 T00621084
KLSV 091658Z AUTO 00000KT 10SM OVC050 06/M12 A3032 RMK AO2 SLP272 T00581120
KLTS 091658Z AUTO 15013KT 10SM BKN043 OVC050 00/M11 A3056 RMK AO2 SLP361 T00011108
KLUA 091715Z AUTO 29011G15KT 10SM BKN050 02/M08 A3033 RMK AO2
KLUD 091715Z AUTO 10005KT 10SM OVC050 01/M10 A3062 RMK AO2 T00051098
KLUF 091658Z AUTO 00000KT 10SM CLR 13/04 A3026 RMK AO2 SLP246 T01310039 $
KLUK 091712Z 26008KT 10SM OVC030 M03/M09 A3058 RMK AO2 SNE1654 P0000 T10331094
KLUL 091715Z AUTO 35008KT 10SM CLR 06/M09 A3058 RMK AO2 T00571091
KLUM 091715Z AUTO 24005KT 7SM -SN OVC015 M07/M10 A3053 RMK AO2 T10731104
KLUX 091715Z AUTO 32008KT 290V350 10SM 05/M09 A3041 RMK AO2
KLVJ 091653Z AUTO 02011KT 10SM CLR 08/M04 A3060 RMK AO2 SLP361 T00781039
KLVK 091653Z 00000KT 10SM SCT044 13/12 A3023 RMK AO2 SLP237 T01330122
KLVL 091715Z AUTO 35003KT 10SM CLR 03/M11 A3036 RMK AO1 T00331111
KLVM 091653Z AUTO 11003KT 10SM SCT075 M16/M19 A3016 RMK AO2 SLP308 T11561189
KLVN 091712Z AUTO 27006KT 10SM -SN CLR M11/M14 A3055 RMK AO2
KLVS 091653Z AUTO 17009KT 10SM CLR 06/M04 A3021 RMK AO2 SLP230 T00561039
KLWA 091715Z AUTO 30007KT 10SM SCT011 BKN036 OVC045 M01/M08 A3045 RMK AO2 T10151083
KLWB 091715Z AUTO 31008KT 10SM -SN BKN029 OVC037 M05/M12 A3035 RMK AO2 T10531120
KLWC 091652Z AUTO 12005KT 10SM BKN085 M06/M09 A3067 RMK AO2 SLP400 T10611094
KLWD 091653Z AUTO 25003KT 10SM CLR M08/M12 A3061 RMK AO2 SLP388 T10781117
KLWM 091654Z 28013G25KT 10SM FEW050 01/M11 A2995 RMK AO2 PK WND 30027/1620 SLP144 T00111106
KLWS 091656Z 11005KT 10SM SCT047 BKN060 OVC070 M03/M06 A3014 RMK AO2 SLP224 T10281056
KLWT 091654Z AUTO 12007KT 7SM -SN SCT036 SCT060 OVC075 M18/M21 A3022 RMK AO2 SLP329 P0000 T11781211
KLWV 091653Z AUTO 34005KT 10SM OVC030 M03/M10 A3062 RMK AO2 SLP373 T10331100
KLXL 091712Z AUTO 27004KT 10SM OVC022 M11/M16 A3053 RMK AO2
KLXN 091715Z AUTO 15014KT 10SM OVC036 M07/M12 A3038 RMK AO2 T10691125
KLXT 091653Z AUTO 07003KT 10SM CLR M06/M12 A3065 RMK AO2 SLP398 T10611117 TSNO
KLXV 091653Z AUTO 03010KT 9SM SCT046 OVC080 M04/M07 A3022 RMK AO2 SLP216 T10441072
KLXY 091715Z AUTO 06003KT 10SM OVC075 04/M09 A3062 RMK AO2 T00351095
KLYH 091654Z 33008KT 300V020 10SM CLR 02/M12 A3038 RMK AO2 SLP294 T00171117
KLYV 091717Z AUTO 33003KT 10SM BKN080 M13/M16 A3056 RMK AO2
KLZU 091645Z 28010KT 10SM CLR 03/M09 A3047 RMK VISUAL APCH RWY 25 ATIS E (USING WDR ALTIMIETER) BK
KLZZ 091715Z AUTO 00000KT 10SM OVC070 03/M08 A3059 RMK AO2 T00311080
KM08 091725Z AUTO 00000KT 10SM CLR M01/M09 A3063 RMK A01
KM19 091656Z AUTO 06004KT 10SM CLR M02/M08 A3072 RMK AO2 SLP410 T10221083
KM21 091715Z AUTO 29004KT 10SM SCT029 M02/M10 A3061 RMK AO2 T10221099
KM30 091715Z AUTO 00000KT 10SM CLR M02/M10 A3065 RMK AO2 T10171098
KM33 091715Z AUTO 00000G10KT 10SM CLR M00/M09 A3062 RMK A01
KM91 091715Z AUTO 00000KT 10SM BKN029 M02/M09 A3059 RMK A01
KMAE 091653Z AUTO 10004KT 10SM OVC020 14/12 A3027 RMK AO2 SLP250 T01390122
KMAF 091653Z 18006KT 10SM OVC028 01/M04 A3050 RMK AO2 SLP334 T00061044
KMAI 091653Z AUTO 35010KT 10SM CLR 09/M06 A3046 RMK AO2 SLP313 T00891056
KMAN 091715Z AUTO 00000KT 4SM BR FEW038 M03/M03 A3017 RMK A01
KMAO 091715Z AUTO 35007KT 7SM CLR 05/M06 A3041 RMK AO2
KMBG 091652Z AUTO 34005KT 3SM HZ SCT050 OVC070 M17/M21 A3052 RMK AO2 SLP387 I1001 T11721211
KMBL 091656Z AUTO 28016KT 3SM -SN BKN019 OVC025 M03/M07 A3038 RMK AO2 SLP314 P0000 T10331067 FZRANO
KMBO 091715Z AUTO 34006KT CLR 03/M07 A3061 RMK AO2 PWINO
KMBS 091653Z 30008KT 10SM SCT024 BKN033 OVC040 M02/M06 A3036 RMK AO2 SNB00E44 SLP291 P0000 T10171061
KMCB 091653Z AUTO 01012KT 10SM CLR 05/M10 A3057 RMK AO2 SLP354 T00501100
KMCC 091715Z AUTO 00000KT 1 3/4SM BR SCT003 BKN016 OVC043 09/09 A3027 RMK AO2
KMCD 091714Z AUTO 00000KT 10SM SCT018 OVC046 M05/M09 A3032 RMK AO2 T10501091
KMCE 091653Z AUTO 11007KT 7SM SCT038 13/12 A3026 RMK AO2 SLP246 T01330117 TSNO
KMCF 091658Z AUTO 05010KT 10SM BKN150 13/08 A3032 RMK AO2 SLP270 T01250075 $
KMCI 091653Z 14003KT 10SM BKN085 OVC130 M07/M11 A3065 RMK AO2 SLP395 T10671111
KMCJ 091715Z AUTO 03007KT 040V010 10SM CLR 07/M06 A3055 RMK AO1
KMCK 091653Z AUTO 17010KT 10SM OVC075 M06/M12 A3035 RMK AO2 SLP329 T10611117
KMCN 091653Z 36008KT 10SM CLR 07/M09 A3045 RMK AO2 SLP312 T00671094
KMCO 091653Z 01017KT 10SM SCT130 BKN170 BKN200 13/06 A3032 RMK AO2 SLP265 T01330061
KMCW 091653Z AUTO 26006KT 10SM CLR M09/M12 A3057 RMK AO2 SLP372 T10891122
KMCX 091715Z AUTO 30011G15KT 10SM SCT018 OVC043 M02/M09 A3052 RMK AO2 T10251093
KMDD 091715Z AUTO 19004KT 10SM OVC028 01/M04 A3051 RMK AO2 T00111040
KMDH 091652Z 26004KT 10SM FEW027 M03/M09 A3065 RMK AO2 SLP384 T10281089
KMDJ 091715Z AUTO 05021KT 10SM FEW024 11/04 A3049 RMK A01
KMDQ 091715Z AUTO 35008KT 10SM CLR 00/M08 A3057 RMK AO2
KMDS 091710Z AUTO 02003KT 10SM BKN048 M15/M17 A3052 RMK AO2
KMDT 091656Z 30020G28KT 10SM BKN045 02/M07 A3024 RMK AO2 PK WND 31030/1617 SLP245 T00221067
KMDW 091653Z 29009KT 10SM -SN SCT025 BKN035 M03/M10 A3053 RMK AO2 SLP354 P0000 T10331100
KMDZ 091715Z AUTO 31007KT 10SM BKN019 OVC050 M10/M14 A3043 RMK AO2 T10961137
KMEB 091652Z AUTO 35009KT 10SM CLR 06/M08 A3041 RMK AO2 SLP298 T00611083
KMEH 091715Z AUTO 00000KT 10SM SCT017 OVC060 M02/M05 A3000 RMK AO2 SNE1657 P0000 T10171050
KMEI 091658Z 34009KT 10SM CLR 05/M08 A3059 RMK AO2 SLP361 T00501083
KMEM 091654Z VRB04KT 10SM FEW250 01/M09 A3066 RMK AO2 SLP386 T00111094
KMER 091445Z 12008KT 7SM OVC034 12/12 A3025
KMEV 091715Z AUTO 04004KT 10SM CLR 12/00 A3019 RMK AO2
KMEZ 091715Z AUTO 00000KT 10SM BKN075 01/M08 A3062 RMK AO2
KMFD 091709Z 25009KT 2SM -SN BR BKN012 OVC022 M05/M07 A3038 RMK AO2 P0000 T10501072
KMFE 091653Z 35013KT 10SM OVC060 07/M01 A3061 RMK AO2 SLP365 T00721011
KMFI 091654Z AUTO 32008KT 10SM OVC055 M09/M13 A3047 RMK AO2 SLP344 T10941133
KMFR 091653Z 00000KT 7SM BKN029 OVC044 07/06 A3008 RMK AO2 RAB21E51 SLP192 P0001 T00720061
KMFV 091715Z AUTO 29014G23KT 280V340 10SM CLR 04/M06 A3030 RMK AO2 T00371061
KMGC 091715Z AUTO 26009KT 10SM -SN BKN029 OVC035 M02/M08 A3050 RMK AO2
KMGE 091658Z 30005KT 10SM CLR 02/M09 A3047 RMK AO2A SLP328 T00201091 $
KMGG 091714Z AUTO 33005KT 10SM -SN SCT014 BKN024 M09/M12 A3055 RMK AO2 T10901122
KMGJ 091654Z AUTO 29012G24KT 10SM OVC043 02/M08 A3007 RMK AO2 PK WND 27027/1637 SLP185 T00221078 TSNO
KMGM 091653Z 01009KT 10SM CLR 07/M09 A3054 RMK AO2 SLP342 T00671089
KMGN 091715Z AUTO 35003KT 7SM SCT034 BKN042 OVC050 M04/M07 A3032 RMK AO2 T10421078
KMGR 091715Z AUTO 04006KT 10SM CLR 09/M07 A3042 RMK AO2
KMGW 091709Z VRB06KT 9SM OVC020 M04/M09 A3038 RMK AO2 SNE08 P0000 T10391089
KMGY 091653Z AUTO 26007KT 10SM BKN023 OVC041 M04/M09 A3050 RMK AO2 SLP341 T10391094
KMHE 091653Z AUTO 04005KT 10SM BKN045 OVC055 M14/M18 A3058 RMK AO2 SLP392 T11441178
KMHK 091652Z 16007KT 10SM OVC060 M04/M11 A3061 RMK AO2 SLP384 T10441106
KMHL 091715Z AUTO 25003KT 10SM CLR M05/M08 A3068 RMK AO2
KMHR 091650Z 00000KT 5SM SCT019 BKN033 OVC060 12/12 A3025
KMHS 091716Z AUTO 11005KT 10SM BKN006 BKN013 OVC040 06/04 A3015 RMK AO2 T00560039 $
KMHT 091653Z 32013G24KT 280V340 10SM BKN049 01/M12 A2994 RMK AO2 SLP156 T00061122
KMHV 091700Z AUTO 23012G18KT 10SM CLR 15/10 A3026 RMK A01
KMIA 091653Z 01008G18KT 10SM FEW025 SCT070 BKN080 22/17 A3019 RMK AO2 SLP222 T02220172
KMIB 091658Z AUTO 30010KT 10SM CLR M25/M28 A3057 RMK AO2 SLP418 T12521283 $
KMIC 091653Z 25007KT 10SM OVC015 M09/M14 A3055 RMK AO2 SLP364 T10941144
KMIE 091653Z 27009KT 10SM OVC015 M04/M08 A3051 RMK AO2 SLP340 T10441078 $
KMIS 091715Z AUTO 05023G30KT 7SM FEW026 10/04 A3047 RMK A01
KMIV 091654Z AUTO 32017G25KT 10SM FEW042 03/M07 A3023 RMK AO2 PK WND 30027/1559 SLP235 T00281067
KMIW 091701Z AUTO 25004KT 10SM OVC015 M09/M12 A3059 RMK AO2 T10891122
KMJQ 091715Z AUTO 27005KT 7SM -SN CLR M12/M15 A3055 RMK AO2
KMJX 091656Z AUTO 30020G24KT 10SM BKN048 03/M07 A3016 RMK AO2 PK WND 30027/1637 SLP218 T00331072 PNO $
KMKC 091654Z 06003KT 10SM CLR M05/M12 A3067 RMK AO2 SLP398 T10501122
KMKE 091652Z 28012KT 10SM FEW040 M03/M12 A3049 RMK AO2 SLP338 T10331117
KMKG 091655Z 31014G22KT 6SM -SN BKN030 BKN040 OVC049 M02/M08 A3043 RMK AO2 SLP313 P0000 T10221083
KMKJ 091715Z AUTO 27009KT 7SM -SN OVC022 M05/M09 A3038 RMK AO2 T10461094
KMKL 091653Z 35007KT 10SM CLR M01/M08 A3065 RMK AO2 SLP385 T10111083
KMKN 091715Z AUTO 10004KT 10SM OVC050 02/M08 A3061 RMK AO2 T00151082
KMKO 091653Z AUTO 10006KT 10SM OVC080 M01/M09 A3069 RMK AO2 SLP399 T10061089
KMKS 091715Z AUTO 34006KT 10SM CLR 06/M07 A3041 RMK AO2
KMKT 091656Z AUTO 26009KT 10SM CLR M12/M15 A3058 RMK AO2 SLP383 T11221150 FZRANO
KMKY 091715Z AUTO 04012G16KT 10SM CLR 20/13 A3021 RMK AO1
KMLB 091653Z 34013KT 10SM -RA FEW031 FEW070 BKN120 14/12 A3028 RMK AO2 RAB21 SLP252 P0000 T01440117
KMLC 091653Z AUTO VRB05KT 10SM FEW075 SCT110 01/M10 A3065 RMK AO2 SLP386 T00061100
KMLE 091715Z AUTO 13004KT 10SM OVC080 M08/M12 A3061 RMK AO2 T10791124
KMLF 091652Z AUTO 22017KT 10SM CLR 03/M07 A3025 RMK AO2 SLP246 T00331067
KMLI 091652Z 29007KT 10SM CLR M05/M11 A3060 RMK AO2 SLP373 T10501106
KMLJ 091715Z AUTO 32004KT 10SM CLR 06/M05 A3044 RMK AO2
KMLP 091713Z AUTO 17007KT 1/2SM FZFG VV001 M14/M16 A2992 RMK AO2 T11441161 $
KMLS 091653Z AUTO BKN065 OVC080 A3045 RMK AO2 SLPNO PWINO FZRANO $
KMLT 091653Z AUTO 28012G29KT 10SM SCT038 M03/M13 A2974 RMK AO2 PK WND 31030/1609 SLP082 T10331128
KMLU 091653Z 07008KT 10SM CLR 03/M06 A3068 RMK AO2 SLP390 T00331056
KMMH 091715Z AUTO 13007G14KT 10SM CLR 05/M04 A3028 RMK AO2 T00461037
KMMI 091715Z AUTO 34005KT 10SM CLR M01/M09 A3054 RMK
KMMK 091653Z AUTO 29009G23KT 10SM OVC060 03/M10 A3003 RMK AO2 PK WND 32027/1617 SLP172 T00331100 TSNO
KMML 091656Z AUTO 31006KT 10SM CLR M14/M18 A3059 RMK AO2 SLP393 T11441178 FZRANO
KMMT 091658Z VRB05KT 10SM CLR 07/M08 A3043 RMK AO2A SLP309 T00711078 $
KMMU 091645Z 31018G27KT 10SM BKN050 03/M08 A3012
KMMV 091713Z AUTO 00000KT 1 3/4SM -RA BR OVC004 01/M01 A3006 RMK AO2 RAB1655 P0001 T00061006
KMNE 091715Z AUTO 01006KT 10SM CLR 03/M07 A3066 RMK AO2 T00321073
KMNH 091717Z AUTO 22005KT 10SM CLR 06/M05 A3015 RMK AO2
KMNI 091715Z AUTO 33006KT 10SM CLR 06/M08 A3042 RMK AO2
KMNM 091656Z AUTO 32008G14KT 270V350 10SM CLR M04/M12 A3043 RMK AO2 SLP326 T10441122 FZRANO
KMNN 091653Z AUTO 26012KT 4SM -SN OVC014 M04/M07 A3043 RMK AO2 SNB48 SLP322 P0000 T10441072
KMNV 091715Z AUTO 00000KT 10SM BKN032 M00/M08 A3052 RMK A01
KMNZ 091715Z AUTO 03003KT 10SM SCT060 03/M09 A3061 RMK AO2 T00311091
KMOB 091656Z 36012KT 10SM CLR 07/M08 A3052 RMK AO2 SLP336 T00721083
KMOD 091710Z 12003KT 3SM BR BKN005 14/12 A3026 RMK AO2 T01390117
KMOP 091716Z AUTO 28009KT 10SM SCT026 OVC065 M02/M08 A3035 RMK AO2 T10171081
KMOR 091715Z AUTO 36005KT 10SM BKN030 M02/M10 A3048 RMK A01
KMOT 091654Z 30012KT 10SM CLR M23/M26 A3057 RMK AO2 SLP411 T12331261
KMOX 091713Z AUTO 28007KT 10SM OVC013 M16/M19 A3056 RMK AO2
KMPO 091653Z AUTO 29018G25KT 9SM FEW025 BKN036 OVC046 M03/M08 A3004 RMK AO2 PK WND 29029/1636 SNB13E14B32E48 SLP199 P0000 T10281083
KMPV 091651Z AUTO 28009KT 8SM -SN FEW015 SCT030 BKN049 M06/M10 A2997 RMK AO2 SNB1556 SLP167 P0000 T10611100 TSNO
KMQB 091720Z AUTO 30003KT 10SM OVC023 M06/M11 A3063 RMK AO2 T10601108
KMQE 091654Z AUTO 30011G24KT M01/M10 A2990 RMK AO1 SLP144 T10061100
KMQI 091710Z AUTO 33007KT 310V010 10SM CLR 04/M05 A3032 RMK AO2 T00441053
KMQJ 091719Z AUTO 27011KT 10SM BKN023 M03/M08 A3052 RMK AO1
KMQS 091715Z AUTO 29017KT 10SM OVC038 01/M08 A3021 RMK AO2
KMQY 091656Z 32007KT 10SM FEW031 M01/M08 A3062 RMK AO2 SLP384 T10061078
KMRB 091653Z 29018KT 10SM FEW041 02/M09 A3033 RMK AO2 SLP275 T00171089
KMRC 091715Z AUTO 00000KT 10SM FEW025 M01/M07 A3059 RMK
KMRF 091656Z AUTO 18006KT 9SM OVC004 01/00 A3046 RMK AO2 SLP333 T00110000 FZRANO
KMRH 091658Z AUTO 34012G17KT 10SM CLR 07/M05 A3034 RMK AO2 SLP274 T00671050 TSNO
KMRJ 091715Z AUTO 28005KT 10SM BKN015 M06/M09 A3052 RMK AO2
KMRN 091705Z AUTO 34005KT 10SM CLR 03/M09 A3043 RMK AO2 T00301095
KMRT 091713Z AUTO 27012KT 10SM BKN038 OVC046 M04/M07 A3045 RMK AO2 T10371072
KMRY 091701Z 00000KT 10SM BKN029 14/13 A3027 RMK AO2 T01390128
KMSL 091653Z AUTO VRB06KT 10SM CLR 00/M08 A3062 RMK AO2 SLP373 T00001078
KMSN 091653Z 33009KT 10SM FEW027 M06/M12 A3051 RMK AO2 SLP348 T10611122
KMSO 091653Z 07009KT 9SM BKN044 OVC060 M10/M16 A3019 RMK AO2 SNB29E49 SLP281 P0000 T11001156
KMSP 091653Z VRB05KT 10SM BKN012 M09/M13 A3056 RMK AO2 SNE1556 SLP365 P0000 T10941133
KMSS 091653Z AUTO 28014G20KT 10SM OVC036 M03/M11 A3010 RMK AO2 PK WND 28026/1619 SLP200 T10331111
KMSV 091715Z AUTO 30011G21KT 10SM FEW020 M03/M07 A3005 RMK AO1
KMSY 091653Z 01011G18KT 10SM FEW150 06/M03 A3055 RMK AO2 SLP348 T00611033
KMTC 091658Z 29014G21KT 10SM BKN039 01/M08 A3033 RMK AO2A SLP282 T00061079
KMTH 091653Z AUTO 03012KT 10SM FEW042 FEW050 OVC060 25/19 A3015 RMK AO2 SLP209 T02500194
KMTJ 091653Z AUTO 31004KT 10SM OVC090 01/M07 A3033 RMK AO2 SLP279 T00061072
KMTN 091645Z 29020G27KT 10SM FEW150 03/M06 A3029
KMTO 091653Z AUTO 28006KT 10SM OVC029 M04/M11 A3058 RMK AO2 SLP366 T10391111
KMTP 091654Z AUTO 30014G24KT 03/M08 A3003 RMK AO1 SLP170 T00331078
KMTV 091715Z AUTO 34009G16KT 10SM CLR 01/M11 A3042 RMK AO2 T00121115
KMTW 091656Z AUTO 28013G20KT 10SM FEW031 M04/M12 A3045 RMK AO2 SLP336 T10391122 FZRANO
KMUI 091658Z AUTO 29015G26KT 10SM OVC039 01/M09 A3022 RMK AO2 PK WND 27026/53 SLP242 T00071086 $
KMUO 091658Z 20003KT 10SM FEW075 BKN095 M02/M04 A3014 RMK AO2A FZDZE1558 SLP234 T10221039 $
KMUT 091715Z AUTO 32008KT 10SM FEW019 M05/M11 A3062 RMK AO2
KMVE 091712Z AUTO 33004KT 10SM OVC011 M14/M16 A3060 RMK AO2
KMVH 091715Z AUTO 10006KT 9SM -SN FEW039 SCT050 BKN060 M19/M22 A3023 RMK AO2
KMVL 091712Z AUTO 30006G17KT 4SM -SN BKN028 OVC035 M05/M11 A2997 RMK AO2 SNB1658 P0000 T10501111
KMVY 091653Z 30013G26KT 10SM CLR 03/M10 A2995 RMK AO2 PK WND 27026/1646 SLP143 T00331100
KMWA 091647Z 25003KT 25SM FEW 045 FEW130 M02/M09 A3065
KMWC 091645Z 30013KT 10SM SCT030 M04/M13 A3050
KMWH 091652Z 01007KT 10SM OVC018 M04/M09 A3020 RMK AO2 SLP245 T10441094
KMWK 091705Z AUTO 33006KT 10SM CLR 02/M10 A3041 RMK AO2 T00221100
KMWL 091653Z AUTO 12005KT 10SM OVC050 01/M10 A3062 RMK AO2 SLP377 T00061100
KMWM 091715Z AUTO 00000KT 10SM SCT080 M12/M15 A3055 RMK AO2
KMWN 091649Z 29050G63KT 1/16SM -SN FZFG BLSN VV001 M18/M18 RMK VRY LGT ICG
KMWO 091715Z AUTO 26009KT 10SM OVC029 M01/M10 A3055 RMK AO2 T10151105
KMWT 091653Z AUTO VRB04KT 10SM CLR 01/M09 A3064 RMK AO2 SLP388 T00061089
KMXF 091658Z AUTO 36010KT 10SM CLR 06/M08 A3053 RMK AO2 SLP342 T00581080
KMXO 091715Z AUTO 26008KT 10SM CLR M08/M12 A3058 RMK AO2
KMYF 091653Z 00000KT 9SM CLR 14/09 A3028 RMK AO2 SLP251 T01390089
KMYJ 091715Z AUTO 27009KT 10SM CLR M05/M11 A3064 RMK AO2 PWINO
KMYL 091711Z AUTO 00000KT 3/4SM -SN BR VV015 M06/M07 A3002 RMK AO2 P0001 T10561067
KMYP 091714Z AUTO 26039G50KT OVC001 M07/M08 A3034 RMK AO2 PWINO
KMYR 091645Z 36008G14KT 10SM CLR 06/M08 A3040
KMYV 091703Z AUTO 00000KT 3SM BR OVC002 08/07 A3026 RMK AO2 T00830072
KMYZ 091715Z AUTO 16007KT 10SM OVC070 M05/M10 A3058 RMK AO2
KMZH 091714Z AUTO 31004KT 10SM OVC028 M10/M15 A3048 RMK AO2
KMZZ 091715Z AUTO 28015G18KT 10SM OVC014 M05/M07 A3052 RMK AO2 T10461070
KN03 091715Z AUTO 31011G20KT 288V348 7SM BKN023 OVC029 M03/M08 A3013 RMK AO2
KN38 091715Z AUTO 29012G20KT 260V320 10SM FEW021 SCT027 BKN034 M04/M09 A3012 RMK AO2
KN60 091652Z AUTO 32009KT M23/M26 A3054 RMK AO1 SLP408 T12281256
KNAK 091654Z AUTO 29010G19KT 10SM CLR 04/M08 A3029 RMK AO2 SLP259 T00391083
KNBC 091656Z 36006KT 10SM CLR 11/M07 A3040 RMK AO2 SLP295 T01061067
KNBG 091655Z 03011KT 10SM FEW110 08/M05 A3054 RMK AO2 SLP340 T00781050 $
KNBT 091656Z AUTO 34014G21KT CLR A3033 RMK AO2 SLP276 PNO $
KNCA 091656Z 36009G15KT 10SM CLR 06/M08 A3036 RMK AO2 SLP283 T00561078
KNDZ 091656Z 02015KT 10SM CLR 10/M08 A3049 RMK AO2 SLP313 T01001078 $
KNEL 091700Z AUTO 30015G27KT 10SM BKN049 03/M08 A3013 RMK AO2 PK WND 30028/1614 SLP203 T00331078 PNO
KNEW 091653Z AUTO 02009KT 10SM CLR 07/M04 A3056 RMK AO2 SLP342 T00671044
KNFE 091656Z AUTO 34011G17KT 10SM CLR 06/M08 A3032 RMK AO2 SLP271 T00561083
KNFG 091655Z 00000KT 7SM SCT250 10/09 A3028 RMK AO2 SLP252 T01000089 $
KNFL 091656Z 18012KT 10SM SCT070 SCT120 SCT180 BKN240 04/M07 A3017 RMK AO2 SLP181 ACSL DSNT S-W-N T00441067
KNFW 091652Z 10005KT 10SM OVC055 02/M11 A3065 RMK AO2 SLP359 T00171106 $
KNGP 091656Z 36010KT 10SM OVC075 06/M01 A3060 RMK AO2 SLP360 T00611006
KNGU 091659Z 31014KT 10SM FEW040 05/M09 A3034 RMK AO2 SLP273 T00501089
KNHK 091652Z 32014KT 10SM FEW040 04/M07 A3030 RMK AO2 SLP260 T00391072
KNID 091656Z 00000KT 10SM FEW100 BKN230 BKN300 04/M07 A3028 RMK AO2 SLP263 T00441067 $
KNIP 091653Z 02009KT 10SM SCT250 11/M03 A3039 RMK AO2 SLP284 T01111033 $
KNJK 091656Z 26003KT 10SM BKN250 12/M03 A3028 RMK AO2 SLP270 T01221028 $
KNJM 091657Z AUTO 36006KT 10SM 07/M08 A3035 RMK AO2 SLP282 T00721078 $
KNKT 091654Z 33012G16KT 10SM CLR 06/M07 A3036 RMK AO2 SLP276 T00611067
KNKX 091655Z 00000KT 10SM FEW030 BKN250 16/11 A3027 RMK AO2 SLP247 T01610106
KNLC 091703Z 00000KT 1 1/2SM BR SCT004 BKN020 OVC040 12/12 A3028 RMK AO2 SFC VIS 2 1/2 T01220117
KNMM 091656Z VRB04KT 10SM CLR 04/M09 A3060 RMK AO2 SLP377 T00391089
KNOG 091656Z AUTO 01006KT 10SM OVC080 06/M04 A3062 RMK AO2 SLP351 T00611044 PNO $
KNOW 091715Z AUTO 18005KT 7SM -RA SCT012 BKN039 OVC060 01/00 A2995 RMK AO2 T00131003
KNPA 091656Z 36011G17KT 10SM FEW150 09/M08 A3048 RMK AO2 SLP322 T00891078 $
KNQA 091650Z 03004KT 10SM FEW250 M01/M09 A3067
KNQI 091656Z 01009KT 10SM OVC070 06/M03 A3062 RMK AO2 SLP363 T00561028
KNQX 091653Z 04012G19KT 10SM SCT040 BKN060 23/19 A3016 RMK AO2 SLP212 T02280189 $
KNRB 091652Z 01010G18KT 10SM SCT250 11/02 A3038 RMK AO2 SLP285 T01110022
KNRS 091656Z 04004KT 7SM SCT017 BKN250 17/09 A3028 RMK AO2 SLP254 T01670094 $
KNSE 091656Z 35010G18KT 10SM CLR 07/M08 A3049 RMK AO2 SLP313 T00721083 $
KNSI 091657Z 29015KT 10SM FEW002 SCT006 BKN032 BKN140 17/15 A3028 RMK AO2 SLP248 T01720150 $
KNTD 091656Z 34004KT 10SM SCT012 BKN018 14/11 A3028 RMK AO2 SLP254 T01440111
KNTU 091656Z 31010KT 10SM CLR 04/M07 A3031 RMK AO2 SLP267 T00441072 $
KNUC 091656Z 31006KT 10SM OVC010 16/14 A3030 RMK SLP259 T01560139
KNUI 091653Z AUTO 27012G19KT 10SM CLR 04/M07 A3030 RMK AO2 SLP260 T00391072
KNUQ 091656Z 16004KT 10SM FEW035 BKN044 15/12 A3025 RMK AO2 SLP246 T01500122
KNUW 091656Z 10008KT 9SM OVC015 02/M01 A3001 RMK AO2 RAE07SNE07 SLP162 P0001 T00221011 $
KNXF 091656Z AUTO 08003KT 6SM HZ CLR 16/09 A3027 RMK AO2 SLP338 T01560089 $
KNXP 091656Z 31003KT 10SM SCT220 BKN250 07/M09 A3035 RMK AO2 SLP265 FIRST T00721089 $
KNYC 091651Z 04/M07 SLPNO $
KNYG 091656Z 32013G24KT 10SM FEW050 04/M08 A3035 RMK AO2 SLP279 T00391083
KNYL 091657Z 01007KT 10SM BKN250 15/M06 A3025 RMK AO2 SLP243 T01501056
KNZY 091652Z 00000KT 8SM BKN016 BKN250 14/09 A3027 RMK AO2 SLP250 T01440094 $
KO22 091655Z AUTO 00000KT 2SM SCT005 11/11 A3030 RMK AO1
KO69 091715Z AUTO 00000KT 3/4SM OVC002 13/12 A3026 RMK AO1 P0001
KO86 091710Z AUTO 00000KT 5SM OVC004 02/02 A3019 RMK AO1
KOAJ 091656Z AUTO 30007KT 10SM CLR 05/M07 A3037 RMK AO2 SLP290 T00501072
KOAK 091653Z 21004KT 5SM -RA BR SCT012 OVC023 14/13 A3025 RMK AO2 RAB22 SLP242 P0001 T01390133
KOBE 091715Z AUTO 36010KT 10SM OVC110 15/12 A3026 RMK AO2
KOCF 091650Z 02007KT 10SM CLR 12/M01 A3035
KOCH 091715Z 09005KT 10SM CLR 05/M07 A3061 RMK AO1
KOCQ 091715Z AUTO 31006KT 10SM CLR M05/M12 A3044 RMK AO1 T10501122
KOCW 091705Z AUTO 29011KT 10SM CLR 05/M08 A3036 RMK AO2 T00491083
KODO 091653Z AUTO 15005KT 10SM OVC025 00/M04 A3049 RMK AO2 SLP334 T00001044
KODX 091453Z AUTO 13006KT 10SM OVC050 M13/M17 A3047 RMK AO2 SLP368 T11281167 55002
KOEB 091715Z AUTO 26009KT 1 1/4SM -SN BKN011 OVC017 M03/M04 A3041 RMK AO2 T10261039
KOEO 091715Z AUTO 26005KT 5SM -SN OVC014 M08/M11 A3056 RMK AO2 T10821112
KOFF 091658Z AUTO 15001KT 10SM BKN085 OVC120 M09/M12 A3063 RMK AO2 SLP398 T10931125 $
KOFK 091656Z AUTO 13004KT 10SM OVC070 M12/M16 A3054 RMK AO2 SLP378 T11221156
KOFP 091654Z AUTO 30009G17KT 10SM CLR 03/M09 A3037 RMK AO2 SLP284 T00331094
KOGA 091715Z AUTO 17010KT 10SM CLR M06/M11 A3024 RMK AO2 T10561108
KOGB 091653Z AUTO 03006KT 10SM CLR 07/M08 A3042 RMK AO2 SLP303 T00671078
KOGD 091653Z 00000KT 6SM BR OVC050 01/M01 A3021 RMK AO2 SLP249 T00111011
KOGS 091715Z AUTO 31012G17KT 10SM SCT024 SCT033 SCT040 M03/M10 A3012 RMK AO2 T10271101 TSNO
KOJA 091722Z AUTO 16009KT 10SM OVC044 M02/M11 A3055 RMK AO2
KOJC 091653Z 16004KT 10SM CLR M07/M11 A3065 RMK AO2 SLP396 T10721111
KOKB 091652Z AUTO 00000KT 6SM HZ CLR 11/08 A3027 RMK AO2 SLP250 T01110083
KOKC 091652Z 14009KT 10SM OVC055 M03/M11 A3060 RMK AO2 SLP374 T10281111
KOKK 091656Z AUTO 28014KT 10SM OVC016 M04/M07 A3052 RMK AO2 SLP350 T10391067 FZRANO
KOKM 091715Z AUTO 14006KT 10SM CLR 00/M10 A3066 RMK AO2 T10051101
KOKV 091715Z AUTO 28017G22KT 10SM SCT034 SCT040 00/M09 A3033 RMK AO2
KOKZ 091715Z AUTO 10004KT 10SM CLR 07/M05 A3042 RMK AO2 T00691048
KOLE 091715Z AUTO 30008G18KT 270V330 10SM SCT028 BKN050 OVC055 M05/M11 A3014 RMK AO2
KOLF 091704Z AUTO 11006KT 5SM HZ BKN009 OVC034 M19/M22 A3057 RMK AO2 T11891222
KOLG 091715Z AUTO 29006KT 10SM OVC030 M09/M15 A3047 RMK AO1
KOLM 091701Z 24005KT 5SM -RA BR BKN010 BKN028 OVC035 02/02 A2998 RMK AO2 RAB1658 P0000 T00170017
KOLS 091654Z AUTO 17003KT 10SM CLR 13/M01 A3028 RMK AO2 SLP227 T01331006
KOLU 091715Z AUTO 11005KT 10SM OVC070 M11/M14 A3055 RMK AO2 RVRNO
KOLV 091650Z 04004KT 10SM FEW250 A3064
KOLY 091715Z AUTO 00000KT 10SM OVC027 M03/M09 A3061 RMK AO2
KOLZ 091715Z AUTO 32005KT 10SM CLR M09/M12 A3057 RMK AO2
KOMA 091652Z 20003KT 10SM SCT080 BKN100 M09/M14 A3063 RMK AO2 SLP392 T10941139
KOMH 091715Z AUTO 29014G18KT 10SM 04/M10 A3036 RMK AO2
KOMK 091653Z AUTO 00000KT 10SM OVC042 M07/M11 A3022 RMK AO2 SLP256 T10721106
KOMN 091650Z 33010KT 10SM SCT120 12/08 A3034
KONA 091713Z AUTO 29003KT 10SM CLR M07/M11 A3057 RMK AO2
KONL 091715Z AUTO 14007KT 10SM OVC050 M10/M14 A3047 RMK AO2 T11041138
KONM 091715Z AUTO 14007KT 10SM CLR 02/M03 A3041 RMK AO2 T00201031
KONO 091711Z AUTO 24003KT 1/2SM SN FZFG VV020 M04/M05 A3021 RMK AO2 P0001 T10391050
KONP 091715Z AUTO 20013G20KT 7SM -RA SCT011 BKN020 BKN030 10/07 A3004 RMK AO2 P0002
KONT 091653Z 00000KT 6SM HZ SCT200 OVC260 12/07 A3027 RMK AO2 SLP250 T01220067
KONX 091710Z AUTO 30008KT 10SM CLR 04/M08 A3033 RMK AO2 T00431078
KONZ 091713Z AUTO 33014KT 10SM SCT030 BKN039 OVC075 00/M08 A3036 RMK AO2 T00001076
KOOA 091715Z AUTO 29008KT 10SM CLR M07/M11 A3061 RMK AO2 T10711115
KOPF 091653Z 36009KT 10SM OVC090 23/17 A3019 RMK AO2 SLP224 T02330172
KOPL 091715Z AUTO 36009KT 10SM CLR 06/M05 A3058 RMK AO2 T00611051 PWINO
KOPN 091715Z AUTO 01008G14KT 10SM CLR 06/M13 A3045 RMK AO2
KOQT 091653Z AUTO 07006KT 10SM FEW034 00/M10 A3054 RMK AO2 SLP359 T00001100
KOQU 091650Z 31015G25KT 15SM FEW040 03/M12 A2998
KORB 091713Z AUTO 31008KT 10SM OVC024 M15/M21 A3043 RMK AO2
KORC 091715Z AUTO 00000KT 10SM CLR M12/M14 A3056 RMK AO2
KORD 091651Z 27009KT 8SM -SN SCT022 OVC033 M04/M09 A3052 RMK AO2 SLP345 P0000 T10441089
KORE 091652Z AUTO 29016G24KT 10SM BKN045 M01/M10 A2998 RMK AO2 PK WND 28026/1642 SLP159 T10111100
KORF 091651Z 30007KT 270V340 10SM CLR 04/M09 A3032 RMK AO2 SLP268 T00391089
KORG 091715Z AUTO 04009KT 10SM CLR 07/M08 A3058 RMK AO2 T00711080
KORH 091654Z 28017G27KT 10SM CLR M02/M12 A2992 RMK AO2 PK WND 29033/1555 SLP146 T10171122
KORL 091653Z 01009KT 10SM CLR 13/06 A3032 RMK AO2 SLP271 T01280056
KORS 091715Z AUTO 04003KT 7SM SCT004 OVC013 00/M02 A2998 RMK AO2
KOSA 091715Z AUTO 07004KT 10SM CLR 03/M08 A3067 RMK AO1 T00251081
KOSC 091713Z AUTO 10SM OVC048 M02/M10 A3031 RMK AO2 T10181103
KOSH 091653Z 30010KT 10SM CLR M06/M12 A3047 RMK AO2 SLP339 T10561122
KOSU 091653Z 27014G21KT 10SM FEW020 OVC060 M04/M08 A3046 RMK AO2 SLP330 T10391083
KOTG 091656Z AUTO 27005KT 9SM CLR M13/M16 A3055 RMK AO2 SNB43E55 SLP387 P0000 T11331156 FZRANO
KOTH 091715Z 20006KT 4SM FEW012 BKN022 OVC027 10/09 A3009 RMK AO1 P0002
KOTM 091653Z AUTO 30006KT 10SM CLR M07/M13 A3062 RMK AO2 SLP382 T10721128
KOUN 091715Z AUTO 14005KT 10SM OVC050 M02/M10 A3062 RMK AO2
KOVE 091706Z AUTO 00000KT 2 1/2SM BR OVC004 08/07 A3026 RMK AO2 T00830072
KOVL 091712Z AUTO 30007KT 1 1/2SM -SN SCT007 OVC010 M12/M15 A3058 RMK AO2
KOVS 091714Z AUTO 10SM SCT022 M05/M11 A3057 RMK AO2 T10501111
KOWA 091715Z AUTO 24007KT 7SM SCT007 M11/M14 A3054 RMK AO2
KOWB 091656Z 29007KT 10SM OVC025 M04/M09 A3064 RMK AO2 SLPNO T10391094
KOWD 091653Z 29013KT 10SM BKN050 02/M10 A2995 RMK AO2 SLP142 T00221100
KOWI 091715Z AUTO 16007KT 10SM OVC075 M04/M09 A3064 RMK AO2
KOWP 091715Z AUTO 15004KT 10SM M01/M10 A3065 RMK AO2 T10061103
KOWX 091715Z AUTO 27014KT 7SM BKN013 BKN023 OVC049 M03/M05 A3046 RMK AO1
KOXB 091653Z AUTO 31011G18KT 10SM CLR 03/M07 A3026 RMK AO2 SLP247 T00281067
KOXC 091650Z 33010G18KT 10SM SCT045 01/M11 A3003
KOXI 091715Z AUTO 26013G18KT 10SM SCT035 OVC048 M02/M21 A3050 RMK AO1
KOXR 091651Z 03004KT 8SM OVC014 16/08 A3027 RMK AO2 SLP249 T01560083
KOXV 091715Z AUTO VRB04KT 10SM CLR M08/M13 A3059 RMK AO2
KOZA 091715Z AUTO 16005KT 10SM OVC042 02/M05 A3055 RMK AO2
KOZR 091715Z AUTO 34011KT 10SM CLR 08/M10 A3045 RMK AO2 PRESFR
KOZS 091715Z AUTO 27003KT 10SM CLR M03/M10 A3065 RMK AO2
KOZW 091715Z AUTO 29013KT 10SM SCT037 OVC045 M01/M10 A3036 RMK AO2 T10151101
KP08 091715Z AUTO 00000KT 10SM CLR 15/03 A3028 RMK AO2
KP28 091656Z AUTO 16009G16KT M05/M12 A3054 RMK AO1 SLP368 T10501117
KP53 091656Z AUTO 01010KT M03/M10 A3035 RMK AO1 SLP289 T10331100
KP58 091651Z AUTO 30011G19KT M02/M09 A3031 RMK AO1 SLP277 T10171089
KP59 091651Z AUTO 02012KT M05/M08 A3038 RMK AO1 SLP305 P0001 T10501083
KP60 091656Z AUTO 00000KT M07/M08 A3006 RMK AO1 SLP242 P0001 T10671078 $
KP68 091653Z AUTO 00000KT 01/M07 A3023 RMK AO1 SLP235 T00061072
KP69 091652Z AUTO 36005KT M03/M08 A3023 RMK AO1 SLP268 T10331078
KPAE 091653Z 11008G16KT 050V130 10SM SCT006 OVC021 01/M01 A2996 RMK AO2 SLP150 T00061006
KPAH 091653Z 02004KT 10SM CLR M01/M10 A3064 RMK AO2 SLP380 T10061100
KPAM 091656Z AUTO 03010KT 10SM CLR 11/M06 A3044 RMK AO2 SLP311 T01091060 $
KPAN 091715Z AUTO 00000KT 10SM CLR 09/00 A3037 RMK AO2
KPAO 091647Z 15008KT 10SM BKN030 BKN150 15/14 A3024
KPBF 091653Z AUTO VRB03KT 10SM CLR M01/M07 A3071 RMK AO2 SLP401 T10061072
KPBG 091653Z AUTO 31008KT 7SM -SN BKN036 OVC047 M03/M11 A3003 RMK AO2 SNB46 SLP173 P0000 T10331106
KPBH 091715Z AUTO 31005KT 10SM OVC025 M10/M15 A3044 RMK AO2 T11021147
KPBI 091703Z 35013KT 7SM BKN008 OVC075 19/18 A3021 RMK AO2 T01940178
KPBX 091715Z AUTO 28006KT 7SM -SN OVC023 M05/M09 A3048 RMK AO2 T10531091
KPCM 091715Z AUTO 01008KT 10SM CLR 13/06 A3033 RMK AO2
KPCW 091709Z AUTO 25010KT 10SM -RA FEW019 OVC043 00/M04 A3039 RMK AO2 $
KPCZ 091715Z AUTO 29007KT 10SM CLR M04/M11 A3048 RMK AO2 T10401112
KPDC 091715Z AUTO 29005KT 10SM CLR M06/M12 A3057 RMK AO2 T10611120
KPDK 091653Z 32008KT 10SM CLR 03/M08 A3046 RMK AO2 SLP331 T00281083
KPDT 091712Z 00000KT 5SM BR FEW016 BKN049 OVC085 M06/M07 A3014 RMK AO2 UPE11 P0000 T10611072
KPDX 091653Z 12015KT 3SM -FZRA BR SCT007 OVC014 00/M02 A3006 RMK AO2 SLP178 P0001 I1002 T00001017
KPEA 091715Z AUTO 28006KT 10SM CLR M07/M12 A3061 RMK AO2 T10701117
KPEO 091653Z AUTO 30008KT 8SM -SN OVC036 M03/M09 A3018 RMK AO2 SLP235 P0000 T10331094
KPEQ 091715Z AUTO 11006KT 10SM OVC023 02/M02 A3049 RMK AO2 T00161017
KPEX 091713Z AUTO 30007KT 3SM -SN OVC017 M12/M15 A3056 RMK AO2 T11241154
KPEZ 091715Z AUTO 02006KT 10SM OVC070 07/M07 A3062 RMK AO2 T00651071
KPGA 091653Z AUTO 00000KT 10SM CLR 02/M12 A3034 RMK AO2 SLP284 T00221117 TSNO
KPGD 091653Z 04014KT 10SM OVC100 15/11 A3028 RMK AO2 SLP255 T01500106
KPGV 091705Z AUTO 35007KT 10SM CLR 05/M07 A3037 RMK AO2
KPHD 091653Z AUTO 27006KT 10SM OVC018 M04/M07 A3043 RMK AO2 SLP317 T10391072
KPHF 091654Z 34013KT 10SM CLR 04/M09 A3033 RMK AO2 SLP272 T00441089
KPHL 091654Z 28017G21KT 10SM BKN045 03/M08 A3022 RMK AO2 SLP234 T00281083
KPHN 091716Z AUTO 29010G14KT 250V310 10SM SCT027 BKN036 OVC065 M01/M07 A3034 RMK AO2
KPHP 091655Z AUTO 07010KT 4SM -SN OVC055 M16/M18 A3045 RMK AO2 SLP368 P0001 T11561183
KPHT 091715Z AUTO 00000KT 10SM SCT026 M03/M09 A3063 RMK
KPHX 091651Z 00000KT 10SM FEW250 13/03 A3026 RMK AO2 SLP239 T01330033 PNO $
KPIA 091654Z 31010KT 10SM SCT026 M03/M10 A3060 RMK AO2 SLP373 T10331100
KPIB 091715Z AUTO 36010G16KT 10SM CLR 06/M09 A3058 RMK AO1
KPIE 091653Z 02011KT 10SM CLR 12/05 A3033 RMK AO2 SLP269 T01220050
KPIH 091653Z 00000KT 1 1/2SM -SN BR OVC026 M05/M07 A3018 RMK AO2 SNB32 SLP265 P0000 T10501067
KPIL 091653Z AUTO 33017G27KT 10SM OVC015 06/01 A3055 RMK AO2 PK WND 32028/1557 SLP346 T00560006
KPIM 091715Z AUTO 34007KT 10SM CLR 05/M07 A3046 RMK AO2 T00541066
KPIR 091718Z AUTO 07010KT 4SM -SN BKN041 OVC060 M16/M19 A3050 RMK AO2 P0000 T11561189
KPIT 091651Z 27009KT 10SM OVC017 M03/M08 A3035 RMK AO2 SLP301 T10331078
KPKB 091653Z 25010KT 10SM SCT028 BKN033 M02/M09 A3049 RMK AO2 SLP336 T10221094
KPKD 091653Z AUTO 26005KT 9SM OVC025 M13/M17 A3049 RMK AO2 SNB39E48 SLP363 P0000 T11331172
KPKV 091715Z AUTO 03012KT 10SM OVC090 07/M01 A3059 RMK AO2 T00721006
KPLN 091654Z AUTO 31006KT 10SM BKN038 OVC060 M03/M10 A3033 RMK AO2 SNE19 SLP283 P0000 T10331100
KPLR 091715Z AUTO 02006G11KT 10SM CLR 04/M09 A3055 RMK A01
KPLU 091715Z AUTO 00000KT 2SM -DZ FEW024 BKN029 OVC033 01/01 A2996 RMK AO2
KPMD 091653Z AUTO 00000KT 10SM BKN065 14/09 A3028 RMK AO2 SLP245 T01440089
KPMP 091653Z 01012KT 10SM BKN085 24/18 A3019 RMK AO2 SLP224 T02390178
KPMU 091715Z AUTO 32004KT 10SM CLR 01/M08 A3067 RMK AO2 T00121077
KPMV 091715Z AUTO 15004KT 10SM OVC080 M09/M13 A3060 RMK AO2 T10861133
KPNA 091715Z AUTO 1 1/2SM -SN SCT009 BKN012 OVC025 M10/M12 A3016 RMK AO2 VIS 1V2 1/2
KPNC 091653Z AUTO 13011KT 10SM OVC060 M04/M11 A3063 RMK AO2 SLP387 T10391111
KPNE 091654Z AUTO 30011G20KT 10SM OVC048 03/M07 A3020 RMK AO2 SLP227 T00331072 TSNO
KPNM 091714Z AUTO 25005KT 7SM -SN OVC028 M09/M12 A3053 RMK AO2
KPNS 091653Z 02011G19KT 10SM CLR 08/M08 A3048 RMK AO2 SLP324 T00831078
KPNT 091715Z AUTO 29009KT 10SM OVC039 M03/M08 A3058 RMK AO2 T10351080
KPOB 091658Z AUTO 01011KT 10SM CLR 05/M08 A3040 RMK AO2 SLP299 T00491083 $
KPOC 091647Z VRB05KT 10SM CLR 10/05 A3029
KPOE 091658Z AUTO 02009KT 330V050 9SM CLR 04/M08 A3060 RMK AO2 SLP367 T00431076
KPOF 091653Z AUTO 00000KT 10SM CLR M02/M10 A3068 RMK AO2 SLP396 T10171100 TSNO
KPOU 091653Z 29015G22KT 10SM OVC060 02/M09 A3006 RMK AO2 SLP177 T00221094
KPOV 091721Z AUTO 25011KT 10SM OVC014 M03/M07 A3034 RMK AO2 T10351067
KPOY 091715Z AUTO 12004KT 10SM CLR M13/M16 A3012 RMK AO2
KPPA 091715Z AUTO 20016G24KT 10SM OVC019 00/M06 A3035 RMK AO2 T00001057
KPPF 091652Z AUTO 17003KT 10SM CLR M03/M11 A3068 RMK AO2 SLP402 T10281111
KPPO 091715Z AUTO 25010KT 4SM -SN OVC032 M04/M08 A3050 RMK AO2 T10431081
KPPQ 091715Z AUTO 00000KT 10SM -SN OVC019 M06/M10 A3062 RMK AO2 T10591099
KPQI 091713Z AUTO 28013G20KT 10SM -SN SCT025 OVC033 M03/M08 A2966 RMK AO2 P0000 FZRANO TSNO
KPQL 091653Z 36011KT 10SM CLR 07/M08 A3052 RMK AO2 SLP336 T00721083
KPQN 091714Z AUTO 33003KT 10SM BKN080 M14/M18 A3052 RMK AO2
KPRB 091653Z AUTO 20004KT 10SM FEW007 16/14 A3026 RMK AO2 SLP244 T01560139 TSNO
KPRC 091653Z 00000KT 10SM CLR 07/01 A3032 RMK AO2 SLP252 T00720006
KPRG 091715Z AUTO 27006KT 10SM OVC031 M03/M09 A3058 RMK AO2 T10351094
KPRN 091656Z AUTO 01011KT 10SM CLR 06/M10 A3050 RMK AO2 SLP329 T00611100
KPRO 091715Z AUTO 00000KT 10SM CLR M09/M12 A3060 RMK AO2 T10951116
KPRS 091715Z AUTO 00000KT 10SM OVC029 05/M01 A3050 RMK AO2 T00471011
KPRX 091715Z 12007KT 10SM OVC070 01/M09 A3066 RMK AO1
KPSC 091702Z 29007KT 3SM -SN BR BKN027 OVC041 M04/M05 A3025 RMK AO2 UPE01SNB01 P0001 T10391050
KPSF 091654Z AUTO 32013G21KT 10SM SCT026 BKN033 OVC041 M03/M10 A2997 RMK AO2 PK WND 28028/1555 SNE34 SLP163 P0000 T10281100
KPSK 091715Z AUTO 34009KT 10SM OVC034 M02/M11 A3038 RMK AO2 T10161110
KPSM 091658Z 29014G24KT 10SM SCT050 01/M13 A2991 RMK AO2A PK WND 30030/11 SLP133 T00071127
KPSN 091715Z AUTO 04004KT 10SM OVC075 03/M06 A3065 RMK AO2 T00351066
KPSO 091715Z AUTO 00000KT 10SM CLR 00/M09 A3034 RMK AO2 LTG DSNT W T00001095
KPSP 091653Z 00000KT 10SM CLR 14/03 A3028 RMK AO2 SLP254 T01390028
KPSX 091653Z AUTO 02012KT 10SM CLR 07/M02 A3059 RMK AO2 SLP357 T00671022
KPTB 091715Z AUTO 28011KT 10SM CLR 04/M12 A3037 RMK AO2 T00351117
KPTK 091653Z 30012G20KT 10SM SCT038 BKN050 BKN070 M02/M09 A3033 RMK AO2 SLP284 T10221089 $
KPTN 091656Z AUTO 03012KT 10SM CLR A3055 RMK AO2 SLPNO FZRANO $
KPTS 091715Z AUTO 11004KT 10SM OVC080 M02/M09 A3065 RMK AO2 T10201088
KPTT 091715Z AUTO 16012G19KT 10SM OVC040 M06/M14 A3049 RMK AO2 T10611139
KPTV 091656Z AUTO 05003KT 10SM CLR 14/13 A3028 RMK AO2 SLP267 T01440128
KPTW 091654Z AUTO 29011G23KT 10SM BKN045 01/M08 A3021 RMK AO2 SLP229 T00111078
KPUB 091653Z 26007KT 10SM CLR M04/M13 A3018 RMK AO2 SLP273 T10441128
KPUC 091653Z AUTO 23003KT 10SM SCT085 BKN120 M02/M12 A3031 RMK AO2 SLP319 T10171117
KPUJ 091715Z AUTO 32009KT 10SM CLR 03/M03 A3048 RMK AO2
KPUW 091653Z AUTO 09012KT 10SM BKN035 OVC042 M04/M07 A3008 RMK AO2 SLP220 T10391067
KPVB 091715Z AUTO 28004KT 10SM CLR M07/M10 A3054 RMK AO1 T10701099
KPVC 091656Z AUTO 29017KT 10SM FEW044 03/M08 A2993 RMK AO2 PK WND 29027/1624 SLP136 T00281078
KPVD 091651Z 30020G27KT 10SM FEW050 02/M11 A2999 RMK AO2 PK WND 32029/1624 SLP154 T00221111
KPVE 091715Z AUTO VRB03KT 10SM CLR M01/M09 A3061 RMK
KPVF 091715Z AUTO 19006KT 1/4SM OVC002 10/10 A3027 RMK AO1
KPVG 091715Z AUTO 34008KT 10SM CLR 04/M08 A3032 RMK AO1
KPVJ 091715Z AUTO 13005KT 10SM SCT060 00/M10 A3062 RMK AO2 T00041105
KPVU 091658Z 00000KT 10SM FEW050 OVC070 02/00 A3026
KPVW 091715Z AUTO 21016G23KT 10SM OVC015 M01/M05 A3037 RMK AO2 T10071050 TSNO
KPWA 091653Z 14009KT 10SM OVC050 M03/M11 A3061 RMK AO2 SLP377 T10281111
KPWC 091713Z AUTO 31003KT 10SM OVC025 M13/M17 A3052 RMK AO2
KPWG 091656Z AUTO VRB05KT 10SM CLR 03/M07 A3064 RMK AO2 SLP395 T00281072
KPWK 091652Z 29006KT 10SM OVC031 M04/M11 A3053 RMK AO2 SNB05E13 SLP349 P0000 T10441106
KPWM 091651Z 31012G21KT 10SM SCT048 00/M12 A2989 RMK AO2 PK WND 29027/1558 SLP124 T00001122
KPWT 091715Z 00000KT OVC003 01/00 A2998 RMK AO1
KPXE 091715Z AUTO 01003KT 10SM 09/M10 A3044 RMK AO2 T00861097
KPYM 091652Z AUTO 29017G22KT 10SM CLR 03/M10 A2994 RMK AO2 SLP139 T00281100
KPYX 091715Z AUTO 18019G23KT 10SM OVC023 00/M06 A3034 RMK AO2 T00031060
KPZQ 091715Z AUTO 35006KT 10SM SCT027 BKN034 BKN040 M04/M09 A3033 RMK AO2 T10401095
KRAC 091653Z AUTO 31008KT 10SM BKN030 BKN035 M04/M12 A3051 RMK AO2 SLP341 T10391117
KRAL 091653Z 03004KT 7SM BKN250 11/07 A3027 RMK AO2 SLP242 T01060067
KRAP 091707Z 01010KT 8SM -SN BKN024 BKN046 OVC055 M17/M19 A3035 RMK AO2 P0000 T11671194
KRAS 091715Z AUTO 01010KT 10SM OVC085 06/M01 A3059 RMK AO2 T00631012
KRBD 091653Z 09005KT 10SM OVC060 02/M10 A3064 RMK AO2 SLP380 T00171100
KRBG 091703Z AUTO 00000KT 5SM BR FEW016 BKN021 OVC036 09/09 A3007 RMK AO2 T00890089
KRBL 091719Z AUTO 00000KT 2SM BR BKN003 BKN014 OVC019 07/07 A3024 RMK AO2 T00720067
KRBO 091715Z AUTO 03007KT 10SM OVC075 07/M01 A3061 RMK AO2 T00661015
KRBW 091715Z AUTO 36005KT 10SM CLR 09/M07 A3042 RMK AO2
KRCA 091713Z 01009KT 10SM -SN SCT008 BKN016 OVC035 M17/M20 A3034 RMK AO2A CIG 007 RWY13
KRCE 091635Z AUTO 16011KT 10SM M03/M12 A3060 RMK AO2
KRCM 091735Z AUTO 00000KT 10SM CLR M06/M11 A3067 RMK AO2
KRCR 091715Z AUTO 31012G15KT 10SM SCT024 00/M06 A3049 RMK AO2
KRCX 091715Z AUTO 23004KT 10SM SCT020 OVC040 M08/M12 A3048 RMK AO2 T10851125
KRCZ 091705Z AUTO 35010KT 10SM CLR 04/M08 A3041 RMK AO2 T00421084
KRDD 091653Z 00000KT 1 1/4SM BR OVC003 07/07 A3022 RMK AO2 SLP232 T00670067
KRDG 091654Z 30017G27KT 10SM BKN044 02/M08 A3020 RMK AO2 PK WND 30032/1639 SLP233 T00171083
KRDK 091715Z AUTO VRB04KT 10SM FEW085 M08/M11 A3062 RMK AO2
KRDM 091656Z 16003KT 10SM FEW045 BKN065 M08/M11 A3002 RMK AO2 SLP209 T10781111
KRDR 091658Z AUTO 31008KT 10SM FEW008 OVC021 M18/M22 A3060 RMK AO2 SLP394 T11781219
KRDU 091651Z 01009KT 10SM CLR 03/M10 A3040 RMK AO2 SLP298 T00331100
KREO 091652Z AUTO 01003KT M02/M06 A3006 RMK AO1 SLP212 T10221056
KRFD 091654Z 27009KT 10SM -SN SCT021 OVC032 M04/M09 A3056 RMK AO2 SLP360 P0000 T10441094
KRFI 091715Z AUTO 03006KT 10SM CLR 04/M08 A3064 RMK AO2 T00391077
KRGA 091715Z AUTO 29004KT 10SM OVC025 M05/M10 A3054 RMK AO2
KRGK 091715Z AUTO 00000KT 4SM -SN OVC013 M09/M13 A3055 RMK AO2
KRHI 091650Z AUTO 32010G16KT 10SM SCT023 BKN060 M08/M13 A3040 RMK AO2 TSNO
KRHP 091705Z AUTO 04009KT 10SM CLR 02/M10 A3040 RMK AO2 T00211100
KRHV 091550Z 15005KT 10SM FEW018 BKN040 15/13 A3026
KRIC 091654Z 32009KT 10SM CLR 04/M11 A3035 RMK AO2 SLP284 T00391106
KRIL 091653Z AUTO 00000KT 10SM FEW065 OVC110 M02/M09 A3033 RMK AO2 SLP304 T10221089
KRIV 091658Z AUTO 00000KT 9SM CLR 09/09 A3026 RMK AO2 SLP249 T00890088 PWINO
KRIW 091653Z AUTO VRB03KT 10SM CLR M11/M17 A3010 RMK AO2 SLP277 T11111167
KRKD 091656Z AUTO 28016G25KT 10SM BKN046 M01/M09 A2981 RMK AO2 PK WND 28030/1631 SLP097 T10061094 FZRANO
KRKP 091653Z AUTO A3061 RMK AO2 SLP368 PWINO FZRANO $
KRKR 091715Z AUTO 00000KT 10SM BKN080 00/M10 A3068 RMK AO2 T10021101
KRKS 091654Z AUTO 26022KT 10SM CLR 00/M03 A3014 RMK AO2 PK WND 26028/1559 SLP259 T00001028
KRLD 091715Z AUTO 30005KT 10SM BKN029 OVC041 M03/M06 A3025 RMK AO2 T10271056
KRME 091653Z 30013KT 10SM OVC050 M04/M09 A3015 RMK AO2 SLP215 T10391089
KRMG 091653Z AUTO 33007KT 10SM CLR 01/M08 A3054 RMK AO2 SLP342 T00111078
KRMN 091715Z AUTO 31012G20KT 10SM CLR 04/M08 A3038 RMK AO2 T00361078
KRMY 091714Z AUTO 27011G15KT 4SM -SN BKN013 OVC018 M02/M05 A3040 RMK AO2 T10241050
KRNC 091715Z AUTO VRB04KT 10SM CLR M01/M08 RMK
KRND 091658Z AUTO 01008KT 10SM SCT075 05/M09 A3061 RMK AO2 SLP371 T00541089
KRNH 091715Z AUTO 22006KT 7SM -SN OVC013 M09/M12 A3052 RMK AO2 T10861118
KRNM 091653Z 00000KT 7SM CLR 10/08 A3027 RMK AO2 SLP249 T01000078
KRNO 091655Z VRB03KT 10SM FEW040 FEW065 SCT150 SCT220 09/03 A3016 RMK AO2 SLP194 MTN TOPS OBSCD DSNT SW-W T00940028
KRNP 091715Z AUTO 27014G18KT 10SM SCT042 SCT049 00/M11 A3036 RMK AO2 T00001106
KRNT 091653Z 16005KT 3SM -RA BR SCT023 BKN027 OVC035 01/M01 A2999 RMK AO2 RAE28B49 SLP160 P0001 T00111006
KRNV 091715Z AUTO 02007KT 10SM CLR 01/M05 A3068 RMK AO2 T00111055
KROA 091654Z 30015KT 10SM FEW040 00/M12 A3041 RMK AO2 SLP307 T00001117
KROC 091654Z 31012G18KT 10SM OVC039 M03/M11 A3022 RMK AO2 SNE00 SLP245 P0000 T10281106
KROG 091658Z 13006KT 10SM CLR M03/M09 A3063 RMK AO2 SLP391 T10281089
KROS 091716Z AUTO 27003KT 10SM SCT015 SCT026 OVC031 M09/M12 A3053 RMK AO2
KROW 091651Z 18005KT 8SM OVC006 M02/M03 A3041 RMK AO2 SLP307 T10171033
KROX 091715Z AUTO 30007KT 10SM OVC022 M16/M20 A3053 RMK AO2
KRPD 091715Z AUTO 25006KT 7SM -SN BKN014 BKN037 OVC044 M08/M12 A3051 RMK AO2 T10831116
KRPH 091715Z AUTO 00000KT 10SM OVC049 01/M08 A3060 RMK AO2 T00051084
KRPJ 091715Z AUTO 29009KT 10SM OVC027 M05/M10 A3055 RMK AO2 T10511105
KRPX 091655Z AUTO 05005KT 10SM M18/M23 A3021
KRQB 091714Z AUTO 30011G17KT 10SM OVC031 M03/M10 A3035 RMK AO2 T10281101
KRQE 091653Z AUTO 00000KT 10SM CLR 02/M04 A3035 RMK AO2 SLP273 T00171044 TSNO
KRRL 091715Z AUTO 31009KT 10SM OVC060 M08/M13 A3044 RMK AO2 T10801133
KRRT 091714Z AUTO 25006KT 10SM OVC024 M16/M20 A3051 RMK AO2
KRSL 091653Z AUTO 16014KT 10SM OVC040 M06/M12 A3046 RMK AO2 SLP349 T10561117 TSNO
KRSN 091715Z AUTO 02006KT 10SM CLR 04/M06 A3068 RMK AO2 T00431065
KRSP 091654Z AUTO 32011G22KT 10SM SCT030 M01/M08 A3020 RMK AO2 PK WND 32026/1603 SLP255 T10111083 $
KRST 091654Z 26006KT 10SM CLR M11/M13 A3053 RMK AO2 SLP366 T11111133 $
KRSV 091715Z AUTO 00000KT 10SM OVC030 M04/M10 A3062 RMK AO2 T10421103
KRSW 091653Z 04012G20KT 10SM OVC090 17/12 A3024 RMK AO2 SLP238 T01670117
KRTN 091653Z AUTO 06008KT 10SM CLR M01/M08 A3020 RMK AO2 SLP257 T10111078
KRTS 091715Z AUTO 24018G26KT 10SM CLR 09/00 A3018 RMK AO2
KRUE 091653Z AUTO 00000KT 10SM CLR M01/M09 A3070 RMK AO2 SLP395 T10061094
KRUG 091715Z AUTO 29006KT 10SM M25/M28 A3056 RMK AO2
KRUQ 091705Z AUTO 30006G14KT 10SM CLR 03/M09 A3041 RMK AO2 T00321093
KRUT 091656Z AUTO 30013G17KT 10SM FEW036 OVC046 M03/M12 A2999 RMK AO2 SLP179 T10331122 FZRANO $
KRVS 091653Z VRB04KT 10SM OVC075 M02/M11 A3068 RMK AO2 SLP402 T10171111
KRWF 091705Z AUTO 30006KT 5SM HZ OVC010 M13/M16 A3059 RMK AO2 T11331161
KRWI 091653Z AUTO 30010KT 10SM CLR 04/M08 A3039 RMK AO2 SLP292 T00441078
KRWL 091653Z AUTO 25016G26KT 10SM BKN018 00/M05 A3010 RMK AO2 PK WND 24030/1600 SLP213 T00001050
KRXE 091653Z AUTO 03005KT 10SM OVC013 M06/M08 A3014 RMK AO2 SLP261 T10561078
KRYN 091645Z 00000KT 10SM CLR 12/01 A3028
KRYT 091653Z AUTO 25011G18KT 230V320 10SM BKN036 00/M09 A3025 RMK AO2 SLP263 T00001089 TSNO $
KRYV 091715Z AUTO 28008KT 10SM SCT023 M05/M10 A3049 RMK AO2 T10541103
KRYW 091715Z AUTO 07005KT 10SM OVC070 03/M08 A3060 RMK AO2 T00301079
KRYY 091547Z 35006KT 10SM SKC M01/M09 3049
KRZL 091715Z AUTO 27009KT 10SM M02/M06 A3052 RMK AO2
KRZN 091715Z AUTO 31004KT 4SM -SN BKN018 OVC028 M09/M12 A3051 RMK AO2 T10901120
KRZR 091715Z AUTO VRB05G11KT 10SM CLR 01/M08 A3052 RMK A01
KRZT 091714Z AUTO 26008KT 10SM BKN025 M03/M10 A3050 RMK AO2
KS25 091715Z AUTO 00000KT 10SM CLR M25/M28 A3057 RMK AO2
KS32 091715Z AUTO 30009KT 10SM CLR M21/M23 A3055 RMK AO2
KS39 091715Z AUTO 00000KT 10SM FEW055 FEW070 M08/M09 A3002 RMK AO2
KSAA 091715Z AUTO 22014G18KT 10SM SCT080 00/M05 A3015 RMK AO2
KSAC 091655Z 28003KT 2SM BR BKN004 09/09 A3026 RMK AO2 T00890089 $
KSAD 091651Z AUTO 14010KT 10SM CLR 07/M01 A3038 RMK AO2 SLP277 T00721011
KSAF 091653Z 26011KT 10SM BKN010 01/M04 A3036 RMK AO2 SLP296 T00111039
KSAN 091651Z 00000KT 10SM SCT015 BKN200 BKN250 14/09 A3029 RMK AO2 SLP257 T01390094
KSAR 091715Z AUTO 32003KT 10SM SCT025 M03/M10 A3065 RMK AO2 T10341104
KSAT 091651Z 02006KT 10SM BKN070 05/M07 A3062 RMK AO2 SLP363 T00501072
KSAV 091653Z 34005KT 10SM FEW250 10/M07 A3041 RMK AO2 SLP296 T01001072
KSAW 091650Z 31009KT 10SM SCT041 SCT075 M06/M10 A3034
KSAZ 091714Z AUTO 28004KT 10SM OVC022 M13/M17 A3051 RMK AO2
KSBA 091653Z 00000KT 1SM BR OVC004 14/14 A3026 RMK AO2 SLP248 T01440144 RVRNO
KSBD 091646Z 00000KT 5SM HZ SCT100 10/04 A3027
KSBM 091653Z AUTO 29014KT 10SM FEW035 M04/M12 A3046 RMK AO2 SLP327 T10441122
KSBN 091717Z 27012KT 7SM -SN SCT037 OVC049 M04/M06 A3048 RMK AO2 P0000 T10391061
KSBO 091715Z AUTO 00000KT 10SM CLR 08/M07 A3043 RMK AO2
KSBP 091656Z 21003KT 10SM SCT021 BKN031 17/15 A3027 RMK AO2 SLP248 T01670150
KSBS 091715Z AUTO 00000KT 10SM OVC028 M06/M08 A3024 RMK AO1 T10601077
KSBY 091654Z 29010G20KT 10SM CLR 03/M07 A3027 RMK AO2 SLP254 T00281072
KSCD 091715Z AUTO 36005KT 10SM CLR 04/M06 A3054 RMK AO2 T00411061
KSCF 091715Z AUTO 04019KT 10SM CLR 07/M02 A3052 RMK A01
KSCH 091545Z 31012G24KT 10SM SCT038 00/M09 A3006
KSCK 091655Z 13007KT 1 3/4SM BR OVC002 12/12 A3024 RMK AO2 SLP238 T01220122
KSCR 091705Z AUTO 34005KT 10SM CLR 03/M08 A3040 RMK AO2 T00321085
KSDA 091715Z AUTO 18004KT 10SM BKN085 OVC120 M08/M11 A3063 RMK AO2
KSDB 091711Z AUTO VRB05KT 8SM BKN004 BKN009 OVC026 11/09 A3033 RMK AO2 T01110094
KSDF 091656Z 29005KT 9SM -SN OVC027 M03/M11 A3060 RMK AO2 SLP368 P0000 T10331111
KSDL 091653Z 00000KT 10SM CLR 14/04 A3027 RMK AO2 SLP241 T01390039
KSDM 091653Z 13003KT 5SM HZ CLR 14/09 A3027 RMK AO2 SLP250 T01440089
KSDY 091656Z AUTO 00000KT 7SM SCT014 M21/M24 A3060 RMK AO2 SNB1557E16 SLP438 P0000 T12111239 FZRANO
KSEA 091653Z 11015G20KT 5SM -RA BR BKN022 OVC030 01/M01 A2997 RMK AO2 SLP158 P0000 T00061011
KSEE 091647Z 00000KT 10SM SKC 11/09 A3028
KSEG 091653Z AUTO 28010G20KT 10SM BKN048 OVC055 01/M07 A3023 RMK AO2 SLP242 T00111072
KSEM 091715Z AUTO 35007G12KT 10SM CLR 06/M10 A3054 RMK AO2
KSEP 091715Z AUTO 00000KT 10SM OVC050 01/M09 A3063 RMK AO2 T00061093
KSET 091654Z AUTO 30006KT 10SM SCT025 M04/M11 A3064 RMK AO2 SLP382 T10391106
KSEZ 091715Z AUTO 22003KT 10SM CLR 08/00 A3033 RMK AO2
KSFB 091653Z 36012G20KT 10SM CLR 13/06 A3032 RMK AO2 SLP266 T01330061
KSFF 091653Z 00000KT 8SM -SN BKN021 OVC024 M07/M10 A3017 RMK AO2 SNE1559B37 SLP243 P0000 T10671100
KSFM 091656Z AUTO 30013G28KT 10SM CLR M01/M11 A2991 RMK AO2 PK WND 27033/1631 SLP140 T10111106 FZRANO $
KSFO 091656Z 30004KT 4SM HZ SCT009 OVC015 15/12 A3024 RMK AO2 RAB01E56 SLP240 P0002 T01500122 $
KSFQ 091715Z AUTO 29011G14KT 10SM CLR 05/M08 A3035 RMK AO2 T00451080
KSFY 091715Z AUTO 29007KT 10SM CLR M04/M10 A3057 RMK AO2 T10451102
KSFZ 091656Z AUTO 28014G22KT 10SM SCT050 01/M11 A2996 RMK AO2 PK WND 30026/1625 SLP166 T00111106 FZRANO
KSGF 091652Z 03003KT 10SM CLR M03/M12 A3063 RMK AO2 SLP392 T10331117
KSGH 091656Z AUTO 25014G17KT 10SM BKN019 M04/M08 A3048 RMK AO2 SLP339 T10391083
KSGJ 091658Z 36015KT 10SM CLR 13/06 A3037 RMK AO2 SLP284 T01280056
KSGR 091653Z 05007KT 10SM CLR 07/M04 A3060 RMK AO2 SLP363 T00671044
KSGS 091710Z AUTO 22006KT 7SM SCT015 M08/M12 A3055 RMK AO2 T10771119
KSGT 091715Z AUTO 02003KT 10SM CLR M01/M10 A3071 RMK AO1
KSGU 091715Z 00000KT 10SM CLR 03/M08 A3037 RMK AO1
KSHD 091715Z AUTO 32008G15KT 10SM CLR 01/M11 A3035 RMK AO2 T00091112
KSHL 091715Z AUTO 29005KT 10SM FEW006 BKN080 M12/M14 A3055 RMK AO2
KSHN 091716Z AUTO 33003KT 2 1/2SM RA BR SCT005 BKN010 OVC027 01/00 A2995 RMK AO2 P0005 T00110000
KSHR 091653Z AUTO 00000KT 10SM OVC090 M14/M18 A3026 RMK AO2 SLP337 T11391183
KSHV 091656Z 02008KT 10SM CLR 04/M08 A3065 RMK AO2 SLP380 T00391078
KSIF 091705Z AUTO 34007G14KT 10SM CLR 02/M10 A3041 RMK AO2 T00201102
KSIK 091715Z AUTO 00000KT 10SM CLR M01/M08 A3067 RMK AO2
KSIY 091653Z AUTO 28003KT 10SM OVC060 08/04 A3008 RMK AO2 SLP200 T00830039
KSJC 091653Z 12007KT 10SM FEW004 SCT026 BKN042 16/12 A3024 RMK AO2 SLP240 T01560122
KSJN 091654Z AUTO 07003KT 10SM CLR 04/M03 A3035 RMK AO2 SLP267 T00441033 TSNO
KSJS 091715Z AUTO 26006KT 10SM -SN OVC024 M04/M09 A3050 RMK AO2 T10451091
KSJT 091651Z 15005KT 10SM OVC047 03/M07 A3056 RMK AO2 SLP362 T00281067
KSJX 091715Z AUTO 34006KT 10SM SCT023 BKN032 BKN120 M03/M08 A3034 RMK AO2 T10331079
KSKA 091659Z AUTO 06009KT 10SM OVC015 M09/M11 A3010 RMK AO2 SNE58
KSKF 091658Z AUTO 02008KT 10SM OVC070 05/M08 A3059 RMK AO2 SLP363 T00491077 $
KSKX 091715Z AUTO 32004KT 10SM CLR M01/M09 A3034 RMK AO1
KSLB 091715Z AUTO 28008KT 10SM CLR M12/M14 A3056 RMK AO2
KSLC 091654Z 29008KT 10SM BKN080 OVC100 01/M02 A3021 RMK AO2 SLP246 ACSL DSNT E SH DSNT SE T00061017
KSLE 091656Z 32004KT 1 3/4SM BR OVC004 02/00 A3004 RMK AO2 RAB40E51UPB51E53 SLP175 P0001 T00170000
KSLG 091715Z AUTO 09003KT 10SM CLR M02/M10 A3063 RMK AO1
KSLH 091713Z AUTO 35007KT 10SM OVC050 M02/M09 A3032 RMK AO2 T10281092
KSLI 091658Z 00000KT 5SM HZ BKN024 OVC250 13/10 A3027 RMK AO2A SLP253 T01280099
KSLK 091717Z AUTO 29010G17KT 250V320 3SM -SN BKN022 BKN030 OVC038 M08/M13 A2995 RMK AO2 SNB1654 P0000 T10781133
KSLN 091653Z 15014KT 10SM OVC050 M04/M10 A3057 RMK AO2 SLP373 T10391100
KSLO 091715Z AUTO 31005KT 10SM BKN028 M02/M10 A3061 RMK AO2 T10251102
KSLR 091715Z AUTO 12006KT 10SM BKN080 02/M09 A3067 RMK AO2 T00171090
KSME 091715Z AUTO 27003KT 10SM OVC029 M03/M10 A3057 RMK AO2
KSMF 091702Z 32003KT 2SM BR OVC002 07/07 A3025 RMK AO2 T00720072
KSMN 091715Z AUTO 00000KT 9SM FEW095 M10/M12 A3016 RMK AO1
KSMO 091651Z 00000KT 10SM CLR 14/11 A3027 RMK AO2 SLP250 T01390106
KSMP 091656Z AUTO 07007KT 030V110 1/4SM SN FZFG VV007 M12/M12 A2993 RMK AO2 SLP195 P0000 T11171122 $
KSMQ 091653Z AUTO 32013G21KT 10SM BKN050 BKN065 03/M09 A3013 RMK AO2 PK WND 32027/1603 SLP204 T00331089
KSMS 091715Z AUTO 02004G13KT CLR 06/M07 A3043 RMK AO2
KSMX 091651Z 09003KT 10SM BKN019 16/16 A3028 RMK AO2 SLP255 T01560156
KSNA 091653Z 00000KT 10SM FEW040 FEW250 OVC280 14/10 A3028 RMK AO2 SLP253 T01390100
KSNC 091715Z AUTO 33006G15KT 10SM FEW038 BKN048 02/M10 A3001 RMK AO2
KSNH 091715Z AUTO 36008KT 10SM CLR M00/M07 A3062 RMK A01
KSNK 091715Z AUTO 20006KT 10SM OVC034 M01/M06 A3054 RMK AO2 T10111059
KSNL 091715Z AUTO 14007KT 10SM OVC065 M02/M10 A3062 RMK AO2 T10251104
KSNS 091653Z 11003KT 10SM BKN031 14/13 A3026 RMK AO2 SLP256 T01390128
KSNT 091651Z AUTO 00000KT M04/M06 A3004 RMK AO1 SLP203 P0009 T10441061
KSNY 091653Z AUTO 22007KT 10SM CLR M08/M13 A3015 RMK AO2 SLP277 T10831133
KSOA 091715Z AUTO 18004KT 10SM OVC045 02/M07 A3058 RMK AO2
KSOP 091656Z AUTO 02008KT 10SM CLR 04/M08 A3040 RMK AO2 SLP313 T00391083
KSOW 091715Z AUTO 20010KT 10SM CLR 09/M04 A3036 RMK AO2
KSPA 091715Z AUTO 02003KT 10SM CLR 03/M11 A3041 RMK AO2
KSPB 091702Z AUTO 17004KT 4SM -FZRA BR OVC006 00/M01 A3007 RMK AO2 FZRAB1656 CIG 004V008 P0001 I1001 T00001011 TSNO
KSPD 091656Z AUTO 00000KT M01/M07 A3019 RMK AO1 SLP245 T10061067 $
KSPF 091715Z AUTO 00000KT 10SM SCT008 M20/M22 A3029 RMK AO2
KSPG 091653Z 02011KT 10SM CLR 13/08 A3031 RMK AO2 SLP264 T01280083 $
KSPI 091652Z 30008KT 10SM OVC024 M04/M10 A3062 RMK AO2 SLP378 T10441100
KSPL 091715Z AUTO 34016G27KT 6SM 07/05 A3052 RMK AO1
KSPR 091715Z AUTO 06024G29KT 10SM FEW023 BKN110 11/04 A3047 RMK A01
KSPS 091652Z 16010KT 10SM OVC050 01/M09 A3061 RMK AO2 SLP376 T00061094
KSPW 091653Z AUTO 25007KT 10SM CLR M12/M14 A3057 RMK AO2 SLP385 T11171139
KSQE 091715Z AUTO 05029G36KT 9SM BKN026 BKN100 14/07 A3043 RMK A01
KSQI 091656Z AUTO 30007KT 10SM CLR M05/M08 A3058 RMK AO2 SNE1559B19E28 SLP381 P0000 T10501083 FZRANO
KSQL 091547Z 00000KT 10SM FEW007 OVC026 13/13 A3023
KSRC 091656Z AUTO 08005KT 10SM CLR M01/M08 A3073 RMK AO2 SLP413 T10061083 FZRANO
KSRQ 091653Z 05010KT 10SM FEW120 12/07 A3028 RMK AO2 SLP254 T01220067
KSRR 091715Z AUTO 05004KT 10SM CLR 04/M03 A3036 RMK AO2
KSSC 091658Z AUTO 01006KT 10SM CLR 06/M09 A3041 RMK AO2 SLP301 T00621087 $
KSSF 091653Z 05008KT 10SM OVC070 06/M07 A3061 RMK AO2 SLP371 T00611072
KSSI 091653Z AUTO 35009KT 10SM CLR 11/M04 A3039 RMK AO2 SLP291 T01111044
KSTC 091653Z 29004KT 10SM OVC024 M11/M14 A3054 RMK AO2 SLP374 T11111139
KSTE 091715Z AUTO 28009G14KT 260V330 10SM CLR M08/M14 A3047 RMK AO2 T10801139
KSTF 091715Z AUTO 01006KT 10SM CLR 02/M06 A3064 RMK AO2
KSTJ 091653Z 16004KT 10SM OVC090 M07/M11 A3066 RMK AO2 SLP398 T10721111 $
KSTK 091710Z AUTO 00000KT 10SM CLR M07/M12 A3017 RMK AO2
KSTL 091651Z 34008KT 10SM FEW023 FEW250 M03/M11 A3064 RMK AO2 SLP389 T10281111
KSTP 091653Z 19004KT 9SM OVC015 M08/M12 A3057 RMK AO2 SLP364 T10831117
KSTS 091653Z 17004KT 1SM BR OVC003 13/13 A3022 RMK AO2 RAB08E19 SLP226 P0001 T01280128
KSUA 091647Z 34010G16KT 5SM -RA BKN008 BKN025 19/17 A3027
KSUE 091656Z AUTO 30010KT 10SM FEW031 OVC055 M04/M11 A3043 RMK AO2 SLP327 T10391111 FZRANO
KSUN 091647Z 00000KT 10SM BKN018 OVC040 M05/M06 A3012
KSUS 091654Z 29006KT 10SM FEW200 M03/M11 A3064 RMK AO2 SLP389 T10331106
KSUT 091705Z AUTO 33005KT 10SM CLR 06/M07 A3036 RMK AO2 T00621069
KSUU 091658Z AUTO 03002KT 9SM OVC004 08/08 A3024 RMK AO2 SLP247 T00810076 $
KSUW 091715Z AUTO 29009KT 10SM OVC032 M09/M16 A3053 RMK AO2 T10931161
KSUX 091652Z 00000KT 10SM OVC070 M10/M16 A3062 RMK AO2 SLP392 T11001156 PNO $
KSVC 091715Z AUTO 14004KT 10SM CLR 05/00 A3039 RMK AO2 T00481003
KSVH 091705Z AUTO 32007G14KT 10SM CLR 04/M09 A3039 RMK AO2 T00411090
KSVN 091658Z AUTO VRB06KT 10SM CLR 10/M02 A3037 RMK AO2 SLP287 T01031023
KSWF 091645Z 30016G26KT 20SM -SNSH BKN035 01/M06 A3008
KSWO 091653Z 13008KT 10SM OVC060 M04/M09 A3064 RMK AO2 SLP388 T10391094
KSWW 091715Z AUTO 14004KT 10SM OVC037 00/M06 A3055 RMK AO2 T00001059
KSXT 091718Z AUTO 18006G17KT M1/4SM FG VV001 04/04 A3003 RMK AO2 P0001 T00390039
KSYF 091715Z AUTO 19015G22KT 10SM CLR M04/M09 A3023 RMK AO2 T10411093
KSYI 091715Z AUTO VRB04KT 10SM CLR M01/M08 A3058 RMK
KSYM 091710Z AUTO 30004KT 10SM OVC024 M05/M11 A3055 RMK AO2
KSYN 091713Z AUTO 24005KT 10SM CLR M10/M14 A3055 RMK AO2 T11021136
KSYR 091654Z 31010KT 10SM BKN043 OVC070 M03/M10 A3017 RMK AO2 SLP217 T10331100
KSZL 091658Z 00000KT 10SM BKN120 M07/M11 A3067 RMK AO2A SLP402 T10691105
KSZT 091715Z AUTO 03015G19KT 10SM OVC039 M08/M15 A3022 RMK AO2
KT20 091715Z AUTO 02008KT 10SM CLR 08/M06 A3061 RMK AO2 T00751057
KT35 091715Z AUTO 00000KT 10SM OVC080 04/M06 A3064 RMK AO2 T00351065
KT65 091715Z AUTO 33013KT 10SM SCT024 BKN033 OVC039 06/M01 A3058 RMK AO2 T00591012
KT70 091658Z AUTO VRB03KT 10SM OVC055 05/M03 A3055 RMK AO2 SLP349 T00481032 $
KT82 091715Z AUTO 12004KT 10SM OVC060 01/M09 A3058 RMK AO2 T00141095
KTAD 091654Z AUTO 26008KT 10SM CLR 07/M07 A3017 RMK AO2 SLP237 T00671067
KTAN 091652Z AUTO 30010G23KT 10SM CLR 03/M11 A2995 RMK AO2 SLP143 T00281106
KTAZ 091715Z AUTO 00000KT 10SM -SN OVC023 M05/M10 A3060 RMK AO2 T10501100
KTBN 091658Z AUTO VRB03KT 10SM CLR M05/M12 A3062 RMK AO2 SLP390 T10461120
KTBR 091715Z AUTO 36004G08KT 10SM CLR 09/M05 A3042 RMK AO2 T00921048
KTBX 091715Z AUTO 21013KT CLR M08/M13 A3007 RMK AO2 PWINO
KTCC 091653Z AUTO 23011KT 10SM CLR 04/M03 A3025 RMK AO2 SLP254 T00391028
KTCL 091653Z 35010KT 10SM CLR 03/M08 A3060 RMK AO2 SLP363 T00331083
KTCM 091718Z AUTO 32002KT 5SM -RA BR BKN019 OVC029 00/00 A2997 RMK AO2 $
KTCS 091653Z AUTO 00000KT 10SM CLR 02/M03 A3041 RMK AO2 SLP294 T00221033
KTDF 091705Z AUTO 30006G15KT 10SM CLR 01/M10 A3042 RMK AO2
KTDR 091656Z AUTO 36012KT 10SM CLR 11/M05 A3044 RMK AO2 SLP312 T01081055 $
KTDZ 091653Z AUTO 27008KT 10SM SCT016 SCT023 OVC080 M01/M04 A3042 RMK AO2 SLP309 T10061044
KTEB 091651Z 31013G21KT 10SM SCT060 04/M08 A3009 RMK AO2 SLP191 T00391078
KTEW 091713Z AUTO 30009G16KT 10SM BKN032 BKN070 M02/M07 A3038 RMK AO2 T10211070
KTEX 091715Z AUTO 14003KT 10SM OVC060 00/M03 A3036 RMK AO2 T00001035
KTFP 091715Z AUTO 02012KT 10SM OVC080 07/M02 A3059 RMK AO2 T00741020
KTGI 091716Z AUTO 30018G24KT 10SM CLR 04/M04 A3030 RMK AO1
KTHA 091715Z AUTO VRB04KT 10SM FEW028 M02/M10 A3055 RMK
KTHV 091653Z AUTO 28015G20KT 10SM CLR 02/M07 A3025 RMK AO2 PK WND 29028/1613 SLP251 T00171072
KTIF 091715Z AUTO 16012KT 10SM OVC035 M07/M14 A3031 RMK AO2 T10661144
KTIK 091658Z AUTO 11005KT 10SM OVC055 M03/M11 A3059 RMK AO2 SLP381 T10301115 $
KTIP 091715Z AUTO 29008KT 7SM -SN OVC027 M03/M08 A3056 RMK AO2 T10271085
KTIW 091653Z 26004KT 6SM -RA BR OVC008 02/01 A2998 RMK AO2 UPB11E16RAB16 CIG 005V012 SLP157 P0001 I1000 T00170011
KTIX 091647Z 34014KT 7SM OVC120 14/08 A3030
KTKC 091713Z AUTO 33005KT 10SM BKN080 M12/M15 A3057 RMK AO2 T11211152
KTKI 091653Z 09004KT 10SM OVC065 00/M09 A3065 RMK AO2 SLP399 T00001089
KTKV 091715Z AUTO 29006KT 10SM -SN SCT021 OVC060 M09/M13 A3043 RMK AO2 T10901132
KTKX 091715Z AUTO VRB04KT 10SM CLR M01/M09 A3067 RMK AO2
KTLH 091653Z 35012KT 10SM FEW250 11/M08 A3042 RMK AO2 SLP301 T01061078
KTMA 091715Z AUTO 36004KT 10SM CLR 08/M06 A3042 RMK AO2 T00751065
KTMB 091653Z 01012KT 8SM FEW070 SCT090 23/17 A3018 RMK AO2 SLP220 T02280172
KTME 091715Z AUTO 03010KT 05/M05 A3061 RMK AO2
KTMK 091715Z AUTO 00000KT 10SM -DZ BKN030 BKN035 OVC042 06/05 A3001 RMK AO2
KTNB 091715Z AUTO 29015G20KT 10SM CLR M05/M11 A3029 RMK AO2 T10481115
KTNU 091715Z AUTO 31004KT 10SM CLR M08/M12 A3058 RMK AO2 PWINO
KTOA 091655Z 00000KT 7SM FEW015 SCT020 BKN090 13/10 A3027
KTOB 091713Z AUTO 25006KT 5SM -SN BKN006 M11/M13 A3052 RMK AO2
KTOC 091715Z AUTO 27005KT 10SM CLR 09/M09 A3039 RMK AO2 T00861087
KTOI 091653Z AUTO 35009KT 10SM CLR 06/M07 A3050 RMK AO2 SLP330 T00611072
KTOL 091713Z 25013KT 10SM BKN018 BKN024 OVC036 M01/M04 A3041 RMK AO2 T10111044
KTOP 091653Z 16004KT 10SM CLR M06/M11 A3066 RMK AO2 SLP396 T10561106
KTOR 091653Z AUTO 33004KT 10SM CLR M09/M14 A3017 RMK AO2 SLP286 T10891144
KTPA 091653Z 01008KT 10SM SCT100 BKN150 12/04 A3034 RMK AO2 SLP274 T01220044
KTPF 091715Z AUTO 03010KT 10SM CLR 13/07 A3032 RMK AO2
KTPH 091656Z AUTO 01006KT 10SM CLR 01/M08 A3028 RMK AO2 SLP271 T00111078
KTPL 091651Z AUTO 06006KT 10SM OVC070 03/M07 A3064 RMK AO2 SLP395 T00281072
KTQE 091654Z AUTO 00000KT 10SM BKN100 M12/M15 A3062 RMK AO2 SLP386 T11171150
KTQH 091715Z AUTO 00000KT 10SM SCT080 00/M08 A3066 RMK AO2
KTRI 091653Z 30006KT 10SM BKN033 M02/M11 A3047 RMK AO2 SLP322 T10221106
KTRK 091545Z 17011G16KT 10SM BKN032 06/01 A3020 RMK NOSPECI
KTRL 091653Z AUTO 07008KT 9SM OVC065 02/M10 A3067 RMK AO2 SNE50 SLP387 P0000 T00171100
KTRM 091652Z AUTO 00000KT 10SM CLR 13/02 A3026 RMK AO2 SLP244 T01330022
KTSP 091715Z AUTO 30010KT 7SM OVC008 10/10 A3032 RMK AO2
KTTA 091705Z AUTO 31010G14KT 10SM CLR 04/M10 A3041 RMK AO2 T00351099
KTTD 091712Z 08014G29KT 8SM OVC017 M01/M02 A3007 RMK AO2 PK WND 09029/1703 FZRAE06 P0000 I1001 T10061022
KTTF 091711Z AUTO 28011G21KT 10SM BKN028 OVC080 00/M05 A3038 RMK AO2 T00021052
KTTN 091653Z 30018G27KT 10SM BKN042 03/M08 A3016 RMK AO2 PK WND 30027/1651 SLP208 T00331083
KTTS 091708Z AUTO 01012G22KT 10SM SCT028 BKN140 BKN190 16/10 A3027 RMK AO2
KTUL 091653Z 11005KT 10SM OVC070 M02/M10 A3068 RMK AO2 SLP396 T10221100
KTUP 091653Z 33007KT 10SM CLR 01/M09 A3063 RMK AO2 SLP373 T00061089
KTUS 091653Z 00000KT 10SM CLR 12/01 A3028 RMK AO2 SLP238 T01170006
KTVC 091653Z COR 35004KT 3SM -SN SCT019 BKN030 BKN060 M02/M06 A3034 RMK AO2 SLPNO P0004 T10221061 $
KTVF 091656Z AUTO 31005KT 8SM -SN OVC027 M14/M17 A3055 RMK AO2 SLP379 P0000 T11391167 FZRANO
KTVI 091715Z AUTO 05009KT 10SM CLR 11/M05 A3043 RMK AO2
KTVK 091715Z AUTO 00000KT 10SM CLR M07/M11 A3062 RMK AO2
KTVL 091653Z AUTO 18014G22KT 10SM BKN028 OVC040 07/02 A3022 RMK AO2 SLP210 T00670017
KTVR 091653Z AUTO 04011KT 10SM CLR 04/M07 A3065 RMK AO2 SLP388 T00391067
KTWF 091653Z 05007KT 8SM UP BKN046 BKN060 OVC080 00/M02 A3013 RMK AO2 UPB49 SLP220 P0000 I1002 T00001017
KTWM 091714Z AUTO 26010KT 10SM SCT027 M09/M16 A3044 RMK AO2
KTXK 091653Z 04006KT 10SM OVC080 01/M08 A3068 RMK AO2 SLP392 T00061078
KTYQ 091715Z AUTO 27009G14KT 10SM OVC018 M05/M08 A3052 RMK AO2 T10461080
KTYR 091653Z 07005KT 10SM CLR 02/M09 A3064 RMK AO2 SLP380 T00221089
KTYS 091653Z 04006KT 10SM BKN032 00/M09 A3052 RMK AO2 SLP344 T00001089
KTZR 091650Z 27009KT 10SM SCT055 OVC065 M03/M08 A3048
KU68 091715Z AUTO 00000KT 10SM CLR M12/M17 A3024 RMK AO2
KUAO 091711Z 00000KT 1 1/2SM BR OVC003 01/01 A3006 RMK AO2 T00110011
KUBE 091715Z AUTO 27004KT 10SM -SN BKN013 BKN027 OVC040 M08/M12 A3048 RMK AO2
KUCP 091656Z AUTO 25012KT 10SM OVC018 M03/M07 A3034 RMK AO2 SLP307 T10331072 FZRANO $
KUCY 091715Z AUTO 00000KT 10SM CLR M03/M09 A3064 RMK
KUDG 091656Z AUTO 33008KT 10SM CLR 06/M07 A3042 RMK AO2 SLP310 T00561067
KUES 091700Z 30011G16KT 10SM OVC024 M06/M11 A3050
KUGN 091655Z 31007KT 10SM OVC032 M04/M11 A3050 RMK AO2 SLP345 T10391111
KUIL 091704Z AUTO 07004KT 10SM -RA BKN025 BKN037 03/M01 A2989 RMK AO2 P0001 T00281006
KUIN 091654Z AUTO 31006KT 10SM OVC018 M07/M11 A3063 RMK AO2 SLP383 T10671106
KUKF 091705Z AUTO 29007G14KT 10SM CLR 01/M10 A3043 RMK AO2
KUKI 091656Z AUTO 00000KT 8SM OVC007 10/09 A3022 RMK AO2 CIG 002V008 SLP230 P0001 T01000094
KUKT 091715Z AUTO 29012G21KT 10SM BKN042 BKN049 02/M08 A3017 RMK AO1
KULM 091714Z AUTO 31006KT 10SM -SN CLR M13/M16 A3058 RMK AO2
KUNI 091715Z AUTO 24008KT 10SM SCT028 BKN050 M02/M09 A3049 RMK AO2 T10221089
KUNO 091653Z AUTO 00000KT 10SM CLR M03/M12 A3064 RMK AO2 SLP391 T10331117
KUNU 091715Z AUTO 30006KT 10SM CLR M06/M11 A3049 RMK AO2 T10651111
KUNV 091709Z COR 29012G19KT 7SM -SN BKN027 OVC033 M02/M07 A3022
KUOX 091715Z AUTO 35004KT 10SM CLR 00/M10 A3065 RMK AO2
KUSE 091715Z AUTO 27009KT 1SM -SN BKN013 BKN038 M02/M03 A3042 RMK AO2
KUTA 091715Z AUTO 35007KT 10SM CLR 00/M07 A3070 RMK AO2 TSNO
KUTS 091653Z AUTO VRB03KT 10SM OVC085 04/M07 A3061 RMK AO2 SLP367 T00391072
KUUU 091653Z AUTO 31016G23KT 10SM CLR 03/M09 A2997 RMK AO2 SLP148 T00281089
KUVA 091715Z AUTO 00000KT 10SM OVC060 04/M06 A3062 RMK AO2 T00391056
KUXL 091715Z AUTO 36009G15KT 10SM CLR 08/M05 A3058 RMK AO2 T00771048
KUYF 091715Z AUTO 10SM SCT019 SCT028 OVC060 M02/M06 A3045 RMK AO2
KUZA 091654Z AUTO 35008KT 10SM CLR 05/M09 A3043 RMK AO2 SLP312 T00501094
KVAD 091658Z AUTO VRB06KT 10SM CLR 10/M06 A3040 RMK AO2 SLP298 T00971061 $
KVAF 091715Z AUTO 06023G32KT 8SM OVC034 15/08 A3044 RMK A01
KVAY 091654Z AUTO 31010G22KT 10SM SCT048 02/M09 A3019 RMK AO2 PK WND 31026/1620 SLP224 T00221089 TSNO
KVBG 091655Z 12004KT 3SM BR SCT002 BKN005 OVC010 15/15 A3028 RMK AO2A VIS 2 RWY30 CIG 002V007 SLP259 T01480148
KVBS 091715Z AUTO 10023KT 10SM CLR 06/M01 A3053 RMK A01
KVBT 091715Z AUTO 17006KT 10SM CLR M02/M12 A3063 RMK AO1
KVBW 091715Z AUTO 29008KT 10SM SCT050 00/M12 A3032 RMK AO2 T00031116
KVCB 091653Z AUTO 00000KT 7SM OVC004 08/08 A3026 RMK AO2 SLP247 T00830083 $
KVCT 091651Z 03011KT 10SM SCT100 08/M05 A3060 RMK AO2 SLP362 T00781050
KVCV 091715Z AUTO 26007KT 10SM SCT090 SCT110 14/07 A3028 RMK AO2
KVDF 091715Z AUTO 01005KT 10SM CLR 13/06 A3033 RMK AO2
KVDI 091715Z AUTO 36003KT 10SM CLR 09/M02 A3042 RMK AO2
KVEL 091653Z AUTO 00000KT 10SM CLR M04/M11 A3030 RMK AO2 SLP305 T10441106
KVES 091715Z AUTO 27015G18KT 10SM M03/M06 A3048 RMK AO2
KVGT 091653Z AUTO 00000KT 10SM BKN048 08/M10 A3030 RMK AO2 SLP287 T00781100
KVIH 091653Z AUTO VRB04KT 10SM CLR M05/M11 A3061 RMK AO2 SLP385 T10501106
KVIS 091656Z AUTO 19006KT 10SM FEW036 16/14 A3027 RMK AO2 SLP258 T01560139
KVJI 091715Z AUTO 29006KT 10SM SCT023 OVC029 M03/M11 A3041 RMK AO2 T10301109
KVKS 091715Z AUTO 35007G14KT 10SM CLR 05/M07 A3063 RMK A01
KVKY 091715Z AUTO 06020G27KT 10SM CLR 10/02 A3046 RMK A01
KVLD 091653Z 02010KT 10SM CLR 10/M07 A3042 RMK AO2 SLP309 T01001067
KVLL 091714Z AUTO 28010G20KT 10SM SCT043 BKN050 BKN060 00/M11 A3037 RMK AO2 T10021108
KVNC 091715Z AUTO 03014KT 10SM BKN049 14/10 A3028 RMK AO2 TSNO
KVNY 091651Z 00000KT 10SM CLR 14/11 A3026 RMK AO2 SLP243 T01390106
KVOA 091715Z AUTO 03022G28KT 9SM FEW025 11/03 A3042 RMK A01
KVOK 091658Z 30007KT 10SM FEW060 M06/M13 A3052 RMK AO2A SLP354
KVPC 091653Z AUTO 33006KT 10SM CLR 02/M08 A3052 RMK AO2 SLP336 T00221078
KVPS 091655Z 03014KT 10SM FEW250 09/M09 A3046 RMK AO2A SLP322 T00871093 $
KVPZ 091656Z AUTO 10SM FEW027 OVC041 M02/M09 A3052 RMK AO2 SLP346 T10221089 $
KVQQ 091650Z 34008KT 10SM CLR 12/M03 A3038
KVQT 091615Z AUTO 06018G26KT 10SM FEW028 12/05 A3048 RMK A01
KVRB 091653Z 35011KT 10SM FEW012 17/14 A3026 RMK AO2 SLP246 T01720144
KVSF 091654Z AUTO 28015G23KT 10SM FEW049 M03/M14 A2998 RMK AO2 SLP161 T10281139
KVTA 091654Z AUTO 22010KT 10SM OVC025 M03/M08 A3044 RMK AO2 SLP321 T10281083
KVTI 091715Z AUTO 29005KT 10SM CLR M07/M11 A3060 RMK AO2
KVTN 091652Z AUTO 15008KT 10SM OVC040 M11/M14 A3036 RMK AO2 SNE40 SLP344 P0000 T11111144
KVTP 091713Z AUTO 04026G35KT 10SM CLR M02/M08 A3023 RMK AO2
KVUJ 091705Z AUTO 33011G15KT 10SM CLR 04/M09 A3045 RMK AO2 T00361091
KVUO 091712Z AUTO VRB04KT 5SM -RA BR SCT007 OVC013 01/M01 A3007 RMK AO2 UPB01E03RAB03 P0000 I1000 T00061011
KVVG 091715Z AUTO 10008KT 10SM 12/06 A3023 RMK A01
KVVV 091714Z AUTO 29005KT 10SM SCT090 M14/M19 A3057 RMK AO2
KVWU 091714Z AUTO 29005KT 7SM SCT017 OVC033 M14/M17 A3050 RMK AO2
KVYS 091715Z AUTO 30009KT 10SM OVC037 M05/M08 A3057 RMK AO2 T10461077
KW13 091715Z AUTO 26008KT 10SM BKN049 00/M13 A3032 RMK AO1 T00001133
KW22 091715Z AUTO 28009KT 10SM OVC015 M06/M09 A3039 RMK AO2 PWINO
KW29 091705Z AUTO 31017G25KT 7SM CLR 03/M07 A3028 RMK AO2
KW31 091715Z AUTO 34007KT 10SM CLR 02/M10 A3036 RMK AO1 T00201098
KW43 091715Z AUTO 00000KT 10SM SCT060 SCT075 BKN120 M18/M21 A3023 RMK AO2
KW63 091715Z AUTO 31006KT 10SM CLR 02/M10 A3039 RMK AO1
KW75 091715Z AUTO 30013G20KT 10SM CLR 03/M08 A3032 RMK AO1 T00311077
KW78 091715Z AUTO 33011KT 10SM CLR 03/M12 A3040 RMK AO1 T00271117
KW81 091715Z AUTO 30007KT 260V350 10SM CLR 03/M10 A3037 RMK AO1 T00251099
KW96 091715Z AUTO 30014G18KT 10SM CLR 04/M10 A3034 RMK AO1 T00351101
KW99 091710Z AUTO 30008G21KT 10SM SCT038 OVC046 00/M09 A3037 RMK AO2 T00011088
KWAL 091654Z 32012KT 10SM CLR 03/M07 A3028 RMK AO2 SLP251 T00331067
KWDG 091650Z 14012KT 10SM OVC055 M03/M09 A3060
KWDR 091715Z AUTO 33008KT 295V355 10SM CLR 06/M08 A3045 RMK AO1
KWHP 091650Z 00000KT 10SM SKC 13/06 A3029
KWJF 091656Z 00000KT 10SM BKN070 13/07 A3027 RMK AO2 SLP253 T01280067
KWLD 091654Z AUTO 14011KT 10SM OVC060 M04/M11 A3063 RMK AO2 SLP388 T10391111
KWMC 091656Z AUTO 18011KT 10SM FEW060 BKN120 04/M01 A3014 RMK AO2 SLP208 T00441011
KWRB 091658Z AUTO 31006KT 10SM CLR 07/M08 A3044 RMK AO2 SLP312 T00671085
KWRI 091658Z AUTO 30015G22KT 10SM FEW046 03/M07 A3014 RMK AO2 PK WND 30026/51 SLP207 T00341072
KWRL 091653Z AUTO 00000KT 10SM CLR M15/M17 A3022 RMK AO2 SLP323 T11501172
KWST 091653Z AUTO 30012G21KT 10SM CLR 03/M10 A3002 RMK AO2 SLP164 T00331100
KWVI 091653Z AUTO 00000KT 6SM BR SCT021 BKN032 13/13 A3027 RMK AO2 SLP249 T01330133 $
KWVL 091656Z AUTO 30013G20KT 10SM BKN045 OVC050 M01/M10 A2980 RMK AO2 PK WND 25027/1558 SLP130 T10111100 FZRANO
KWWD 091656Z AUTO 30012G20KT 10SM SCT036 03/M06 A3024 RMK AO2 SLP242 T00281061 $
KWWR 091715Z AUTO 16014G19KT 10SM OVC030 M01/M12 A3048 RMK AO2
KWYS 091710Z AUTO 31004KT 10SM -SN OVC010 M10/M11 A3009 RMK AO2
KX60 091715Z AUTO 35010KT 10SM CLR 16/M02 A3035 RMK A01 TSNO
KXBP 091715Z AUTO 12004KT 10SM OVC050 01/M07 A3066 RMK AO2 T00051067
KXIH 091715Z AUTO 05021KT 10SM CLR 07/00 A3051 RMK A01
KXLL 091715Z AUTO 28013G19KT 10SM BKN045 OVC050 02/M07 A3019 RMK AO2
KXMR 091658Z AUTO 36013G21KT 10SM FEW027 17/11 A3026 RMK AO2 SLP250 T01710113 $
KXNA 091653Z 18005KT 10SM CLR M03/M10 A3064 RMK AO2 SLP391 T10281100
KXPY 091715Z AUTO 05015G21KT 10SM FEW120 08/M00 A3050 RMK A01
KXSA 091715Z AUTO 03008G16KT 260V110 10SM CLR 04/M13 A3033 RMK AO2 T00411126
KXVG 091716Z AUTO 28003KT 5SM -SN OVC026 M13/M17 A3049 RMK AO2
KY19 091655Z AUTO 32006KT 10SM -SN SCT004 BKN013 M19/M21 A3055 RMK AO2
KY23 091715Z AUTO 31003KT 7SM -SN BKN014 OVC019 M08/M12 A3050 RMK AO2 T10821117
KY31 091713Z AUTO 24003KT 4SM -SN SCT016 BKN024 OVC037 M03/M07 A3031 RMK AO2 T10351068
KY49 091715Z AUTO 27009KT 10SM OVC025 M14/M19 A3049 RMK AO2 T11381191
KY50 091656Z AUTO 29008KT 10SM CLR M07/M11 A3050 RMK AO2 SLP358 T10671111
KY51 091715Z AUTO 29005KT 10SM OVC016 M08/M11 A3051 RMK AO1 T10801115
KY63 091719Z AUTO 25006KT 210V320 5SM BR OVC017 M16/M18 A3056 RMK AO2 T11611183
KY70 091714Z AUTO 31008KT 10SM SCT028 BKN039 OVC060 M03/M08 A3038 RMK AO2 T10271083
KYIP 091653Z 30016G21KT 10SM SCT039 OVC070 00/M08 A3038 RMK AO2 SLP294 T00001078
KYKM 091653Z 25005KT 10SM SCT032 BKN047 OVC055 M04/M07 A3019 RMK AO2 SLP240 T10441072
KYKN 091715Z AUTO 00000KT 10SM FEW040 M14/M17 A3057 RMK AO1
KYNG 091707Z 24007KT 1SM -SN BKN013 OVC020 M03/M06 A3032 RMK AO2 P0000 T10331061
KZPH 091735Z AUTO 03009KT 10SM CLR A3033 RMK AO2
KZZV 091653Z AUTO 27011KT 10SM OVC022 M03/M09 A3045 RMK AO2 SLP323 T10331089